Darstellungsparameter: Aktuell verwendete Einstellungen:
Skalierung der Graphiken ... ?
xyx+y,   Skalierungsfaktor:      Skalierung: Modus: x, Faktor: 1
Darstellungszeitraum ... ?
Vom - - bis: - -   Zeitraum: 09.06.2019 - 08.12.2019
Min/Max/Avg-Anzeige ... ?
Zeige MMA aktuell
Zeige MMA Monat
Zeige MMA alles
Zeige --A aktuell
Zeige --A Monat
Zeige --A alles
Keine MMA-Anzeige
MMA:
Keine MMA-Graphiken
MMA-Basis: 09.06.2019 - 08.12.2019
Quicknavigation für Darstellung... ?
Tage:      1T, 2T, 3T, 5T -1T -2T -3T -5T +1T +2T +3T +5T
Wochen: 1W, 2W, 3W -1W -2W -3W +1W +2W +3W
Monate: 1M, 3M, 6M -1M -3M -6M +1M +3M +6M
Jahre:    1J, 3J, 5J, 10J -1J -3J -5J -10J +1J +3J +5J +10J
Nutze für die Darstellung ... ?
Originaldaten oder Mittelwerte auf ...
Stundenbasis Tagesbasis Wochenbasis
Monatsbasis Jahresbasis      Datenbasis: Original-Daten
Darstellen als:
Statistik (Auto) Statistik J:M      Darstellung:
Zur Graphik,    zurück zur Übersicht aller Sensoren.
 
Tabellarische Datenbersicht: ?
 
Sensor: Nr:Datum:Temp:Feuchte:Taupunkt:
Aussen-T/F 1 09-06-2019 00:00:00 12.1 C 83 % 9.3 C
2 09-06-2019 00:05:00 12.1 C 84 % 9.48 C
3 09-06-2019 00:10:00 11.9 C 84 % 9.29 C
4 09-06-2019 00:15:00 11.9 C 84 % 9.29 C
5 09-06-2019 00:20:00 11.8 C 84 % 9.19 C
6 09-06-2019 00:25:00 11.7 C 84 % 9.09 C
7 09-06-2019 00:30:00 11.6 C 85 % 9.17 C
8 09-06-2019 00:35:00 11.6 C 85 % 9.17 C
9 09-06-2019 00:40:00 11.4 C 85 % 8.97 C
10 09-06-2019 00:45:00 11.3 C 86 % 9.05 C
11 09-06-2019 00:50:00 11.3 C 86 % 9.05 C
12 09-06-2019 00:55:00 11.3 C 86 % 9.05 C
13 09-06-2019 01:00:00 11.2 C 86 % 8.95 C
14 09-06-2019 01:05:00 11.2 C 87 % 9.12 C
15 09-06-2019 01:10:00 11.2 C 87 % 9.12 C
16 09-06-2019 01:15:00 11.1 C 87 % 9.02 C
17 09-06-2019 01:20:00 11 C 87 % 8.92 C
18 09-06-2019 01:25:00 11 C 87 % 8.92 C
19 09-06-2019 01:30:00 11.1 C 87 % 9.02 C
20 09-06-2019 01:35:00 11.1 C 87 % 9.02 C
21 09-06-2019 01:40:00 11.1 C 87 % 9.02 C
22 09-06-2019 01:45:00 11.1 C 87 % 9.02 C
23 09-06-2019 01:50:00 11 C 87 % 8.92 C
24 09-06-2019 01:55:00 10.9 C 87 % 8.82 C
25 09-06-2019 02:00:00 10.9 C 87 % 8.82 C
Sensor: Nr:Datum:Temp:Feuchte:Taupunkt:
Aussen-T/F 26 09-06-2019 02:05:00 11.1 C 87 % 9.02 C
27 09-06-2019 02:10:00 11 C 87 % 8.92 C
28 09-06-2019 02:15:00 11 C 87 % 8.92 C
29 09-06-2019 02:20:00 11.1 C 87 % 9.02 C
30 09-06-2019 02:25:00 11.1 C 87 % 9.02 C
31 09-06-2019 02:30:00 11 C 87 % 8.92 C
32 09-06-2019 02:35:00 10.9 C 87 % 8.82 C
33 09-06-2019 02:40:00 10.8 C 88 % 8.89 C
34 09-06-2019 02:45:00 10.8 C 88 % 8.89 C
35 09-06-2019 02:50:00 10.7 C 88 % 8.8 C
36 09-06-2019 02:55:00 10.7 C 88 % 8.8 C
37 09-06-2019 03:00:00 10.6 C 89 % 8.86 C
38 09-06-2019 03:05:00 10.6 C 89 % 8.86 C
39 09-06-2019 03:10:00 10.5 C 89 % 8.77 C
40 09-06-2019 03:15:00 10.4 C 89 % 8.67 C
41 09-06-2019 03:20:00 10.4 C 89 % 8.67 C
42 09-06-2019 03:25:00 10.3 C 89 % 8.57 C
43 09-06-2019 03:30:00 10.3 C 89 % 8.57 C
44 09-06-2019 03:35:00 10.2 C 89 % 8.47 C
45 09-06-2019 03:40:00 10.1 C 89 % 8.37 C
46 09-06-2019 03:45:00 10.1 C 90 % 8.54 C
47 09-06-2019 03:50:00 10 C 89 % 8.27 C
48 09-06-2019 03:55:00 9.9 C 89 % 8.17 C
49 09-06-2019 04:00:00 9.8 C 90 % 8.24 C
50 09-06-2019 04:05:00 9.8 C 90 % 8.24 C
Sensor: Nr:Datum:Temp:Feuchte:Taupunkt:
Aussen-T/F 51 09-06-2019 04:10:00 9.8 C 90 % 8.24 C
52 09-06-2019 04:15:00 9.7 C 90 % 8.14 C
53 09-06-2019 04:20:00 9.6 C 90 % 8.04 C
54 09-06-2019 04:25:00 9.4 C 90 % 7.85 C
55 09-06-2019 04:30:00 9.3 C 90 % 7.75 C
56 09-06-2019 04:35:00 9.2 C 90 % 7.65 C
57 09-06-2019 04:40:00 9.2 C 91 % 7.81 C
58 09-06-2019 04:45:00 9.1 C 91 % 7.71 C
59 09-06-2019 04:50:00 9 C 91 % 7.61 C
60 09-06-2019 04:55:00 8.9 C 91 % 7.51 C
61 09-06-2019 05:00:00 8.9 C 91 % 7.51 C
62 09-06-2019 05:05:00 8.8 C 92 % 7.57 C
63 09-06-2019 05:10:00 8.8 C 92 % 7.57 C
64 09-06-2019 05:15:00 8.7 C 92 % 7.47 C
65 09-06-2019 05:20:00 8.7 C 92 % 7.47 C
66 09-06-2019 05:25:00 8.6 C 92 % 7.38 C
67 09-06-2019 05:30:00 8.6 C 92 % 7.38 C
68 09-06-2019 05:35:00 8.6 C 93 % 7.53 C
69 09-06-2019 05:40:00 8.6 C 93 % 7.53 C
70 09-06-2019 05:45:00 8.6 C 93 % 7.53 C
71 09-06-2019 05:50:00 8.6 C 93 % 7.53 C
72 09-06-2019 05:55:00 8.6 C 93 % 7.53 C
73 09-06-2019 06:00:00 8.6 C 93 % 7.53 C
74 09-06-2019 06:05:00 8.6 C 93 % 7.53 C
75 09-06-2019 06:10:00 8.5 C 93 % 7.43 C
Sensor: Nr:Datum:Temp:Feuchte:Taupunkt:
Aussen-T/F 76 09-06-2019 06:15:00 8.5 C 93 % 7.43 C
77 09-06-2019 06:20:00 8.4 C 93 % 7.34 C
78 09-06-2019 06:25:00 8.5 C 93 % 7.43 C
79 09-06-2019 06:30:00 8.6 C 93 % 7.53 C
80 09-06-2019 06:35:00 8.6 C 94 % 7.69 C
81 09-06-2019 06:40:00 8.7 C 94 % 7.79 C
82 09-06-2019 06:45:00 8.8 C 94 % 7.89 C
83 09-06-2019 06:50:00 8.8 C 94 % 7.89 C
84 09-06-2019 06:55:00 9 C 94 % 8.09 C
85 09-06-2019 07:00:00 9.2 C 94 % 8.29 C
86 09-06-2019 07:05:00 9.3 C 95 % 8.54 C
87 09-06-2019 07:10:00 9.3 C 95 % 8.54 C
88 09-06-2019 07:15:00 9.4 C 94 % 8.48 C
89 09-06-2019 07:20:00 9.6 C 94 % 8.68 C
90 09-06-2019 07:25:00 9.6 C 95 % 8.84 C
91 09-06-2019 07:30:00 9.7 C 95 % 8.94 C
92 09-06-2019 07:35:00 9.8 C 94 % 8.88 C
93 09-06-2019 07:40:00 9.9 C 95 % 9.14 C
94 09-06-2019 07:45:00 10.1 C 94 % 9.18 C
95 09-06-2019 07:50:00 10.1 C 94 % 9.18 C
96 09-06-2019 07:55:00 10.2 C 94 % 9.28 C
97 09-06-2019 08:00:00 10.3 C 94 % 9.38 C
98 09-06-2019 08:05:00 10.4 C 94 % 9.48 C
99 09-06-2019 08:10:00 10.5 C 94 % 9.58 C
100 09-06-2019 08:15:00 10.6 C 94 % 9.68 C
Sensor: Nr:Datum:Temp:Feuchte:Taupunkt:
Aussen-T/F 101 09-06-2019 08:20:00 10.7 C 94 % 9.77 C
102 09-06-2019 08:25:00 10.8 C 94 % 9.87 C
103 09-06-2019 08:30:00 11 C 95 % 10.23 C
104 09-06-2019 08:35:00 11.2 C 95 % 10.43 C
105 09-06-2019 08:40:00 11.4 C 95 % 10.63 C
106 09-06-2019 08:45:00 11.7 C 94 % 10.77 C
107 09-06-2019 08:50:00 11.8 C 94 % 10.87 C
108 09-06-2019 08:55:00 12 C 94 % 11.07 C
109 09-06-2019 09:00:00 12.1 C 93 % 11 C
110 09-06-2019 09:05:00 12.2 C 93 % 11.1 C
111 09-06-2019 09:10:00 12.3 C 92 % 11.04 C
112 09-06-2019 09:15:00 12.4 C 92 % 11.14 C
113 09-06-2019 09:20:00 12.5 C 91 % 11.07 C
114 09-06-2019 09:25:00 12.7 C 91 % 11.27 C
115 09-06-2019 09:30:00 12.8 C 91 % 11.37 C
116 09-06-2019 09:35:00 12.9 C 90 % 11.3 C
117 09-06-2019 09:40:00 13.1 C 90 % 11.5 C
118 09-06-2019 09:45:00 13.3 C 90 % 11.7 C
119 09-06-2019 09:50:00 13.6 C 89 % 11.82 C
120 09-06-2019 09:55:00 13.8 C 88 % 11.85 C
121 09-06-2019 10:00:00 14.1 C 88 % 12.14 C
122 09-06-2019 10:05:00 14.3 C 86 % 11.99 C
123 09-06-2019 10:10:00 14.6 C 83 % 11.75 C
124 09-06-2019 10:15:00 15.2 C 80 % 11.78 C
125 09-06-2019 10:20:00 15.9 C 76 % 11.68 C
Sensor: Nr:Datum:Temp:Feuchte:Taupunkt:
Aussen-T/F 126 09-06-2019 10:25:00 16.6 C 72 % 11.54 C
127 09-06-2019 10:30:00 17.3 C 68 % 11.34 C
128 09-06-2019 10:35:00 17.7 C 66 % 11.27 C
129 09-06-2019 10:40:00 18 C 65 % 11.33 C
130 09-06-2019 10:45:00 18.2 C 65 % 11.52 C
131 09-06-2019 10:50:00 18.3 C 64 % 11.38 C
132 09-06-2019 10:55:00 18.4 C 63 % 11.23 C
133 09-06-2019 11:00:00 18.6 C 62 % 11.18 C
134 09-06-2019 11:05:00 18.6 C 60 % 10.69 C
135 09-06-2019 11:10:00 18.7 C 59 % 10.53 C
136 09-06-2019 11:15:00 18.8 C 58 % 10.37 C
137 09-06-2019 11:20:00 18.9 C 58 % 10.46 C
138 09-06-2019 11:25:00 18.9 C 56 % 9.94 C
139 09-06-2019 11:30:00 18.9 C 57 % 10.2 C
140 09-06-2019 11:35:00 19 C 56 % 10.03 C
141 09-06-2019 11:40:00 19 C 55 % 9.76 C
142 09-06-2019 11:45:00 19 C 56 % 10.03 C
143 09-06-2019 11:50:00 19 C 56 % 10.03 C
144 09-06-2019 11:55:00 19 C 58 % 10.56 C
145 09-06-2019 12:00:00 19 C 57 % 10.3 C
146 09-06-2019 12:05:00 19.2 C 56 % 10.22 C
147 09-06-2019 12:10:00 19.5 C 56 % 10.5 C
148 09-06-2019 12:15:00 19.7 C 55 % 10.41 C
149 09-06-2019 12:20:00 19.8 C 54 % 10.23 C
150 09-06-2019 12:25:00 19.8 C 52 % 9.67 C
Sensor: Nr:Datum:Temp:Feuchte:Taupunkt:
Aussen-T/F 151 09-06-2019 12:30:00 19.8 C 53 % 9.95 C
152 09-06-2019 12:35:00 19.9 C 52 % 9.76 C
153 09-06-2019 12:40:00 20.1 C 53 % 10.23 C
154 09-06-2019 12:45:00 20.2 C 52 % 10.04 C
155 09-06-2019 12:50:00 20.1 C 52 % 9.94 C
156 09-06-2019 12:55:00 20.1 C 52 % 9.94 C
157 09-06-2019 13:00:00 20.1 C 52 % 9.94 C
158 09-06-2019 13:05:00 20.2 C 52 % 10.04 C
159 09-06-2019 13:10:00 20.3 C 53 % 10.41 C
160 09-06-2019 13:15:00 20.3 C 52 % 10.13 C
161 09-06-2019 13:20:00 20.5 C 51 % 10.02 C
162 09-06-2019 13:25:00 20.6 C 51 % 10.12 C
163 09-06-2019 13:30:00 20.7 C 51 % 10.21 C
164 09-06-2019 13:35:00 20.8 C 52 % 10.59 C
165 09-06-2019 13:40:00 20.9 C 52 % 10.68 C
166 09-06-2019 13:45:00 21.2 C 50 % 10.37 C
167 09-06-2019 13:50:00 21.4 C 52 % 11.14 C
168 09-06-2019 13:55:00 21.6 C 52 % 11.33 C
169 09-06-2019 14:00:00 21.7 C 49 % 10.53 C
170 09-06-2019 14:05:00 21.8 C 50 % 10.92 C
171 09-06-2019 14:10:00 21.8 C 49 % 10.62 C
172 09-06-2019 14:15:00 21.8 C 49 % 10.62 C
173 09-06-2019 14:20:00 21.9 C 48 % 10.4 C
174 09-06-2019 14:25:00 21.9 C 49 % 10.71 C
175 09-06-2019 14:30:00 21.9 C 49 % 10.71 C
Sensor: Nr:Datum:Temp:Feuchte:Taupunkt:
Aussen-T/F 176 09-06-2019 14:35:00 22 C 52 % 11.7 C
177 09-06-2019 14:40:00 22.1 C 58 % 13.45 C
178 09-06-2019 14:45:00 22.1 C 50 % 11.2 C
179 09-06-2019 14:50:00 22 C 52 % 11.7 C
180 09-06-2019 14:55:00 22.1 C 51 % 11.5 C
181 09-06-2019 15:00:00 22.2 C 50 % 11.29 C
182 09-06-2019 15:05:00 22.2 C 49 % 10.98 C
183 09-06-2019 15:10:00 22.1 C 52 % 11.79 C
184 09-06-2019 15:15:00 22.1 C 51 % 11.5 C
185 09-06-2019 15:20:00 22.2 C 52 % 11.88 C
186 09-06-2019 15:25:00 22.4 C 49 % 11.17 C
187 09-06-2019 15:30:00 22.4 C 50 % 11.47 C
188 09-06-2019 15:35:00 22.6 C 51 % 11.96 C
189 09-06-2019 15:40:00 22.7 C 50 % 11.75 C
190 09-06-2019 15:45:00 22.8 C 51 % 12.14 C
191 09-06-2019 15:50:00 22.9 C 50 % 11.93 C
192 09-06-2019 15:55:00 22.9 C 49 % 11.63 C
193 09-06-2019 16:00:00 22.9 C 50 % 11.93 C
194 09-06-2019 16:05:00 22.9 C 50 % 11.93 C
195 09-06-2019 16:10:00 22.9 C 51 % 12.23 C
196 09-06-2019 16:15:00 22.9 C 50 % 11.93 C
197 09-06-2019 16:20:00 22.7 C 51 % 12.05 C
198 09-06-2019 16:25:00 22.8 C 50 % 11.84 C
199 09-06-2019 16:30:00 22.8 C 50 % 11.84 C
200 09-06-2019 16:35:00 22.8 C 51 % 12.14 C
Sensor: Nr:Datum:Temp:Feuchte:Taupunkt:
Aussen-T/F 201 09-06-2019 16:40:00 22.8 C 51 % 12.14 C
202 09-06-2019 16:45:00 22.7 C 50 % 11.75 C
203 09-06-2019 16:50:00 22.6 C 52 % 12.25 C
204 09-06-2019 16:55:00 22.7 C 52 % 12.34 C
205 09-06-2019 17:00:00 22.6 C 52 % 12.25 C
206 09-06-2019 17:05:00 22.6 C 52 % 12.25 C
207 09-06-2019 17:10:00 22.6 C 51 % 11.96 C
208 09-06-2019 17:15:00 22.7 C 51 % 12.05 C
209 09-06-2019 17:20:00 22.8 C 52 % 12.43 C
210 09-06-2019 17:25:00 22.9 C 52 % 12.53 C
211 09-06-2019 17:30:00 22.8 C 51 % 12.14 C
212 09-06-2019 17:35:00 22.8 C 50 % 11.84 C
213 09-06-2019 17:40:00 22.8 C 52 % 12.43 C
214 09-06-2019 17:45:00 22.7 C 52 % 12.34 C
215 09-06-2019 17:50:00 22.6 C 51 % 11.96 C
216 09-06-2019 17:55:00 22.5 C 53 % 12.45 C
217 09-06-2019 18:00:00 22.6 C 52 % 12.25 C
218 09-06-2019 18:05:00 22.7 C 50 % 11.75 C
219 09-06-2019 18:10:00 22.8 C 51 % 12.14 C
220 09-06-2019 18:15:00 23.1 C 49 % 11.81 C
221 09-06-2019 18:20:00 23.4 C 50 % 12.39 C
222 09-06-2019 18:25:00 23.9 C 48 % 12.23 C
223 09-06-2019 18:30:00 23.8 C 47 % 11.82 C
224 09-06-2019 18:35:00 23.6 C 48 % 11.95 C
225 09-06-2019 18:40:00 23.1 C 49 % 11.81 C
Sensor: Nr:Datum:Temp:Feuchte:Taupunkt:
Aussen-T/F 226 09-06-2019 18:45:00 22.8 C 51 % 12.14 C
227 09-06-2019 18:50:00 22.7 C 54 % 12.92 C
228 09-06-2019 18:55:00 22.6 C 56 % 13.38 C
229 09-06-2019 19:00:00 22.6 C 57 % 13.65 C
230 09-06-2019 19:05:00 22.4 C 58 % 13.73 C
231 09-06-2019 19:10:00 22.3 C 62 % 14.67 C
232 09-06-2019 19:15:00 22.2 C 63 % 14.82 C
233 09-06-2019 19:20:00 22.1 C 64 % 14.97 C
234 09-06-2019 19:25:00 21.8 C 64 % 14.69 C
235 09-06-2019 19:30:00 21.6 C 65 % 14.74 C
236 09-06-2019 19:35:00 21.4 C 65 % 14.55 C
237 09-06-2019 19:40:00 21.2 C 65 % 14.36 C
238 09-06-2019 19:45:00 20.9 C 66 % 14.31 C
239 09-06-2019 19:50:00 20.7 C 66 % 14.12 C
240 09-06-2019 19:55:00 20.5 C 67 % 14.16 C
241 09-06-2019 20:00:00 20.3 C 67 % 13.97 C
242 09-06-2019 20:05:00 20.2 C 68 % 14.11 C
243 09-06-2019 20:10:00 20.1 C 69 % 14.24 C
244 09-06-2019 20:15:00 19.9 C 68 % 13.82 C
245 09-06-2019 20:20:00 19.8 C 69 % 13.95 C
246 09-06-2019 20:25:00 19.8 C 69 % 13.95 C
247 09-06-2019 20:30:00 19.7 C 70 % 14.08 C
248 09-06-2019 20:35:00 19.6 C 70 % 13.98 C
249 09-06-2019 20:40:00 19.5 C 69 % 13.66 C
250 09-06-2019 20:45:00 19.4 C 70 % 13.79 C
Sensor: Nr:Datum:Temp:Feuchte:Taupunkt:
Aussen-T/F 251 09-06-2019 20:50:00 19.3 C 70 % 13.69 C
252 09-06-2019 20:55:00 19.3 C 70 % 13.69 C
253 09-06-2019 21:00:00 19.2 C 70 % 13.6 C
254 09-06-2019 21:05:00 19.1 C 71 % 13.72 C
255 09-06-2019 21:10:00 19.1 C 71 % 13.72 C
256 09-06-2019 21:15:00 19 C 72 % 13.84 C
257 09-06-2019 21:20:00 18.9 C 72 % 13.74 C
258 09-06-2019 21:25:00 18.9 C 72 % 13.74 C
259 09-06-2019 21:30:00 18.8 C 73 % 13.86 C
260 09-06-2019 21:35:00 18.8 C 73 % 13.86 C
261 09-06-2019 21:40:00 18.7 C 73 % 13.76 C
262 09-06-2019 21:45:00 18.7 C 73 % 13.76 C
263 09-06-2019 21:50:00 18.6 C 73 % 13.67 C
264 09-06-2019 21:55:00 18.6 C 73 % 13.67 C
265 09-06-2019 22:00:00 18.6 C 74 % 13.88 C
266 09-06-2019 22:05:00 18.5 C 74 % 13.78 C
267 09-06-2019 22:10:00 18.5 C 74 % 13.78 C
268 09-06-2019 22:15:00 18.4 C 74 % 13.68 C
269 09-06-2019 22:20:00 18.4 C 74 % 13.68 C
270 09-06-2019 22:25:00 18.4 C 74 % 13.68 C
271 09-06-2019 22:30:00 18.4 C 74 % 13.68 C
272 09-06-2019 22:35:00 18.3 C 76 % 14 C
273 09-06-2019 22:40:00 18.3 C 75 % 13.79 C
274 09-06-2019 22:45:00 18.2 C 75 % 13.7 C
275 09-06-2019 22:50:00 18.2 C 75 % 13.7 C
Sensor: Nr:Datum:Temp:Feuchte:Taupunkt:
Aussen-T/F 276 09-06-2019 22:55:00 18.2 C 76 % 13.9 C
277 09-06-2019 23:00:00 18.1 C 76 % 13.81 C
278 09-06-2019 23:05:00 18.1 C 76 % 13.81 C
279 09-06-2019 23:10:00 18.1 C 75 % 13.6 C
280 09-06-2019 23:15:00 18 C 76 % 13.71 C
281 09-06-2019 23:20:00 17.9 C 76 % 13.61 C
282 09-06-2019 23:25:00 17.9 C 76 % 13.61 C
283 09-06-2019 23:30:00 17.9 C 76 % 13.61 C
284 09-06-2019 23:35:00 17.9 C 76 % 13.61 C
285 09-06-2019 23:40:00 17.9 C 76 % 13.61 C
286 09-06-2019 23:45:00 17.9 C 76 % 13.61 C
287 09-06-2019 23:50:00 17.9 C 77 % 13.81 C
288 09-06-2019 23:55:00 17.8 C 78 % 13.91 C
289 10-06-2019 00:00:00 17.8 C 77 % 13.72 C
290 10-06-2019 00:05:00 17.8 C 77 % 13.72 C
291 10-06-2019 00:10:00 17.7 C 77 % 13.62 C
292 10-06-2019 00:15:00 17.7 C 78 % 13.82 C
293 10-06-2019 00:20:00 17.6 C 78 % 13.72 C
294 10-06-2019 00:25:00 17.5 C 78 % 13.62 C
295 10-06-2019 00:30:00 17.4 C 78 % 13.53 C
296 10-06-2019 00:35:00 17.4 C 78 % 13.53 C
297 10-06-2019 00:40:00 17.4 C 78 % 13.53 C
298 10-06-2019 00:45:00 17.4 C 78 % 13.53 C
299 10-06-2019 00:50:00 17.3 C 78 % 13.43 C
300 10-06-2019 00:55:00 17.3 C 79 % 13.63 C
Sensor: Nr:Datum:Temp:Feuchte:Taupunkt:
Aussen-T/F 301 10-06-2019 01:00:00 17.3 C 78 % 13.43 C
302 10-06-2019 01:05:00 17.3 C 77 % 13.23 C
303 10-06-2019 01:10:00 17.2 C 77 % 13.14 C
304 10-06-2019 01:15:00 17.2 C 77 % 13.14 C
305 10-06-2019 01:20:00 17.1 C 77 % 13.04 C
306 10-06-2019 01:25:00 17 C 78 % 13.14 C
307 10-06-2019 01:30:00 16.9 C 78 % 13.04 C
308 10-06-2019 01:35:00 16.8 C 78 % 12.94 C
309 10-06-2019 01:40:00 16.8 C 78 % 12.94 C
310 10-06-2019 01:45:00 16.7 C 78 % 12.85 C
311 10-06-2019 01:50:00 16.6 C 78 % 12.75 C
312 10-06-2019 01:55:00 16.6 C 78 % 12.75 C
313 10-06-2019 02:00:00 16.6 C 79 % 12.95 C
314 10-06-2019 02:05:00 16.5 C 79 % 12.85 C
315 10-06-2019 02:10:00 16.4 C 79 % 12.75 C
316 10-06-2019 02:15:00 16.4 C 79 % 12.75 C
317 10-06-2019 02:20:00 16.3 C 80 % 12.85 C
318 10-06-2019 02:25:00 16.3 C 79 % 12.65 C
319 10-06-2019 02:30:00 16.1 C 80 % 12.65 C
320 10-06-2019 02:35:00 15.9 C 80 % 12.46 C
321 10-06-2019 02:40:00 15.8 C 80 % 12.36 C
322 10-06-2019 02:45:00 15.7 C 80 % 12.26 C
323 10-06-2019 02:50:00 15.6 C 81 % 12.35 C
324 10-06-2019 02:55:00 15.4 C 81 % 12.16 C
325 10-06-2019 03:00:00 15.3 C 82 % 12.25 C
Sensor: Nr:Datum:Temp:Feuchte:Taupunkt:
Aussen-T/F 326 10-06-2019 03:05:00 15.1 C 83 % 12.24 C
327 10-06-2019 03:10:00 15 C 84 % 12.32 C
328 10-06-2019 03:15:00 15 C 84 % 12.32 C
329 10-06-2019 03:20:00 14.9 C 85 % 12.4 C
330 10-06-2019 03:25:00 14.9 C 85 % 12.4 C
331 10-06-2019 03:30:00 14.9 C 85 % 12.4 C
332 10-06-2019 03:35:00 14.9 C 86 % 12.58 C
333 10-06-2019 03:40:00 14.9 C 86 % 12.58 C
334 10-06-2019 03:45:00 14.8 C 86 % 12.48 C
335 10-06-2019 03:50:00 14.8 C 86 % 12.48 C
336 10-06-2019 03:55:00 14.8 C 85 % 12.3 C
337 10-06-2019 04:00:00 14.7 C 86 % 12.38 C
338 10-06-2019 04:05:00 14.7 C 86 % 12.38 C
339 10-06-2019 04:10:00 14.7 C 86 % 12.38 C
340 10-06-2019 04:15:00 14.6 C 86 % 12.29 C
341 10-06-2019 04:20:00 14.5 C 86 % 12.19 C
342 10-06-2019 04:25:00 14.4 C 86 % 12.09 C
343 10-06-2019 04:30:00 14.5 C 87 % 12.36 C
344 10-06-2019 04:35:00 14.6 C 87 % 12.46 C
345 10-06-2019 04:40:00 14.7 C 87 % 12.56 C
346 10-06-2019 04:45:00 14.7 C 87 % 12.56 C
347 10-06-2019 04:50:00 14.7 C 87 % 12.56 C
348 10-06-2019 04:55:00 14.7 C 87 % 12.56 C
349 10-06-2019 05:00:00 14.7 C 87 % 12.56 C
350 10-06-2019 05:05:00 14.8 C 87 % 12.66 C
Sensor: Nr:Datum:Temp:Feuchte:Taupunkt:
Aussen-T/F 351 10-06-2019 05:10:00 14.8 C 87 % 12.66 C
352 10-06-2019 05:15:00 14.8 C 87 % 12.66 C
353 10-06-2019 05:20:00 14.8 C 87 % 12.66 C
354 10-06-2019 05:25:00 14.8 C 87 % 12.66 C
355 10-06-2019 05:30:00 14.8 C 88 % 12.83 C
356 10-06-2019 05:35:00 14.7 C 88 % 12.73 C
357 10-06-2019 05:40:00 14.7 C 88 % 12.73 C
358 10-06-2019 05:45:00 14.8 C 88 % 12.83 C
359 10-06-2019 05:50:00 14.8 C 88 % 12.83 C
360 10-06-2019 05:55:00 14.8 C 88 % 12.83 C
361 10-06-2019 06:00:00 14.8 C 88 % 12.83 C
362 10-06-2019 06:05:00 14.8 C 88 % 12.83 C
363 10-06-2019 06:10:00 14.8 C 88 % 12.83 C
364 10-06-2019 06:15:00 14.8 C 88 % 12.83 C
365 10-06-2019 06:20:00 14.8 C 88 % 12.83 C
366 10-06-2019 06:25:00 14.8 C 89 % 13.01 C
367 10-06-2019 06:30:00 14.8 C 89 % 13.01 C
368 10-06-2019 06:35:00 14.8 C 88 % 12.83 C
369 10-06-2019 06:40:00 14.8 C 89 % 13.01 C
370 10-06-2019 06:45:00 14.9 C 89 % 13.1 C
371 10-06-2019 06:50:00 14.9 C 89 % 13.1 C
372 10-06-2019 06:55:00 14.9 C 89 % 13.1 C
373 10-06-2019 07:00:00 14.9 C 89 % 13.1 C
374 10-06-2019 07:05:00 14.9 C 89 % 13.1 C
375 10-06-2019 07:10:00 15 C 90 % 13.37 C
Sensor: Nr:Datum:Temp:Feuchte:Taupunkt:
Aussen-T/F 376 10-06-2019 07:15:00 15.1 C 89 % 13.3 C
377 10-06-2019 07:20:00 15.2 C 89 % 13.4 C
378 10-06-2019 07:25:00 15.4 C 88 % 13.42 C
379 10-06-2019 07:30:00 15.5 C 87 % 13.35 C
380 10-06-2019 07:35:00 15.7 C 87 % 13.54 C
381 10-06-2019 07:40:00 15.8 C 86 % 13.46 C
382 10-06-2019 07:45:00 16 C 86 % 13.66 C
383 10-06-2019 07:50:00 16.2 C 85 % 13.68 C
384 10-06-2019 07:55:00 16.3 C 84 % 13.59 C
385 10-06-2019 08:00:00 16.5 C 83 % 13.6 C
386 10-06-2019 08:05:00 16.7 C 82 % 13.61 C
387 10-06-2019 08:10:00 16.9 C 83 % 14 C
388 10-06-2019 08:15:00 17.2 C 83 % 14.29 C
389 10-06-2019 08:20:00 17.4 C 83 % 14.48 C
390 10-06-2019 08:25:00 17.8 C 81 % 14.5 C
391 10-06-2019 08:30:00 18 C 79 % 14.31 C
392 10-06-2019 08:35:00 18.2 C 79 % 14.5 C
393 10-06-2019 08:40:00 18.3 C 78 % 14.4 C
394 10-06-2019 08:45:00 18.4 C 77 % 14.3 C
395 10-06-2019 08:50:00 18.6 C 78 % 14.69 C
396 10-06-2019 08:55:00 18.7 C 77 % 14.59 C
397 10-06-2019 09:00:00 18.8 C 77 % 14.68 C
398 10-06-2019 09:05:00 18.8 C 76 % 14.48 C
399 10-06-2019 09:10:00 18.8 C 76 % 14.48 C
400 10-06-2019 09:15:00 18.8 C 76 % 14.48 C
Sensor: Nr:Datum:Temp:Feuchte:Taupunkt:
Aussen-T/F 401 10-06-2019 09:20:00 18.8 C 77 % 14.68 C
402 10-06-2019 09:25:00 18.8 C 77 % 14.68 C
403 10-06-2019 09:30:00 19 C 76 % 14.68 C
404 10-06-2019 09:35:00 19.1 C 75 % 14.57 C
405 10-06-2019 09:40:00 19.1 C 75 % 14.57 C
406 10-06-2019 09:45:00 19.1 C 75 % 14.57 C
407 10-06-2019 09:50:00 19.1 C 75 % 14.57 C
408 10-06-2019 09:55:00 19.1 C 75 % 14.57 C
409 10-06-2019 10:00:00 19.2 C 75 % 14.66 C
410 10-06-2019 10:05:00 19.3 C 74 % 14.55 C
411 10-06-2019 10:10:00 19.4 C 74 % 14.65 C
412 10-06-2019 10:15:00 19.4 C 75 % 14.86 C
413 10-06-2019 10:20:00 19.6 C 75 % 15.05 C
414 10-06-2019 10:25:00 19.7 C 74 % 14.94 C
415 10-06-2019 10:30:00 19.9 C 74 % 15.13 C
416 10-06-2019 10:35:00 20.1 C 72 % 14.9 C
417 10-06-2019 10:40:00 20.2 C 71 % 14.78 C
418 10-06-2019 10:45:00 20.3 C 72 % 15.09 C
419 10-06-2019 10:50:00 20.5 C 71 % 15.06 C
420 10-06-2019 10:55:00 20.6 C 71 % 15.16 C
421 10-06-2019 11:00:00 20.7 C 70 % 15.03 C
422 10-06-2019 11:05:00 20.7 C 71 % 15.25 C
423 10-06-2019 11:10:00 20.8 C 70 % 15.13 C
424 10-06-2019 11:15:00 20.9 C 69 % 15 C
425 10-06-2019 11:20:00 21 C 69 % 15.1 C
Sensor: Nr:Datum:Temp:Feuchte:Taupunkt:
Aussen-T/F 426 10-06-2019 11:25:00 21.1 C 68 % 14.97 C
427 10-06-2019 11:30:00 21.2 C 69 % 15.29 C
428 10-06-2019 11:35:00 21.3 C 69 % 15.38 C
429 10-06-2019 11:40:00 21.4 C 67 % 15.02 C
430 10-06-2019 11:45:00 21.5 C 67 % 15.12 C
431 10-06-2019 11:50:00 21.6 C 66 % 14.98 C
432 10-06-2019 11:55:00 21.7 C 67 % 15.31 C
433 10-06-2019 12:00:00 21.9 C 65 % 15.02 C
434 10-06-2019 12:05:00 22 C 65 % 15.12 C
435 10-06-2019 12:10:00 22.1 C 65 % 15.21 C
436 10-06-2019 12:15:00 22.1 C 64 % 14.97 C
437 10-06-2019 12:20:00 22.2 C 62 % 14.58 C
438 10-06-2019 12:25:00 22.3 C 63 % 14.92 C
439 10-06-2019 12:30:00 22.3 C 64 % 15.16 C
440 10-06-2019 12:35:00 22.4 C 65 % 15.5 C
441 10-06-2019 12:40:00 22.5 C 65 % 15.59 C
442 10-06-2019 12:45:00 22.6 C 63 % 15.2 C
443 10-06-2019 12:50:00 22.8 C 62 % 15.14 C
444 10-06-2019 12:55:00 22.9 C 61 % 14.98 C
445 10-06-2019 13:00:00 23 C 60 % 14.82 C
446 10-06-2019 13:05:00 23.1 C 61 % 15.17 C
447 10-06-2019 13:10:00 23.1 C 62 % 15.42 C
448 10-06-2019 13:15:00 23.1 C 61 % 15.17 C
449 10-06-2019 13:20:00 23.1 C 61 % 15.17 C
450 10-06-2019 13:25:00 23.1 C 64 % 15.92 C
Sensor: Nr:Datum:Temp:Feuchte:Taupunkt:
Aussen-T/F 451 10-06-2019 13:30:00 23.1 C 61 % 15.17 C
452 10-06-2019 13:35:00 23.1 C 61 % 15.17 C
453 10-06-2019 13:40:00 23 C 63 % 15.58 C
454 10-06-2019 13:45:00 22.9 C 63 % 15.48 C
455 10-06-2019 13:50:00 23 C 61 % 15.08 C
456 10-06-2019 13:55:00 23.2 C 61 % 15.26 C
457 10-06-2019 14:00:00 23.2 C 63 % 15.77 C
458 10-06-2019 14:05:00 23.2 C 62 % 15.52 C
459 10-06-2019 14:10:00 23.1 C 62 % 15.42 C
460 10-06-2019 14:15:00 23.2 C 62 % 15.52 C
461 10-06-2019 14:20:00 23.2 C 62 % 15.52 C
462 10-06-2019 14:25:00 23.2 C 62 % 15.52 C
463 10-06-2019 14:30:00 23.2 C 63 % 15.77 C
464 10-06-2019 14:35:00 23.2 C 64 % 16.01 C
465 10-06-2019 14:40:00 23.3 C 64 % 16.11 C
466 10-06-2019 14:45:00 23.3 C 61 % 15.36 C
467 10-06-2019 14:50:00 23.3 C 62 % 15.61 C
468 10-06-2019 14:55:00 23.3 C 64 % 16.11 C
469 10-06-2019 15:00:00 23.3 C 63 % 15.86 C
470 10-06-2019 15:05:00 23.3 C 63 % 15.86 C
471 10-06-2019 15:10:00 23.3 C 63 % 15.86 C
472 10-06-2019 15:15:00 23.3 C 63 % 15.86 C
473 10-06-2019 15:20:00 23.2 C 63 % 15.77 C
474 10-06-2019 15:25:00 23.2 C 63 % 15.77 C
475 10-06-2019 15:30:00 23.1 C 65 % 16.16 C
Sensor: Nr:Datum:Temp:Feuchte:Taupunkt:
Aussen-T/F 476 10-06-2019 15:35:00 23.2 C 62 % 15.52 C
477 10-06-2019 15:40:00 23.3 C 62 % 15.61 C
478 10-06-2019 15:45:00 23.2 C 62 % 15.52 C
479 10-06-2019 15:50:00 23.1 C 63 % 15.67 C
480 10-06-2019 15:55:00 23.2 C 63 % 15.77 C
481 10-06-2019 16:00:00 23.4 C 62 % 15.71 C
482 10-06-2019 16:05:00 23.9 C 61 % 15.92 C
483 10-06-2019 16:10:00 24.3 C 59 % 15.78 C
484 10-06-2019 16:15:00 24.3 C 59 % 15.78 C
485 10-06-2019 16:20:00 24.3 C 60 % 16.04 C
486 10-06-2019 16:25:00 24.4 C 60 % 16.13 C
487 10-06-2019 16:30:00 24.4 C 59 % 15.87 C
488 10-06-2019 16:35:00 24.4 C 59 % 15.87 C
489 10-06-2019 16:40:00 24.1 C 59 % 15.59 C
490 10-06-2019 16:45:00 23.9 C 60 % 15.66 C
491 10-06-2019 16:50:00 23.8 C 60 % 15.57 C
492 10-06-2019 16:55:00 23.6 C 60 % 15.38 C
493 10-06-2019 17:00:00 23.4 C 61 % 15.45 C
494 10-06-2019 17:05:00 23.3 C 61 % 15.36 C
495 10-06-2019 17:10:00 23.3 C 62 % 15.61 C
496 10-06-2019 17:15:00 23.4 C 62 % 15.71 C
497 10-06-2019 17:20:00 23.7 C 59 % 15.21 C
498 10-06-2019 17:25:00 23.8 C 59 % 15.31 C
499 10-06-2019 17:30:00 23.8 C 63 % 16.33 C
500 10-06-2019 17:35:00 23.9 C 60 % 15.66 C
Sensor: Nr:Datum:Temp:Feuchte:Taupunkt:
Aussen-T/F 501 10-06-2019 17:40:00 23.8 C 59 % 15.31 C
502 10-06-2019 17:45:00 23.8 C 62 % 16.08 C
503 10-06-2019 17:50:00 23.8 C 61 % 15.83 C
504 10-06-2019 17:55:00 23.8 C 60 % 15.57 C
505 10-06-2019 18:00:00 23.8 C 60 % 15.57 C
506 10-06-2019 18:05:00 23.6 C 60 % 15.38 C
507 10-06-2019 18:10:00 23.6 C 61 % 15.64 C
508 10-06-2019 18:15:00 23.7 C 62 % 15.99 C
509 10-06-2019 18:20:00 23.7 C 61 % 15.73 C
510 10-06-2019 18:25:00 23.6 C 60 % 15.38 C
511 10-06-2019 18:30:00 23.2 C 62 % 15.52 C
512 10-06-2019 18:35:00 22.9 C 62 % 15.23 C
513 10-06-2019 18:40:00 22.8 C 63 % 15.39 C
514 10-06-2019 18:45:00 22.6 C 64 % 15.45 C
515 10-06-2019 18:50:00 22.4 C 63 % 15.01 C
516 10-06-2019 18:55:00 22.4 C 65 % 15.5 C
517 10-06-2019 19:00:00 22.3 C 65 % 15.4 C
518 10-06-2019 19:05:00 22.2 C 64 % 15.07 C
519 10-06-2019 19:10:00 22 C 62 % 14.39 C
520 10-06-2019 19:15:00 21.8 C 63 % 14.45 C
521 10-06-2019 19:20:00 21.7 C 64 % 14.6 C
522 10-06-2019 19:25:00 21.6 C 64 % 14.5 C
523 10-06-2019 19:30:00 21.6 C 65 % 14.74 C
524 10-06-2019 19:35:00 21.6 C 66 % 14.98 C
525 10-06-2019 19:40:00 21.6 C 65 % 14.74 C
Sensor: Nr:Datum:Temp:Feuchte:Taupunkt:
Aussen-T/F 526 10-06-2019 19:45:00 21.4 C 65 % 14.55 C
527 10-06-2019 19:50:00 21.3 C 65 % 14.46 C
528 10-06-2019 19:55:00 21.3 C 68 % 15.16 C
529 10-06-2019 20:00:00 21.2 C 67 % 14.83 C
530 10-06-2019 20:05:00 21.1 C 66 % 14.5 C
531 10-06-2019 20:10:00 20.9 C 69 % 15 C
532 10-06-2019 20:15:00 20.8 C 69 % 14.91 C
533 10-06-2019 20:20:00 20.7 C 69 % 14.81 C
534 10-06-2019 20:25:00 20.6 C 70 % 14.94 C
535 10-06-2019 20:30:00 20.6 C 70 % 14.94 C
536 10-06-2019 20:35:00 20.4 C 70 % 14.75 C
537 10-06-2019 20:40:00 20.4 C 72 % 15.18 C
538 10-06-2019 20:45:00 20.3 C 72 % 15.09 C
539 10-06-2019 20:50:00 20.2 C 72 % 14.99 C
540 10-06-2019 20:55:00 20.2 C 73 % 15.21 C
541 10-06-2019 21:00:00 20.1 C 75 % 15.53 C
542 10-06-2019 21:05:00 19.9 C 75 % 15.34 C
543 10-06-2019 21:10:00 19.7 C 75 % 15.15 C
544 10-06-2019 21:15:00 19.6 C 74 % 14.84 C
545 10-06-2019 21:20:00 19.4 C 74 % 14.65 C
546 10-06-2019 21:25:00 19.3 C 74 % 14.55 C
547 10-06-2019 21:30:00 19.3 C 74 % 14.55 C
548 10-06-2019 21:35:00 19.3 C 74 % 14.55 C
549 10-06-2019 21:40:00 19.2 C 75 % 14.66 C
550 10-06-2019 21:45:00 19.1 C 75 % 14.57 C
Sensor: Nr:Datum:Temp:Feuchte:Taupunkt:
Aussen-T/F 551 10-06-2019 21:50:00 18.9 C 75 % 14.37 C
552 10-06-2019 21:55:00 18.8 C 76 % 14.48 C
553 10-06-2019 22:00:00 18.6 C 77 % 14.49 C
554 10-06-2019 22:05:00 18.4 C 77 % 14.3 C
555 10-06-2019 22:10:00 18.3 C 78 % 14.4 C
556 10-06-2019 22:15:00 18.2 C 79 % 14.5 C
557 10-06-2019 22:20:00 18.1 C 79 % 14.4 C
558 10-06-2019 22:25:00 18 C 80 % 14.5 C
559 10-06-2019 22:30:00 17.9 C 79 % 14.21 C
560 10-06-2019 22:35:00 17.8 C 80 % 14.31 C
561 10-06-2019 22:40:00 17.7 C 80 % 14.21 C
562 10-06-2019 22:45:00 17.7 C 81 % 14.4 C
563 10-06-2019 22:50:00 17.6 C 82 % 14.49 C
564 10-06-2019 22:55:00 17.4 C 82 % 14.3 C
565 10-06-2019 23:00:00 17.3 C 82 % 14.2 C
566 10-06-2019 23:05:00 17.2 C 82 % 14.1 C
567 10-06-2019 23:10:00 17.2 C 82 % 14.1 C
568 10-06-2019 23:15:00 17.1 C 82 % 14 C
569 10-06-2019 23:20:00 17.1 C 82 % 14 C
570 10-06-2019 23:25:00 17.1 C 82 % 14 C
571 10-06-2019 23:30:00 17.1 C 82 % 14 C
572 10-06-2019 23:35:00 17.1 C 83 % 14.19 C
573 10-06-2019 23:40:00 17.1 C 83 % 14.19 C
574 10-06-2019 23:45:00 17 C 83 % 14.09 C
575 10-06-2019 23:50:00 16.9 C 83 % 14 C
Sensor: Nr:Datum:Temp:Feuchte:Taupunkt:
Aussen-T/F 576 10-06-2019 23:55:00 16.9 C 84 % 14.18 C
577 11-06-2019 00:00:00 16.8 C 84 % 14.08 C
578 11-06-2019 00:05:00 16.7 C 85 % 14.17 C
579 11-06-2019 00:10:00 16.7 C 85 % 14.17 C
580 11-06-2019 00:15:00 16.6 C 85 % 14.07 C
581 11-06-2019 00:20:00 16.6 C 85 % 14.07 C
582 11-06-2019 00:25:00 16.5 C 86 % 14.15 C
583 11-06-2019 00:30:00 16.5 C 86 % 14.15 C
584 11-06-2019 00:35:00 16.5 C 86 % 14.15 C
585 11-06-2019 00:40:00 16.5 C 86 % 14.15 C
586 11-06-2019 00:45:00 16.5 C 86 % 14.15 C
587 11-06-2019 00:50:00 16.4 C 86 % 14.05 C
588 11-06-2019 00:55:00 16.4 C 86 % 14.05 C
589 11-06-2019 01:00:00 16.4 C 86 % 14.05 C
590 11-06-2019 01:05:00 16.4 C 87 % 14.23 C
591 11-06-2019 01:10:00 16.4 C 87 % 14.23 C
592 11-06-2019 01:15:00 16.4 C 87 % 14.23 C
593 11-06-2019 01:20:00 16.4 C 87 % 14.23 C
594 11-06-2019 01:25:00 16.4 C 87 % 14.23 C
595 11-06-2019 01:30:00 16.4 C 87 % 14.23 C
596 11-06-2019 01:35:00 16.4 C 87 % 14.23 C
597 11-06-2019 01:40:00 16.4 C 87 % 14.23 C
598 11-06-2019 01:45:00 16.4 C 87 % 14.23 C
599 11-06-2019 01:50:00 16.3 C 86 % 13.95 C
600 11-06-2019 01:55:00 16.3 C 87 % 14.13 C
Sensor: Nr:Datum:Temp:Feuchte:Taupunkt:
Aussen-T/F 601 11-06-2019 02:00:00 16.3 C 86 % 13.95 C
602 11-06-2019 02:05:00 16.3 C 86 % 13.95 C
603 11-06-2019 02:10:00 16.3 C 86 % 13.95 C
604 11-06-2019 02:15:00 16.2 C 86 % 13.86 C
605 11-06-2019 02:20:00 16.2 C 86 % 13.86 C
606 11-06-2019 02:25:00 16.2 C 86 % 13.86 C
607 11-06-2019 02:30:00 16.2 C 86 % 13.86 C
608 11-06-2019 02:35:00 16.1 C 86 % 13.76 C
609 11-06-2019 02:40:00 16.1 C 86 % 13.76 C
610 11-06-2019 02:45:00 16.1 C 86 % 13.76 C
611 11-06-2019 02:50:00 16 C 87 % 13.84 C
612 11-06-2019 02:55:00 15.9 C 88 % 13.92 C
613 11-06-2019 03:00:00 15.8 C 89 % 13.99 C
614 11-06-2019 03:05:00 15.7 C 89 % 13.89 C
615 11-06-2019 03:10:00 15.6 C 89 % 13.79 C
616 11-06-2019 03:15:00 15.4 C 90 % 13.77 C
617 11-06-2019 03:20:00 15.3 C 90 % 13.67 C
618 11-06-2019 03:25:00 15.3 C 91 % 13.84 C
619 11-06-2019 03:30:00 15.2 C 91 % 13.74 C
620 11-06-2019 03:35:00 15.1 C 91 % 13.64 C
621 11-06-2019 03:40:00 15.1 C 92 % 13.81 C
622 11-06-2019 03:45:00 15.1 C 92 % 13.81 C
623 11-06-2019 03:50:00 15 C 92 % 13.71 C
624 11-06-2019 03:55:00 14.9 C 92 % 13.61 C
625 11-06-2019 04:00:00 14.8 C 92 % 13.51 C
Sensor: Nr:Datum:Temp:Feuchte:Taupunkt:
Aussen-T/F 626 11-06-2019 04:05:00 14.8 C 93 % 13.68 C
627 11-06-2019 04:10:00 14.7 C 93 % 13.58 C
628 11-06-2019 04:15:00 14.7 C 93 % 13.58 C
629 11-06-2019 04:20:00 14.7 C 93 % 13.58 C
630 11-06-2019 04:25:00 14.6 C 93 % 13.48 C
631 11-06-2019 04:30:00 14.6 C 93 % 13.48 C
632 11-06-2019 04:35:00 14.6 C 93 % 13.48 C
633 11-06-2019 04:40:00 14.5 C 93 % 13.38 C
634 11-06-2019 04:45:00 14.4 C 93 % 13.28 C
635 11-06-2019 04:50:00 14.4 C 94 % 13.45 C
636 11-06-2019 04:55:00 14.4 C 94 % 13.45 C
637 11-06-2019 05:00:00 14.3 C 94 % 13.35 C
638 11-06-2019 05:05:00 14.3 C 94 % 13.35 C
639 11-06-2019 05:10:00 14.3 C 94 % 13.35 C
640 11-06-2019 05:15:00 14.3 C 94 % 13.35 C
641 11-06-2019 05:20:00 14.2 C 94 % 13.25 C
642 11-06-2019 05:25:00 14.2 C 94 % 13.25 C
643 11-06-2019 05:30:00 14.2 C 94 % 13.25 C
644 11-06-2019 05:35:00 14.2 C 94 % 13.25 C
645 11-06-2019 05:40:00 14.2 C 94 % 13.25 C
646 11-06-2019 05:45:00 14.2 C 94 % 13.25 C
647 11-06-2019 05:50:00 14.1 C 94 % 13.15 C
648 11-06-2019 05:55:00 14.1 C 94 % 13.15 C
649 11-06-2019 06:00:00 14.1 C 94 % 13.15 C
650 11-06-2019 06:05:00 14.1 C 94 % 13.15 C
Sensor: Nr:Datum:Temp:Feuchte:Taupunkt:
Aussen-T/F 651 11-06-2019 06:10:00 14.1 C 95 % 13.31 C
652 11-06-2019 06:15:00 14.1 C 95 % 13.31 C
653 11-06-2019 06:20:00 14.1 C 95 % 13.31 C
654 11-06-2019 06:25:00 14.1 C 95 % 13.31 C
655 11-06-2019 06:30:00 14.1 C 95 % 13.31 C
656 11-06-2019 06:35:00 14.2 C 95 % 13.41 C
657 11-06-2019 06:40:00 14.2 C 95 % 13.41 C
658 11-06-2019 06:45:00 14.2 C 95 % 13.41 C
659 11-06-2019 06:50:00 14.3 C 95 % 13.51 C
660 11-06-2019 06:55:00 14.3 C 95 % 13.51 C
661 11-06-2019 07:00:00 14.3 C 95 % 13.51 C
662 11-06-2019 07:05:00 14.3 C 95 % 13.51 C
663 11-06-2019 07:10:00 14.3 C 95 % 13.51 C
664 11-06-2019 07:15:00 14.4 C 95 % 13.61 C
665 11-06-2019 07:20:00 14.4 C 96 % 13.77 C
666 11-06-2019 07:25:00 14.6 C 96 % 13.97 C
667 11-06-2019 07:30:00 14.6 C 96 % 13.97 C
668 11-06-2019 07:35:00 14.6 C 95 % 13.81 C
669 11-06-2019 07:40:00 14.6 C 95 % 13.81 C
670 11-06-2019 07:45:00 14.6 C 95 % 13.81 C
671 11-06-2019 07:50:00 14.6 C 95 % 13.81 C
672 11-06-2019 07:55:00 14.7 C 96 % 14.07 C
673 11-06-2019 08:00:00 14.8 C 96 % 14.17 C
674 11-06-2019 08:05:00 14.9 C 96 % 14.27 C
675 11-06-2019 08:10:00 14.9 C 95 % 14.11 C
Sensor: Nr:Datum:Temp:Feuchte:Taupunkt:
Aussen-T/F 676 11-06-2019 08:15:00 14.9 C 96 % 14.27 C
677 11-06-2019 08:20:00 15 C 96 % 14.37 C
678 11-06-2019 08:25:00 15.1 C 96 % 14.47 C
679 11-06-2019 08:30:00 15.1 C 96 % 14.47 C
680 11-06-2019 08:35:00 15.1 C 96 % 14.47 C
681 11-06-2019 08:40:00 15.1 C 95 % 14.31 C
682 11-06-2019 08:45:00 15.1 C 95 % 14.31 C
683 11-06-2019 08:50:00 15.1 C 95 % 14.31 C
684 11-06-2019 08:55:00 15.1 C 95 % 14.31 C
685 11-06-2019 09:00:00 15.2 C 95 % 14.4 C
686 11-06-2019 09:05:00 15.2 C 95 % 14.4 C
687 11-06-2019 09:10:00 15.3 C 95 % 14.5 C
688 11-06-2019 09:15:00 15.3 C 95 % 14.5 C
689 11-06-2019 09:20:00 15.3 C 95 % 14.5 C
690 11-06-2019 09:25:00 15.3 C 95 % 14.5 C
691 11-06-2019 09:30:00 15.3 C 93 % 14.18 C
692 11-06-2019 09:35:00 15.3 C 93 % 14.18 C
693 11-06-2019 09:40:00 15.4 C 93 % 14.27 C
694 11-06-2019 09:45:00 15.4 C 92 % 14.11 C
695 11-06-2019 09:50:00 15.5 C 93 % 14.37 C
696 11-06-2019 09:55:00 15.6 C 92 % 14.31 C
697 11-06-2019 10:00:00 15.8 C 92 % 14.5 C
698 11-06-2019 10:05:00 16.1 C 93 % 14.97 C
699 11-06-2019 10:10:00 16.3 C 93 % 15.17 C
700 11-06-2019 10:15:00 16.3 C 91 % 14.83 C
Sensor: Nr:Datum:Temp:Feuchte:Taupunkt:
Aussen-T/F 701 11-06-2019 10:20:00 16 C 87 % 13.84 C
702 11-06-2019 10:25:00 15.9 C 87 % 13.74 C
703 11-06-2019 10:30:00 16 C 89 % 14.19 C
704 11-06-2019 10:35:00 16.2 C 91 % 14.73 C
705 11-06-2019 10:40:00 16.2 C 91 % 14.73 C
706 11-06-2019 10:45:00 16.3 C 91 % 14.83 C
707 11-06-2019 10:50:00 16.4 C 92 % 15.1 C
708 11-06-2019 10:55:00 16.5 C 92 % 15.2 C
709 11-06-2019 11:00:00 16.7 C 92 % 15.39 C
710 11-06-2019 11:05:00 16.6 C 90 % 14.95 C
711 11-06-2019 11:10:00 16.5 C 89 % 14.68 C
712 11-06-2019 11:15:00 16.4 C 86 % 14.05 C
713 11-06-2019 11:20:00 16.6 C 83 % 13.7 C
714 11-06-2019 11:25:00 16.8 C 83 % 13.9 C
715 11-06-2019 11:30:00 16.9 C 82 % 13.81 C
716 11-06-2019 11:35:00 17.1 C 80 % 13.62 C
717 11-06-2019 11:40:00 17.3 C 80 % 13.82 C
718 11-06-2019 11:45:00 17.4 C 85 % 14.85 C
719 11-06-2019 11:50:00 17.4 C 86 % 15.03 C
720 11-06-2019 11:55:00 17.4 C 87 % 15.21 C
721 11-06-2019 12:00:00 17.4 C 87 % 15.21 C
722 11-06-2019 12:05:00 17.4 C 87 % 15.21 C
723 11-06-2019 12:10:00 17.3 C 84 % 14.57 C
724 11-06-2019 12:15:00 17.4 C 80 % 13.92 C
725 11-06-2019 12:20:00 17.5 C 79 % 13.82 C
Sensor: Nr:Datum:Temp:Feuchte:Taupunkt:
Aussen-T/F 726 11-06-2019 12:25:00 17.7 C 77 % 13.62 C
727 11-06-2019 12:30:00 17.9 C 77 % 13.81 C
728 11-06-2019 12:35:00 18.1 C 75 % 13.6 C
729 11-06-2019 12:40:00 18.2 C 74 % 13.49 C
730 11-06-2019 12:45:00 18.3 C 74 % 13.59 C
731 11-06-2019 12:50:00 18.3 C 75 % 13.79 C
732 11-06-2019 12:55:00 18.3 C 74 % 13.59 C
733 11-06-2019 13:00:00 18.5 C 75 % 13.99 C
734 11-06-2019 13:05:00 18.7 C 74 % 13.97 C
735 11-06-2019 13:10:00 18.8 C 74 % 14.07 C
736 11-06-2019 13:15:00 18.8 C 72 % 13.65 C
737 11-06-2019 13:20:00 18.9 C 75 % 14.37 C
738 11-06-2019 13:25:00 18.9 C 74 % 14.17 C
739 11-06-2019 13:30:00 19 C 70 % 13.41 C
740 11-06-2019 13:35:00 19.2 C 71 % 13.82 C
741 11-06-2019 13:40:00 19.3 C 71 % 13.91 C
742 11-06-2019 13:45:00 19.6 C 71 % 14.2 C
743 11-06-2019 13:50:00 19.7 C 68 % 13.63 C
744 11-06-2019 13:55:00 19.7 C 68 % 13.63 C
745 11-06-2019 14:00:00 19.8 C 67 % 13.5 C
746 11-06-2019 14:05:00 19.9 C 67 % 13.59 C
747 11-06-2019 14:10:00 20.1 C 66 % 13.55 C
748 11-06-2019 14:15:00 20 C 67 % 13.69 C
749 11-06-2019 14:20:00 19.9 C 66 % 13.36 C
750 11-06-2019 14:25:00 19.9 C 66 % 13.36 C
Sensor: Nr:Datum:Temp:Feuchte:Taupunkt:
Aussen-T/F 751 11-06-2019 14:30:00 20 C 67 % 13.69 C
752 11-06-2019 14:35:00 20.2 C 66 % 13.65 C
753 11-06-2019 14:40:00 20.5 C 69 % 14.62 C
754 11-06-2019 14:45:00 20.8 C 66 % 14.22 C
755 11-06-2019 14:50:00 20.8 C 65 % 13.98 C
756 11-06-2019 14:55:00 21 C 61 % 13.2 C
757 11-06-2019 15:00:00 20.9 C 65 % 14.08 C
758 11-06-2019 15:05:00 21.1 C 66 % 14.5 C
759 11-06-2019 15:10:00 21.2 C 62 % 13.63 C
760 11-06-2019 15:15:00 21.2 C 60 % 13.13 C
761 11-06-2019 15:20:00 21.2 C 61 % 13.38 C
762 11-06-2019 15:25:00 21.2 C 62 % 13.63 C
763 11-06-2019 15:30:00 21.4 C 65 % 14.55 C
764 11-06-2019 15:35:00 21.6 C 60 % 13.51 C
765 11-06-2019 15:40:00 21.4 C 59 % 13.06 C
766 11-06-2019 15:45:00 21.2 C 60 % 13.13 C
767 11-06-2019 15:50:00 21.6 C 64 % 14.5 C
768 11-06-2019 15:55:00 21.8 C 58 % 13.17 C
769 11-06-2019 16:00:00 21.8 C 60 % 13.69 C
770 11-06-2019 16:05:00 21.7 C 58 % 13.08 C
771 11-06-2019 16:10:00 21.5 C 59 % 13.15 C
772 11-06-2019 16:15:00 21.3 C 60 % 13.22 C
773 11-06-2019 16:20:00 21.1 C 60 % 13.04 C
774 11-06-2019 16:25:00 20.9 C 61 % 13.1 C
775 11-06-2019 16:30:00 20.8 C 63 % 13.5 C
Sensor: Nr:Datum:Temp:Feuchte:Taupunkt:
Aussen-T/F 776 11-06-2019 16:35:00 20.8 C 72 % 15.57 C
777 11-06-2019 16:40:00 20.6 C 74 % 15.8 C
778 11-06-2019 16:45:00 20.4 C 76 % 16.03 C
779 11-06-2019 16:50:00 20.3 C 77 % 16.14 C
780 11-06-2019 16:55:00 20.1 C 78 % 16.14 C
781 11-06-2019 17:00:00 20 C 78 % 16.05 C
782 11-06-2019 17:05:00 19.8 C 78 % 15.85 C
783 11-06-2019 17:10:00 19.7 C 78 % 15.76 C
784 11-06-2019 17:15:00 19.6 C 78 % 15.66 C
785 11-06-2019 17:20:00 19.4 C 78 % 15.47 C
786 11-06-2019 17:25:00 19.2 C 79 % 15.47 C
787 11-06-2019 17:30:00 19.2 C 79 % 15.47 C
788 11-06-2019 17:35:00 19.1 C 80 % 15.57 C
789 11-06-2019 17:40:00 18.9 C 80 % 15.38 C
790 11-06-2019 17:45:00 18.9 C 81 % 15.57 C
791 11-06-2019 17:50:00 18.8 C 81 % 15.47 C
792 11-06-2019 17:55:00 18.8 C 82 % 15.66 C
793 11-06-2019 18:00:00 18.8 C 82 % 15.66 C
794 11-06-2019 18:05:00 18.8 C 82 % 15.66 C
795 11-06-2019 18:10:00 18.8 C 82 % 15.66 C
796 11-06-2019 18:15:00 18.8 C 82 % 15.66 C
797 11-06-2019 18:20:00 18.8 C 82 % 15.66 C
798 11-06-2019 18:25:00 18.7 C 83 % 15.75 C
799 11-06-2019 18:30:00 18.7 C 83 % 15.75 C
800 11-06-2019 18:35:00 18.6 C 83 % 15.66 C
Sensor: Nr:Datum:Temp:Feuchte:Taupunkt:
Aussen-T/F 801 11-06-2019 18:40:00 18.6 C 82 % 15.47 C
802 11-06-2019 18:45:00 18.6 C 78 % 14.69 C
803 11-06-2019 18:50:00 18.8 C 83 % 15.85 C
804 11-06-2019 18:55:00 19.1 C 84 % 16.33 C
805 11-06-2019 19:00:00 19.2 C 81 % 15.86 C
806 11-06-2019 19:05:00 19.4 C 78 % 15.47 C
807 11-06-2019 19:10:00 19.7 C 72 % 14.51 C
808 11-06-2019 19:15:00 20.2 C 71 % 14.78 C
809 11-06-2019 19:20:00 20.7 C 69 % 14.81 C
810 11-06-2019 19:25:00 21.1 C 66 % 14.5 C
811 11-06-2019 19:30:00 21.1 C 65 % 14.27 C
812 11-06-2019 19:35:00 20.8 C 66 % 14.22 C
813 11-06-2019 19:40:00 20.7 C 67 % 14.36 C
814 11-06-2019 19:45:00 20.5 C 67 % 14.16 C
815 11-06-2019 19:50:00 20.5 C 74 % 15.71 C
816 11-06-2019 19:55:00 20.3 C 76 % 15.93 C
817 11-06-2019 20:00:00 20.1 C 76 % 15.74 C
818 11-06-2019 20:05:00 19.9 C 78 % 15.95 C
819 11-06-2019 20:10:00 19.7 C 78 % 15.76 C
820 11-06-2019 20:15:00 19.4 C 79 % 15.66 C
821 11-06-2019 20:20:00 19.2 C 80 % 15.67 C
822 11-06-2019 20:25:00 19.1 C 81 % 15.76 C
823 11-06-2019 20:30:00 19.1 C 81 % 15.76 C
824 11-06-2019 20:35:00 18.9 C 81 % 15.57 C
825 11-06-2019 20:40:00 18.9 C 81 % 15.57 C
Sensor: Nr:Datum:Temp:Feuchte:Taupunkt:
Aussen-T/F 826 11-06-2019 20:45:00 18.8 C 81 % 15.47 C
827 11-06-2019 20:50:00 18.7 C 81 % 15.37 C
828 11-06-2019 20:55:00 18.5 C 81 % 15.18 C
829 11-06-2019 21:00:00 18.4 C 82 % 15.27 C
830 11-06-2019 21:05:00 18.3 C 82 % 15.17 C
831 11-06-2019 21:10:00 18.2 C 82 % 15.08 C
832 11-06-2019 21:15:00 18.1 C 82 % 14.98 C
833 11-06-2019 21:20:00 17.9 C 83 % 14.97 C
834 11-06-2019 21:25:00 17.8 C 83 % 14.88 C
835 11-06-2019 21:30:00 17.7 C 84 % 14.96 C
836 11-06-2019 21:35:00 17.6 C 84 % 14.87 C
837 11-06-2019 21:40:00 17.4 C 84 % 14.67 C
838 11-06-2019 21:45:00 17.3 C 84 % 14.57 C
839 11-06-2019 21:50:00 17.3 C 84 % 14.57 C
840 11-06-2019 21:55:00 17.2 C 84 % 14.47 C
841 11-06-2019 22:00:00 17.2 C 85 % 14.66 C
842 11-06-2019 22:05:00 17.2 C 85 % 14.66 C
843 11-06-2019 22:10:00 17.1 C 84 % 14.38 C
844 11-06-2019 22:15:00 17.1 C 85 % 14.56 C
845 11-06-2019 22:20:00 17 C 85 % 14.46 C
846 11-06-2019 22:25:00 16.9 C 85 % 14.36 C
847 11-06-2019 22:30:00 16.8 C 85 % 14.26 C
848 11-06-2019 22:35:00 16.7 C 84 % 13.98 C
849 11-06-2019 22:40:00 16.6 C 84 % 13.89 C
850 11-06-2019 22:45:00 16.4 C 85 % 13.87 C
Sensor: Nr:Datum:Temp:Feuchte:Taupunkt:
Aussen-T/F 851 11-06-2019 22:50:00 16.3 C 85 % 13.77 C
852 11-06-2019 22:55:00 16.2 C 85 % 13.68 C
853 11-06-2019 23:00:00 16.1 C 85 % 13.58 C
854 11-06-2019 23:05:00 15.9 C 85 % 13.38 C
855 11-06-2019 23:10:00 15.9 C 86 % 13.56 C
856 11-06-2019 23:15:00 15.8 C 86 % 13.46 C
857 11-06-2019 23:20:00 15.8 C 87 % 13.64 C
858 11-06-2019 23:25:00 15.7 C 87 % 13.54 C
859 11-06-2019 23:30:00 15.7 C 87 % 13.54 C
860 11-06-2019 23:35:00 15.6 C 87 % 13.45 C
861 11-06-2019 23:40:00 15.6 C 87 % 13.45 C
862 11-06-2019 23:45:00 15.5 C 87 % 13.35 C
863 11-06-2019 23:50:00 15.5 C 87 % 13.35 C
864 11-06-2019 23:55:00 15.4 C 87 % 13.25 C
865 12-06-2019 00:00:00 15.4 C 87 % 13.25 C
866 12-06-2019 00:05:00 15.4 C 87 % 13.25 C
867 12-06-2019 00:10:00 15.4 C 87 % 13.25 C
868 12-06-2019 00:15:00 15.3 C 87 % 13.15 C
869 12-06-2019 00:20:00 15.3 C 87 % 13.15 C
870 12-06-2019 00:25:00 15.2 C 87 % 13.05 C
871 12-06-2019 00:30:00 15.2 C 87 % 13.05 C
872 12-06-2019 00:35:00 15.1 C 87 % 12.95 C
873 12-06-2019 00:40:00 15.1 C 87 % 12.95 C
874 12-06-2019 00:45:00 14.9 C 87 % 12.76 C
875 12-06-2019 00:50:00 14.9 C 87 % 12.76 C
Sensor: Nr:Datum:Temp:Feuchte:Taupunkt:
Aussen-T/F 876 12-06-2019 00:55:00 14.8 C 87 % 12.66 C
877 12-06-2019 01:00:00 14.7 C 87 % 12.56 C
878 12-06-2019 01:05:00 14.6 C 87 % 12.46 C
879 12-06-2019 01:10:00 14.5 C 88 % 12.54 C
880 12-06-2019 01:15:00 14.4 C 88 % 12.44 C
881 12-06-2019 01:20:00 14.3 C 89 % 12.51 C
882 12-06-2019 01:25:00 14.3 C 89 % 12.51 C
883 12-06-2019 01:30:00 14.2 C 89 % 12.41 C
884 12-06-2019 01:35:00 14.2 C 89 % 12.41 C
885 12-06-2019 01:40:00 14.3 C 90 % 12.68 C
886 12-06-2019 01:45:00 14.3 C 90 % 12.68 C
887 12-06-2019 01:50:00 14.4 C 90 % 12.78 C
888 12-06-2019 01:55:00 14.5 C 90 % 12.88 C
889 12-06-2019 02:00:00 14.5 C 90 % 12.88 C
890 12-06-2019 02:05:00 14.6 C 90 % 12.98 C
891 12-06-2019 02:10:00 14.6 C 90 % 12.98 C
892 12-06-2019 02:15:00 14.6 C 90 % 12.98 C
893 12-06-2019 02:20:00 14.6 C 90 % 12.98 C
894 12-06-2019 02:25:00 14.6 C 90 % 12.98 C
895 12-06-2019 02:30:00 14.6 C 90 % 12.98 C
896 12-06-2019 02:35:00 14.6 C 90 % 12.98 C
897 12-06-2019 02:40:00 14.6 C 90 % 12.98 C
898 12-06-2019 02:45:00 14.6 C 90 % 12.98 C
899 12-06-2019 02:50:00 14.6 C 90 % 12.98 C
900 12-06-2019 02:55:00 14.6 C 90 % 12.98 C
Sensor: Nr:Datum:Temp:Feuchte:Taupunkt:
Aussen-T/F 901 12-06-2019 03:00:00 14.6 C 90 % 12.98 C
902 12-06-2019 03:05:00 14.6 C 90 % 12.98 C
903 12-06-2019 03:10:00 14.6 C 90 % 12.98 C
904 12-06-2019 03:15:00 14.5 C 91 % 13.05 C
905 12-06-2019 03:20:00 14.5 C 91 % 13.05 C
906 12-06-2019 03:25:00 14.5 C 91 % 13.05 C
907 12-06-2019 03:30:00 14.5 C 91 % 13.05 C
908 12-06-2019 03:35:00 14.5 C 91 % 13.05 C
909 12-06-2019 03:40:00 14.5 C 91 % 13.05 C
910 12-06-2019 03:45:00 14.5 C 91 % 13.05 C
911 12-06-2019 03:50:00 14.5 C 91 % 13.05 C
912 12-06-2019 03:55:00 14.5 C 91 % 13.05 C
913 12-06-2019 04:00:00 14.4 C 91 % 12.95 C
914 12-06-2019 04:05:00 14.4 C 91 % 12.95 C
915 12-06-2019 04:10:00 14.4 C 91 % 12.95 C
916 12-06-2019 04:15:00 14.4 C 91 % 12.95 C
917 12-06-2019 04:20:00 14.4 C 91 % 12.95 C
918 12-06-2019 04:25:00 14.4 C 91 % 12.95 C
919 12-06-2019 04:30:00 14.4 C 91 % 12.95 C
920 12-06-2019 04:35:00 14.4 C 91 % 12.95 C
921 12-06-2019 04:40:00 14.4 C 91 % 12.95 C
922 12-06-2019 04:45:00 14.4 C 91 % 12.95 C
923 12-06-2019 04:50:00 14.4 C 91 % 12.95 C
924 12-06-2019 04:55:00 14.3 C 91 % 12.85 C
925 12-06-2019 05:00:00 14.3 C 91 % 12.85 C
Sensor: Nr:Datum:Temp:Feuchte:Taupunkt:
Aussen-T/F 926 12-06-2019 05:05:00 14.2 C 91 % 12.75 C
927 12-06-2019 05:10:00 14.1 C 91 % 12.65 C
928 12-06-2019 05:15:00 14 C 92 % 12.72 C
929 12-06-2019 05:20:00 14.1 C 92 % 12.82 C
930 12-06-2019 05:25:00 14.1 C 92 % 12.82 C
931 12-06-2019 05:30:00 14.1 C 92 % 12.82 C
932 12-06-2019 05:35:00 14.1 C 92 % 12.82 C
933 12-06-2019 05:40:00 14.1 C 92 % 12.82 C
934 12-06-2019 05:45:00 14.1 C 92 % 12.82 C
935 12-06-2019 05:50:00 14.2 C 92 % 12.92 C
936 12-06-2019 05:55:00 14.1 C 92 % 12.82 C
937 12-06-2019 06:00:00 14 C 92 % 12.72 C
938 12-06-2019 06:05:00 13.9 C 92 % 12.62 C
939 12-06-2019 06:10:00 13.8 C 92 % 12.52 C
940 12-06-2019 06:15:00 13.8 C 92 % 12.52 C
941 12-06-2019 06:20:00 13.8 C 92 % 12.52 C
942 12-06-2019 06:25:00 13.8 C 92 % 12.52 C
943 12-06-2019 06:30:00 13.9 C 93 % 12.79 C
944 12-06-2019 06:35:00 13.9 C 93 % 12.79 C
945 12-06-2019 06:40:00 14 C 93 % 12.89 C
946 12-06-2019 06:45:00 14.1 C 93 % 12.99 C
947 12-06-2019 06:50:00 14.2 C 93 % 13.08 C
948 12-06-2019 06:55:00 14.3 C 92 % 13.02 C
949 12-06-2019 07:00:00 14.4 C 92 % 13.12 C
950 12-06-2019 07:05:00 14.6 C 92 % 13.32 C
Sensor: Nr:Datum:Temp:Feuchte:Taupunkt:
Aussen-T/F 951 12-06-2019 07:10:00 14.7 C 91 % 13.25 C
952 12-06-2019 07:15:00 14.7 C 91 % 13.25 C
953 12-06-2019 07:20:00 14.8 C 91 % 13.35 C
954 12-06-2019 07:25:00 14.8 C 92 % 13.51 C
955 12-06-2019 07:30:00 14.9 C 92 % 13.61 C
956 12-06-2019 07:35:00 15 C 91 % 13.54 C
957 12-06-2019 07:40:00 15 C 91 % 13.54 C
958 12-06-2019 07:45:00 15.1 C 91 % 13.64 C
959 12-06-2019 07:50:00 15.2 C 91 % 13.74 C
960 12-06-2019 07:55:00 15.3 C 91 % 13.84 C
961 12-06-2019 08:00:00 15.4 C 91 % 13.94 C
962 12-06-2019 08:05:00 15.4 C 90 % 13.77 C
963 12-06-2019 08:10:00 15.4 C 89 % 13.6 C
964 12-06-2019 08:15:00 15.5 C 89 % 13.7 C
965 12-06-2019 08:20:00 15.6 C 89 % 13.79 C
966 12-06-2019 08:25:00 15.7 C 89 % 13.89 C
967 12-06-2019 08:30:00 15.8 C 89 % 13.99 C
968 12-06-2019 08:35:00 15.9 C 88 % 13.92 C
969 12-06-2019 08:40:00 16 C 88 % 14.01 C
970 12-06-2019 08:45:00 16.2 C 88 % 14.21 C
971 12-06-2019 08:50:00 16.3 C 88 % 14.31 C
972 12-06-2019 08:55:00 16.6 C 86 % 14.25 C
973 12-06-2019 09:00:00 16.7 C 85 % 14.17 C
974 12-06-2019 09:05:00 16.8 C 84 % 14.08 C
975 12-06-2019 09:10:00 16.8 C 84 % 14.08 C
Sensor: Nr:Datum:Temp:Feuchte:Taupunkt:
Aussen-T/F 976 12-06-2019 09:15:00 16.7 C 84 % 13.98 C
977 12-06-2019 09:20:00 16.7 C 85 % 14.17 C
978 12-06-2019 09:25:00 16.6 C 85 % 14.07 C
979 12-06-2019 09:30:00 16.6 C 86 % 14.25 C
980 12-06-2019 09:35:00 16.5 C 86 % 14.15 C
981 12-06-2019 09:40:00 16.4 C 87 % 14.23 C
982 12-06-2019 09:45:00 16.3 C 87 % 14.13 C
983 12-06-2019 09:50:00 16.2 C 88 % 14.21 C
984 12-06-2019 09:55:00 16.1 C 89 % 14.29 C
985 12-06-2019 10:00:00 15.9 C 89 % 14.09 C
986 12-06-2019 10:05:00 15.7 C 90 % 14.06 C
987 12-06-2019 10:10:00 15.6 C 91 % 14.14 C
988 12-06-2019 10:15:00 15.5 C 92 % 14.21 C
989 12-06-2019 10:20:00 15.4 C 92 % 14.11 C
990 12-06-2019 10:25:00 15.2 C 92 % 13.91 C
991 12-06-2019 10:30:00 15.1 C 93 % 13.98 C
992 12-06-2019 10:35:00 14.9 C 92 % 13.61 C
993 12-06-2019 10:40:00 14.8 C 93 % 13.68 C
994 12-06-2019 10:45:00 14.7 C 93 % 13.58 C
995 12-06-2019 10:50:00 14.6 C 93 % 13.48 C
996 12-06-2019 10:55:00 14.4 C 93 % 13.28 C
997 12-06-2019 11:00:00 14.4 C 94 % 13.45 C
998 12-06-2019 11:05:00 14.3 C 93 % 13.18 C
999 12-06-2019 11:10:00 14.2 C 93 % 13.08 C
1000 12-06-2019 11:15:00 14.1 C 93 % 12.99 C
Sensor: Nr:Datum:Temp:Feuchte:Taupunkt:
Aussen-T/F 1001 12-06-2019 11:20:00 14 C 93 % 12.89 C
1002 12-06-2019 11:25:00 13.8 C 93 % 12.69 C
1003 12-06-2019 11:30:00 13.8 C 93 % 12.69 C
1004 12-06-2019 11:35:00 13.8 C 93 % 12.69 C
1005 12-06-2019 11:40:00 13.8 C 94 % 12.85 C
1006 12-06-2019 11:45:00 13.8 C 94 % 12.85 C
1007 12-06-2019 11:50:00 13.8 C 94 % 12.85 C
1008 12-06-2019 11:55:00 13.9 C 94 % 12.95 C
1009 12-06-2019 12:00:00 13.9 C 95 % 13.11 C
1010 12-06-2019 12:05:00 14.2 C 95 % 13.41 C
1011 12-06-2019 12:10:00 14.2 C 95 % 13.41 C
1012 12-06-2019 12:15:00 14.3 C 95 % 13.51 C
1013 12-06-2019 12:20:00 14.4 C 95 % 13.61 C
1014 12-06-2019 12:25:00 14.4 C 95 % 13.61 C
1015 12-06-2019 12:30:00 14.4 C 95 % 13.61 C
1016 12-06-2019 12:35:00 14.4 C 95 % 13.61 C
1017 12-06-2019 12:40:00 14.6 C 95 % 13.81 C
1018 12-06-2019 12:45:00 14.7 C 95 % 13.91 C
1019 12-06-2019 12:50:00 14.7 C 95 % 13.91 C
1020 12-06-2019 12:55:00 14.7 C 95 % 13.91 C
1021 12-06-2019 13:00:00 14.7 C 94 % 13.74 C
1022 12-06-2019 13:05:00 14.7 C 95 % 13.91 C
1023 12-06-2019 13:10:00 14.8 C 94 % 13.84 C
1024 12-06-2019 13:15:00 14.9 C 95 % 14.11 C
1025 12-06-2019 13:20:00 14.8 C 94 % 13.84 C
Sensor: Nr:Datum:Temp:Feuchte:Taupunkt:
Aussen-T/F 1026 12-06-2019 13:25:00 14.9 C 93 % 13.78 C
1027 12-06-2019 13:30:00 15.3 C 94 % 14.34 C
1028 12-06-2019 13:35:00 15.5 C 93 % 14.37 C
1029 12-06-2019 13:40:00 15.8 C 93 % 14.67 C
1030 12-06-2019 13:45:00 16 C 91 % 14.53 C
1031 12-06-2019 13:50:00 16.2 C 92 % 14.9 C
1032 12-06-2019 13:55:00 16.3 C 88 % 14.31 C
1033 12-06-2019 14:00:00 16.4 C 89 % 14.58 C
1034 12-06-2019 14:05:00 16.7 C 89 % 14.88 C
1035 12-06-2019 14:10:00 16.8 C 87 % 14.62 C
1036 12-06-2019 14:15:00 16.8 C 86 % 14.45 C
1037 12-06-2019 14:20:00 17.1 C 88 % 15.1 C
1038 12-06-2019 14:25:00 17.2 C 86 % 14.84 C
1039 12-06-2019 14:30:00 17.4 C 83 % 14.48 C
1040 12-06-2019 14:35:00 17.6 C 79 % 13.92 C
1041 12-06-2019 14:40:00 17.7 C 80 % 14.21 C
1042 12-06-2019 14:45:00 17.7 C 80 % 14.21 C
1043 12-06-2019 14:50:00 17.5 C 79 % 13.82 C
1044 12-06-2019 14:55:00 17.2 C 81 % 13.91 C
1045 12-06-2019 15:00:00 17.1 C 82 % 14 C
1046 12-06-2019 15:05:00 17.1 C 83 % 14.19 C
1047 12-06-2019 15:10:00 17.3 C 81 % 14.01 C
1048 12-06-2019 15:15:00 17.7 C 80 % 14.21 C
1049 12-06-2019 15:20:00 18.1 C 83 % 15.17 C
1050 12-06-2019 15:25:00 18.3 C 79 % 14.6 C
Sensor: Nr:Datum:Temp:Feuchte:Taupunkt:
Aussen-T/F 1051 12-06-2019 15:30:00 18.7 C 77 % 14.59 C
1052 12-06-2019 15:35:00 19 C 77 % 14.88 C
1053 12-06-2019 15:40:00 19 C 72 % 13.84 C
1054 12-06-2019 15:45:00 18.9 C 72 % 13.74 C
1055 12-06-2019 15:50:00 18.6 C 75 % 14.08 C
1056 12-06-2019 15:55:00 18.6 C 74 % 13.88 C
1057 12-06-2019 16:00:00 19.1 C 70 % 13.5 C
1058 12-06-2019 16:05:00 19.5 C 70 % 13.89 C
1059 12-06-2019 16:10:00 19.8 C 69 % 13.95 C
1060 12-06-2019 16:15:00 20.1 C 67 % 13.78 C
1061 12-06-2019 16:20:00 20.1 C 66 % 13.55 C
1062 12-06-2019 16:25:00 20.2 C 66 % 13.65 C
1063 12-06-2019 16:30:00 20.5 C 64 % 13.46 C
1064 12-06-2019 16:35:00 20.3 C 65 % 13.51 C
1065 12-06-2019 16:40:00 20.1 C 67 % 13.78 C
1066 12-06-2019 16:45:00 20.2 C 66 % 13.65 C
1067 12-06-2019 16:50:00 20.7 C 65 % 13.89 C
1068 12-06-2019 16:55:00 20.9 C 64 % 13.84 C
1069 12-06-2019 17:00:00 21.3 C 61 % 13.48 C
1070 12-06-2019 17:05:00 21.4 C 64 % 14.31 C
1071 12-06-2019 17:10:00 21.7 C 60 % 13.6 C
1072 12-06-2019 17:15:00 21.8 C 62 % 14.2 C
1073 12-06-2019 17:20:00 21.9 C 62 % 14.29 C
1074 12-06-2019 17:25:00 22.1 C 58 % 13.45 C
1075 12-06-2019 17:30:00 22.1 C 57 % 13.19 C
Sensor: Nr:Datum:Temp:Feuchte:Taupunkt:
Aussen-T/F 1076 12-06-2019 17:35:00 22.1 C 54 % 12.36 C
1077 12-06-2019 17:40:00 22 C 58 % 13.36 C
1078 12-06-2019 17:45:00 21.9 C 55 % 12.46 C
1079 12-06-2019 17:50:00 21.7 C 58 % 13.08 C
1080 12-06-2019 17:55:00 21.8 C 59 % 13.44 C
1081 12-06-2019 18:00:00 22 C 58 % 13.36 C
1082 12-06-2019 18:05:00 22.3 C 59 % 13.9 C
1083 12-06-2019 18:10:00 22.3 C 53 % 12.26 C
1084 12-06-2019 18:15:00 22.4 C 56 % 13.2 C
1085 12-06-2019 18:20:00 22.7 C 55 % 13.2 C
1086 12-06-2019 18:25:00 22.9 C 53 % 12.82 C
1087 12-06-2019 18:30:00 23.1 C 54 % 13.29 C
1088 12-06-2019 18:35:00 23 C 52 % 12.62 C
1089 12-06-2019 18:40:00 22.9 C 52 % 12.53 C
1090 12-06-2019 18:45:00 22.8 C 53 % 12.73 C
1091 12-06-2019 18:50:00 22.7 C 52 % 12.34 C
1092 12-06-2019 18:55:00 22.6 C 50 % 11.66 C
1093 12-06-2019 19:00:00 22.4 C 52 % 12.07 C
1094 12-06-2019 19:05:00 22.3 C 51 % 11.68 C
1095 12-06-2019 19:10:00 22.2 C 52 % 11.88 C
1096 12-06-2019 19:15:00 22.3 C 52 % 11.97 C
1097 12-06-2019 19:20:00 22.3 C 51 % 11.68 C
1098 12-06-2019 19:25:00 22.1 C 54 % 12.36 C
1099 12-06-2019 19:30:00 21.9 C 52 % 11.61 C
1100 12-06-2019 19:35:00 21.7 C 53 % 11.71 C
Sensor: Nr:Datum:Temp:Feuchte:Taupunkt:
Aussen-T/F 1101 12-06-2019 19:40:00 21.7 C 54 % 11.99 C
1102 12-06-2019 19:45:00 21.4 C 55 % 11.99 C
1103 12-06-2019 19:50:00 21.4 C 55 % 11.99 C
1104 12-06-2019 19:55:00 21.4 C 56 % 12.27 C
1105 12-06-2019 20:00:00 21.3 C 55 % 11.9 C
1106 12-06-2019 20:05:00 21.2 C 55 % 11.81 C
1107 12-06-2019 20:10:00 21.3 C 55 % 11.9 C
1108 12-06-2019 20:15:00 21.4 C 65 % 14.55 C
1109 12-06-2019 20:20:00 21.5 C 60 % 13.41 C
1110 12-06-2019 20:25:00 21.6 C 66 % 14.98 C
1111 12-06-2019 20:30:00 21.5 C 63 % 14.16 C
1112 12-06-2019 20:35:00 21.4 C 65 % 14.55 C
1113 12-06-2019 20:40:00 21.3 C 67 % 14.93 C
1114 12-06-2019 20:45:00 21.1 C 67 % 14.74 C
1115 12-06-2019 20:50:00 20.8 C 67 % 14.45 C
1116 12-06-2019 20:55:00 20.4 C 69 % 14.52 C
1117 12-06-2019 21:00:00 20 C 69 % 14.14 C
1118 12-06-2019 21:05:00 19.6 C 70 % 13.98 C
1119 12-06-2019 21:10:00 19.2 C 71 % 13.82 C
1120 12-06-2019 21:15:00 18.8 C 72 % 13.65 C
1121 12-06-2019 21:20:00 18.3 C 73 % 13.38 C
1122 12-06-2019 21:25:00 17.9 C 73 % 12.99 C
1123 12-06-2019 21:30:00 17.6 C 74 % 12.91 C
1124 12-06-2019 21:35:00 17.2 C 76 % 12.94 C
1125 12-06-2019 21:40:00 16.9 C 77 % 12.84 C
Sensor: Nr:Datum:Temp:Feuchte:Taupunkt:
Aussen-T/F 1126 12-06-2019 21:45:00 16.5 C 79 % 12.85 C
1127 12-06-2019 21:50:00 16.2 C 80 % 12.75 C
1128 12-06-2019 21:55:00 15.8 C 80 % 12.36 C
1129 12-06-2019 22:00:00 15.5 C 81 % 12.26 C
1130 12-06-2019 22:05:00 15.2 C 82 % 12.15 C
1131 12-06-2019 22:10:00 14.9 C 83 % 12.04 C
1132 12-06-2019 22:15:00 14.7 C 83 % 11.85 C
1133 12-06-2019 22:20:00 14.6 C 84 % 11.93 C
1134 12-06-2019 22:25:00 14.4 C 85 % 11.91 C
1135 12-06-2019 22:30:00 14.2 C 85 % 11.72 C
1136 12-06-2019 22:35:00 14.1 C 86 % 11.8 C
1137 12-06-2019 22:40:00 13.9 C 86 % 11.6 C
1138 12-06-2019 22:45:00 13.8 C 87 % 11.68 C
1139 12-06-2019 22:50:00 13.7 C 87 % 11.58 C
1140 12-06-2019 22:55:00 13.6 C 88 % 11.65 C
1141 12-06-2019 23:00:00 13.6 C 88 % 11.65 C
1142 12-06-2019 23:05:00 13.5 C 88 % 11.55 C
1143 12-06-2019 23:10:00 13.4 C 88 % 11.45 C
1144 12-06-2019 23:15:00 13.3 C 88 % 11.36 C
1145 12-06-2019 23:20:00 13.2 C 88 % 11.26 C
1146 12-06-2019 23:25:00 13.2 C 88 % 11.26 C
1147 12-06-2019 23:30:00 13.1 C 88 % 11.16 C
1148 12-06-2019 23:35:00 13.1 C 89 % 11.33 C
1149 12-06-2019 23:40:00 13 C 88 % 11.06 C
1150 12-06-2019 23:45:00 12.9 C 88 % 10.96 C
Sensor: Nr:Datum:Temp:Feuchte:Taupunkt:
Aussen-T/F 1151 12-06-2019 23:50:00 12.8 C 89 % 11.03 C
1152 12-06-2019 23:55:00 12.8 C 89 % 11.03 C
1153 13-06-2019 00:00:00 12.8 C 89 % 11.03 C
1154 13-06-2019 00:05:00 12.7 C 89 % 10.94 C
1155 13-06-2019 00:10:00 12.7 C 89 % 10.94 C
1156 13-06-2019 00:15:00 12.7 C 89 % 10.94 C
1157 13-06-2019 00:20:00 12.6 C 89 % 10.84 C
1158 13-06-2019 00:25:00 12.6 C 90 % 11 C
1159 13-06-2019 00:30:00 12.6 C 90 % 11 C
1160 13-06-2019 00:35:00 12.6 C 90 % 11 C
1161 13-06-2019 00:40:00 12.5 C 90 % 10.91 C
1162 13-06-2019 00:45:00 12.4 C 90 % 10.81 C
1163 13-06-2019 00:50:00 12.3 C 90 % 10.71 C
1164 13-06-2019 00:55:00 12.2 C 90 % 10.61 C
1165 13-06-2019 01:00:00 12.2 C 90 % 10.61 C
1166 13-06-2019 01:05:00 12.1 C 90 % 10.51 C
1167 13-06-2019 01:10:00 11.9 C 90 % 10.31 C
1168 13-06-2019 01:15:00 11.8 C 90 % 10.21 C
1169 13-06-2019 01:20:00 11.8 C 91 % 10.38 C
1170 13-06-2019 01:25:00 11.7 C 91 % 10.28 C
1171 13-06-2019 01:30:00 11.6 C 91 % 10.18 C
1172 13-06-2019 01:35:00 11.6 C 91 % 10.18 C
1173 13-06-2019 01:40:00 11.5 C 91 % 10.08 C
1174 13-06-2019 01:45:00 11.4 C 91 % 9.98 C
1175 13-06-2019 01:50:00 11.3 C 91 % 9.89 C
Sensor: Nr:Datum:Temp:Feuchte:Taupunkt:
Aussen-T/F 1176 13-06-2019 01:55:00 11.3 C 92 % 10.05 C
1177 13-06-2019 02:00:00 11.2 C 92 % 9.95 C
1178 13-06-2019 02:05:00 11.2 C 92 % 9.95 C
1179 13-06-2019 02:10:00 11.1 C 92 % 9.85 C
1180 13-06-2019 02:15:00 11.1 C 92 % 9.85 C
1181 13-06-2019 02:20:00 10.9 C 92 % 9.65 C
1182 13-06-2019 02:25:00 10.9 C 92 % 9.65 C
1183 13-06-2019 02:30:00 10.8 C 92 % 9.55 C
1184 13-06-2019 02:35:00 10.8 C 93 % 9.71 C
1185 13-06-2019 02:40:00 10.8 C 93 % 9.71 C
1186 13-06-2019 02:45:00 10.7 C 93 % 9.62 C
1187 13-06-2019 02:50:00 10.7 C 93 % 9.62 C
1188 13-06-2019 02:55:00 10.6 C 93 % 9.52 C
1189 13-06-2019 03:00:00 10.6 C 93 % 9.52 C
1190 13-06-2019 03:05:00 10.5 C 93 % 9.42 C
1191 13-06-2019 03:10:00 10.4 C 93 % 9.32 C
1192 13-06-2019 03:15:00 10.4 C 93 % 9.32 C
1193 13-06-2019 03:20:00 10.4 C 93 % 9.32 C
1194 13-06-2019 03:25:00 10.3 C 94 % 9.38 C
1195 13-06-2019 03:30:00 10.3 C 94 % 9.38 C
1196 13-06-2019 03:35:00 10.2 C 94 % 9.28 C
1197 13-06-2019 03:40:00 10.2 C 94 % 9.28 C
1198 13-06-2019 03:45:00 10.1 C 94 % 9.18 C
1199 13-06-2019 03:50:00 10.1 C 94 % 9.18 C
1200 13-06-2019 03:55:00 10 C 94 % 9.08 C
Sensor: Nr:Datum:Temp:Feuchte:Taupunkt:
Aussen-T/F 1201 13-06-2019 04:00:00 9.9 C 94 % 8.98 C
1202 13-06-2019 04:05:00 9.9 C 94 % 8.98 C
1203 13-06-2019 04:10:00 9.9 C 94 % 8.98 C
1204 13-06-2019 04:15:00 9.8 C 94 % 8.88 C
1205 13-06-2019 04:20:00 9.8 C 94 % 8.88 C
1206 13-06-2019 04:25:00 9.8 C 94 % 8.88 C
1207 13-06-2019 04:30:00 9.8 C 94 % 8.88 C
1208 13-06-2019 04:35:00 9.8 C 94 % 8.88 C
1209 13-06-2019 04:40:00 9.7 C 94 % 8.78 C
1210 13-06-2019 04:45:00 9.7 C 94 % 8.78 C
1211 13-06-2019 04:50:00 9.6 C 94 % 8.68 C
1212 13-06-2019 04:55:00 9.6 C 94 % 8.68 C
1213 13-06-2019 05:00:00 9.6 C 94 % 8.68 C
1214 13-06-2019 05:05:00 9.5 C 95 % 8.74 C
1215 13-06-2019 05:10:00 9.5 C 95 % 8.74 C
1216 13-06-2019 05:15:00 9.5 C 95 % 8.74 C
1217 13-06-2019 05:20:00 9.5 C 95 % 8.74 C
1218 13-06-2019 05:25:00 9.5 C 95 % 8.74 C
1219 13-06-2019 05:30:00 9.4 C 95 % 8.64 C
1220 13-06-2019 05:35:00 9.4 C 95 % 8.64 C
1221 13-06-2019 05:40:00 9.4 C 95 % 8.64 C
1222 13-06-2019 05:45:00 9.4 C 95 % 8.64 C
1223 13-06-2019 05:50:00 9.4 C 95 % 8.64 C
1224 13-06-2019 05:55:00 9.4 C 95 % 8.64 C
1225 13-06-2019 06:00:00 9.4 C 95 % 8.64 C
Sensor: Nr:Datum:Temp:Feuchte:Taupunkt:
Aussen-T/F 1226 13-06-2019 06:05:00 9.4 C 95 % 8.64 C
1227 13-06-2019 06:10:00 9.4 C 95 % 8.64 C
1228 13-06-2019 06:15:00 9.4 C 95 % 8.64 C
1229 13-06-2019 06:20:00 9.4 C 95 % 8.64 C
1230 13-06-2019 06:25:00 9.4 C 95 % 8.64 C
1231 13-06-2019 06:30:00 9.5 C 95 % 8.74 C
1232 13-06-2019 06:35:00 9.5 C 95 % 8.74 C
1233 13-06-2019 06:40:00 9.6 C 96 % 8.99 C
1234 13-06-2019 06:45:00 9.6 C 96 % 8.99 C
1235 13-06-2019 06:50:00 9.7 C 96 % 9.09 C
1236 13-06-2019 06:55:00 9.8 C 96 % 9.19 C
1237 13-06-2019 07:00:00 9.8 C 96 % 9.19 C
1238 13-06-2019 07:05:00 9.9 C 96 % 9.29 C
1239 13-06-2019 07:10:00 10 C 96 % 9.39 C
1240 13-06-2019 07:15:00 10.1 C 96 % 9.49 C
1241 13-06-2019 07:20:00 10.2 C 96 % 9.59 C
1242 13-06-2019 07:25:00 10.3 C 96 % 9.69 C
1243 13-06-2019 07:30:00 10.3 C 96 % 9.69 C
1244 13-06-2019 07:35:00 10.4 C 96 % 9.79 C
1245 13-06-2019 07:40:00 10.6 C 96 % 9.99 C
1246 13-06-2019 07:45:00 10.7 C 96 % 10.09 C
1247 13-06-2019 07:50:00 10.7 C 96 % 10.09 C
1248 13-06-2019 07:55:00 10.8 C 96 % 10.19 C
1249 13-06-2019 08:00:00 10.9 C 96 % 10.29 C
1250 13-06-2019 08:05:00 11.1 C 96 % 10.49 C
Sensor: Nr:Datum:Temp:Feuchte:Taupunkt:
Aussen-T/F 1251 13-06-2019 08:10:00 11.2 C 96 % 10.59 C
1252 13-06-2019 08:15:00 11.4 C 96 % 10.79 C
1253 13-06-2019 08:20:00 11.6 C 96 % 10.98 C
1254 13-06-2019 08:25:00 11.7 C 96 % 11.08 C
1255 13-06-2019 08:30:00 11.8 C 96 % 11.18 C
1256 13-06-2019 08:35:00 11.9 C 96 % 11.28 C
1257 13-06-2019 08:40:00 12.1 C 96 % 11.48 C
1258 13-06-2019 08:45:00 12.2 C 95 % 11.42 C
1259 13-06-2019 08:50:00 12.4 C 95 % 11.62 C
1260 13-06-2019 08:55:00 12.7 C 94 % 11.76 C
1261 13-06-2019 09:00:00 12.9 C 93 % 11.8 C
1262 13-06-2019 09:05:00 13.2 C 92 % 11.93 C
1263 13-06-2019 09:10:00 13.7 C 85 % 11.23 C
1264 13-06-2019 09:15:00 14.4 C 82 % 11.37 C
1265 13-06-2019 09:20:00 15 C 80 % 11.58 C
1266 13-06-2019 09:25:00 15.3 C 80 % 11.87 C
1267 13-06-2019 09:30:00 15.6 C 75 % 11.19 C
1268 13-06-2019 09:35:00 15.9 C 74 % 11.28 C
1269 13-06-2019 09:40:00 16.2 C 73 % 11.36 C
1270 13-06-2019 09:45:00 16.4 C 73 % 11.55 C
1271 13-06-2019 09:50:00 16.6 C 71 % 11.32 C
1272 13-06-2019 09:55:00 16.7 C 71 % 11.42 C
1273 13-06-2019 10:00:00 16.8 C 70 % 11.3 C
1274 13-06-2019 10:05:00 17.1 C 67 % 10.93 C
1275 13-06-2019 10:10:00 17.3 C 67 % 11.12 C
Sensor: Nr:Datum:Temp:Feuchte:Taupunkt:
Aussen-T/F 1276 13-06-2019 10:15:00 17.4 C 70 % 11.88 C
1277 13-06-2019 10:20:00 17.7 C 67 % 11.5 C
1278 13-06-2019 10:25:00 18 C 65 % 11.33 C
1279 13-06-2019 10:30:00 18.2 C 62 % 10.81 C
1280 13-06-2019 10:35:00 18.3 C 64 % 11.38 C
1281 13-06-2019 10:40:00 18.4 C 64 % 11.47 C
1282 13-06-2019 10:45:00 18.7 C 62 % 11.28 C
1283 13-06-2019 10:50:00 18.6 C 61 % 10.94 C
1284 13-06-2019 10:55:00 18.5 C 62 % 11.09 C
1285 13-06-2019 11:00:00 18.7 C 62 % 11.28 C
1286 13-06-2019 11:05:00 18.8 C 63 % 11.61 C
1287 13-06-2019 11:10:00 18.8 C 60 % 10.88 C
1288 13-06-2019 11:15:00 18.8 C 61 % 11.13 C
1289 13-06-2019 11:20:00 18.8 C 61 % 11.13 C
1290 13-06-2019 11:25:00 18.8 C 61 % 11.13 C
1291 13-06-2019 11:30:00 19 C 61 % 11.31 C
1292 13-06-2019 11:35:00 19.3 C 60 % 11.35 C
1293 13-06-2019 11:40:00 19.6 C 61 % 11.88 C
1294 13-06-2019 11:45:00 19.7 C 61 % 11.97 C
1295 13-06-2019 11:50:00 19.7 C 59 % 11.47 C
1296 13-06-2019 11:55:00 19.8 C 60 % 11.82 C
1297 13-06-2019 12:00:00 19.8 C 59 % 11.56 C
1298 13-06-2019 12:05:00 19.7 C 57 % 10.95 C
1299 13-06-2019 12:10:00 19.4 C 58 % 10.93 C
1300 13-06-2019 12:15:00 19.3 C 57 % 10.58 C
Sensor: Nr:Datum:Temp:Feuchte:Taupunkt:
Aussen-T/F 1301 13-06-2019 12:20:00 19.2 C 58 % 10.74 C
1302 13-06-2019 12:25:00 19.2 C 59 % 11 C
1303 13-06-2019 12:30:00 19.2 C 56 % 10.22 C
1304 13-06-2019 12:35:00 19.3 C 55 % 10.04 C
1305 13-06-2019 12:40:00 19.3 C 55 % 10.04 C
1306 13-06-2019 12:45:00 19.3 C 57 % 10.58 C
1307 13-06-2019 12:50:00 19.5 C 57 % 10.76 C
1308 13-06-2019 12:55:00 19.8 C 56 % 10.78 C
1309 13-06-2019 13:00:00 20.1 C 54 % 10.51 C
1310 13-06-2019 13:05:00 20.3 C 57 % 11.51 C
1311 13-06-2019 13:10:00 20.4 C 54 % 10.79 C
1312 13-06-2019 13:15:00 20.7 C 53 % 10.78 C
1313 13-06-2019 13:20:00 20.9 C 54 % 11.25 C
1314 13-06-2019 13:25:00 21.1 C 53 % 11.15 C
1315 13-06-2019 13:30:00 21.1 C 53 % 11.15 C
1316 13-06-2019 13:35:00 21.2 C 55 % 11.81 C
1317 13-06-2019 13:40:00 21.2 C 49 % 10.07 C
1318 13-06-2019 13:45:00 21.1 C 50 % 10.28 C
1319 13-06-2019 13:50:00 21.2 C 53 % 11.25 C
1320 13-06-2019 13:55:00 21.2 C 55 % 11.81 C
1321 13-06-2019 14:00:00 21.3 C 50 % 10.46 C
1322 13-06-2019 14:05:00 21.5 C 52 % 11.24 C
1323 13-06-2019 14:10:00 21.6 C 50 % 10.74 C
1324 13-06-2019 14:15:00 21.3 C 50 % 10.46 C
1325 13-06-2019 14:20:00 21 C 52 % 10.78 C
Sensor: Nr:Datum:Temp:Feuchte:Taupunkt:
Aussen-T/F 1326 13-06-2019 14:25:00 20.7 C 53 % 10.78 C
1327 13-06-2019 14:30:00 20.7 C 54 % 11.07 C
1328 13-06-2019 14:35:00 21.1 C 52 % 10.87 C
1329 13-06-2019 14:40:00 21.4 C 50 % 10.55 C
1330 13-06-2019 14:45:00 21.5 C 49 % 10.34 C
1331 13-06-2019 14:50:00 21.6 C 52 % 11.33 C
1332 13-06-2019 14:55:00 21.5 C 50 % 10.65 C
1333 13-06-2019 15:00:00 21.3 C 53 % 11.34 C
1334 13-06-2019 15:05:00 21.4 C 53 % 11.43 C
1335 13-06-2019 15:10:00 21.7 C 52 % 11.42 C
1336 13-06-2019 15:15:00 22 C 48 % 10.49 C
1337 13-06-2019 15:20:00 22.1 C 47 % 10.27 C
1338 13-06-2019 15:25:00 22.4 C 46 % 10.22 C
1339 13-06-2019 15:30:00 22.3 C 47 % 10.45 C
1340 13-06-2019 15:35:00 22.2 C 46 % 10.04 C
1341 13-06-2019 15:40:00 21.9 C 49 % 10.71 C
1342 13-06-2019 15:45:00 22.4 C 48 % 10.86 C
1343 13-06-2019 15:50:00 22.8 C 46 % 10.58 C
1344 13-06-2019 15:55:00 23.1 C 49 % 11.81 C
1345 13-06-2019 16:00:00 23.5 C 45 % 10.89 C
1346 13-06-2019 16:05:00 23.7 C 43 % 10.39 C
1347 13-06-2019 16:10:00 23.4 C 41 % 9.41 C
1348 13-06-2019 16:15:00 23.6 C 44 % 10.64 C
1349 13-06-2019 16:20:00 23.7 C 42 % 10.03 C
1350 13-06-2019 16:25:00 23.9 C 43 % 10.57 C
Sensor: Nr:Datum:Temp:Feuchte:Taupunkt:
Aussen-T/F 1351 13-06-2019 16:30:00 24.3 C 42 % 10.57 C
1352 13-06-2019 16:35:00 24.2 C 41 % 10.12 C
1353 13-06-2019 16:40:00 24.2 C 40 % 9.75 C
1354 13-06-2019 16:45:00 23.9 C 43 % 10.57 C
1355 13-06-2019 16:50:00 23.9 C 41 % 9.85 C
1356 13-06-2019 16:55:00 24 C 42 % 10.3 C
1357 13-06-2019 17:00:00 24.2 C 43 % 10.84 C
1358 13-06-2019 17:05:00 24.4 C 43 % 11.02 C
1359 13-06-2019 17:10:00 24.6 C 42 % 10.84 C
1360 13-06-2019 17:15:00 24.5 C 42 % 10.75 C
1361 13-06-2019 17:20:00 24.5 C 42 % 10.75 C
1362 13-06-2019 17:25:00 24.4 C 39 % 9.56 C
1363 13-06-2019 17:30:00 23.9 C 43 % 10.57 C
1364 13-06-2019 17:35:00 23.9 C 42 % 10.21 C
1365 13-06-2019 17:40:00 24.3 C 41 % 10.21 C
1366 13-06-2019 17:45:00 24.6 C 42 % 10.84 C
1367 13-06-2019 17:50:00 24.8 C 40 % 10.29 C
1368 13-06-2019 17:55:00 24.9 C 40 % 10.38 C
1369 13-06-2019 18:00:00 24.9 C 38 % 9.61 C
1370 13-06-2019 18:05:00 24.8 C 42 % 11.02 C
1371 13-06-2019 18:10:00 24.9 C 41 % 10.75 C
1372 13-06-2019 18:15:00 24.8 C 41 % 10.66 C
1373 13-06-2019 18:20:00 24.7 C 41 % 10.57 C
1374 13-06-2019 18:25:00 24.7 C 40 % 10.2 C
1375 13-06-2019 18:30:00 24.8 C 41 % 10.66 C
Sensor: Nr:Datum:Temp:Feuchte:Taupunkt:
Aussen-T/F 1376 13-06-2019 18:35:00 24.4 C 42 % 10.66 C
1377 13-06-2019 18:40:00 23.9 C 47 % 11.91 C
1378 13-06-2019 18:45:00 23.4 C 48 % 11.77 C
1379 13-06-2019 18:50:00 23.3 C 45 % 10.71 C
1380 13-06-2019 18:55:00 23.3 C 51 % 12.6 C
1381 13-06-2019 19:00:00 23.2 C 50 % 12.21 C
1382 13-06-2019 19:05:00 22.9 C 53 % 12.82 C
1383 13-06-2019 19:10:00 22.7 C 56 % 13.47 C
1384 13-06-2019 19:15:00 22.4 C 60 % 14.26 C
1385 13-06-2019 19:20:00 22.2 C 60 % 14.07 C
1386 13-06-2019 19:25:00 21.8 C 62 % 14.2 C
1387 13-06-2019 19:30:00 21.2 C 59 % 12.87 C
1388 13-06-2019 19:35:00 19.8 C 63 % 12.56 C
1389 13-06-2019 19:40:00 18.4 C 75 % 13.89 C
1390 13-06-2019 19:45:00 17.4 C 79 % 13.72 C
1391 13-06-2019 19:50:00 16.7 C 82 % 13.61 C
1392 13-06-2019 19:55:00 16.2 C 85 % 13.68 C
1393 13-06-2019 20:00:00 15.8 C 86 % 13.46 C
1394 13-06-2019 20:05:00 15.6 C 87 % 13.45 C
1395 13-06-2019 20:10:00 15.4 C 89 % 13.6 C
1396 13-06-2019 20:15:00 15.4 C 89 % 13.6 C
1397 13-06-2019 20:20:00 15.6 C 91 % 14.14 C
1398 13-06-2019 20:25:00 15.9 C 92 % 14.6 C
1399 13-06-2019 20:30:00 16.1 C 91 % 14.63 C
1400 13-06-2019 20:35:00 16.3 C 91 % 14.83 C
Sensor: Nr:Datum:Temp:Feuchte:Taupunkt:
Aussen-T/F 1401 13-06-2019 20:40:00 16.4 C 90 % 14.76 C
1402 13-06-2019 20:45:00 16.4 C 90 % 14.76 C
1403 13-06-2019 20:50:00 16.4 C 89 % 14.58 C
1404 13-06-2019 20:55:00 16.4 C 89 % 14.58 C
1405 13-06-2019 21:00:00 16.3 C 89 % 14.48 C
1406 13-06-2019 21:05:00 16.2 C 89 % 14.39 C
1407 13-06-2019 21:10:00 15.9 C 88 % 13.92 C
1408 13-06-2019 21:15:00 15.7 C 89 % 13.89 C
1409 13-06-2019 21:20:00 15.5 C 89 % 13.7 C
1410 13-06-2019 21:25:00 15.2 C 89 % 13.4 C
1411 13-06-2019 21:30:00 15 C 89 % 13.2 C
1412 13-06-2019 21:35:00 14.8 C 89 % 13.01 C
1413 13-06-2019 21:40:00 14.5 C 89 % 12.71 C
1414 13-06-2019 21:45:00 14.3 C 89 % 12.51 C
1415 13-06-2019 21:50:00 14.1 C 89 % 12.32 C
1416 13-06-2019 21:55:00 13.9 C 90 % 12.29 C
1417 13-06-2019 22:00:00 13.7 C 90 % 12.09 C
1418 13-06-2019 22:05:00 13.7 C 91 % 12.26 C
1419 13-06-2019 22:10:00 13.5 C 91 % 12.06 C
1420 13-06-2019 22:15:00 13.4 C 91 % 11.96 C
1421 13-06-2019 22:20:00 13.3 C 91 % 11.86 C
1422 13-06-2019 22:25:00 13.2 C 92 % 11.93 C
1423 13-06-2019 22:30:00 13.2 C 92 % 11.93 C
1424 13-06-2019 22:35:00 13.1 C 92 % 11.83 C
1425 13-06-2019 22:40:00 13 C 92 % 11.73 C
Sensor: Nr:Datum:Temp:Feuchte:Taupunkt:
Aussen-T/F 1426 13-06-2019 22:45:00 12.9 C 92 % 11.63 C
1427 13-06-2019 22:50:00 12.8 C 93 % 11.7 C
1428 13-06-2019 22:55:00 12.8 C 93 % 11.7 C
1429 13-06-2019 23:00:00 12.8 C 93 % 11.7 C
1430 13-06-2019 23:05:00 12.8 C 93 % 11.7 C
1431 13-06-2019 23:10:00 12.8 C 94 % 11.86 C
1432 13-06-2019 23:15:00 12.8 C 94 % 11.86 C
1433 13-06-2019 23:20:00 12.9 C 94 % 11.96 C
1434 13-06-2019 23:25:00 12.9 C 94 % 11.96 C
1435 13-06-2019 23:30:00 12.9 C 94 % 11.96 C
1436 13-06-2019 23:35:00 12.9 C 94 % 11.96 C
1437 13-06-2019 23:40:00 12.8 C 94 % 11.86 C
1438 13-06-2019 23:45:00 12.7 C 94 % 11.76 C
1439 13-06-2019 23:50:00 12.6 C 94 % 11.66 C
1440 13-06-2019 23:55:00 12.5 C 94 % 11.56 C
1441 14-06-2019 00:00:00 12.4 C 94 % 11.46 C
1442 14-06-2019 00:05:00 12.4 C 94 % 11.46 C
1443 14-06-2019 00:10:00 12.3 C 94 % 11.36 C
1444 14-06-2019 00:15:00 12.2 C 94 % 11.26 C
1445 14-06-2019 00:20:00 12.2 C 94 % 11.26 C
1446 14-06-2019 00:25:00 12.1 C 94 % 11.16 C
1447 14-06-2019 00:30:00 12 C 94 % 11.07 C
1448 14-06-2019 00:35:00 11.9 C 94 % 10.97 C
1449 14-06-2019 00:40:00 11.9 C 94 % 10.97 C
1450 14-06-2019 00:45:00 11.8 C 94 % 10.87 C
Sensor: Nr:Datum:Temp:Feuchte:Taupunkt:
Aussen-T/F 1451 14-06-2019 00:50:00 11.8 C 95 % 11.03 C
1452 14-06-2019 00:55:00 11.8 C 95 % 11.03 C
1453 14-06-2019 01:00:00 11.7 C 95 % 10.93 C
1454 14-06-2019 01:05:00 11.7 C 95 % 10.93 C
1455 14-06-2019 01:10:00 11.7 C 95 % 10.93 C
1456 14-06-2019 01:15:00 11.7 C 95 % 10.93 C
1457 14-06-2019 01:20:00 11.7 C 95 % 10.93 C
1458 14-06-2019 01:25:00 11.7 C 95 % 10.93 C
1459 14-06-2019 01:30:00 11.8 C 95 % 11.03 C
1460 14-06-2019 01:35:00 11.8 C 95 % 11.03 C
1461 14-06-2019 01:40:00 11.7 C 95 % 10.93 C
1462 14-06-2019 01:45:00 11.7 C 95 % 10.93 C
1463 14-06-2019 01:50:00 11.8 C 96 % 11.18 C
1464 14-06-2019 01:55:00 11.8 C 96 % 11.18 C
1465 14-06-2019 02:00:00 11.9 C 96 % 11.28 C
1466 14-06-2019 02:05:00 11.9 C 96 % 11.28 C
1467 14-06-2019 02:10:00 12 C 96 % 11.38 C
1468 14-06-2019 02:15:00 12.1 C 96 % 11.48 C
1469 14-06-2019 02:20:00 12.2 C 96 % 11.58 C
1470 14-06-2019 02:25:00 12.2 C 96 % 11.58 C
1471 14-06-2019 02:30:00 12.3 C 96 % 11.68 C
1472 14-06-2019 02:35:00 12.3 C 96 % 11.68 C
1473 14-06-2019 02:40:00 12.3 C 96 % 11.68 C
1474 14-06-2019 02:45:00 12.3 C 96 % 11.68 C
1475 14-06-2019 02:50:00 12.3 C 96 % 11.68 C
Sensor: Nr:Datum:Temp:Feuchte:Taupunkt:
Aussen-T/F 1476 14-06-2019 02:55:00 12.2 C 96 % 11.58 C
1477 14-06-2019 03:00:00 12.1 C 96 % 11.48 C
1478 14-06-2019 03:05:00 12.1 C 96 % 11.48 C
1479 14-06-2019 03:10:00 12 C 96 % 11.38 C
1480 14-06-2019 03:15:00 12.1 C 96 % 11.48 C
1481 14-06-2019 03:20:00 12.1 C 96 % 11.48 C
1482 14-06-2019 03:25:00 12.1 C 96 % 11.48 C
1483 14-06-2019 03:30:00 12.1 C 96 % 11.48 C
1484 14-06-2019 03:35:00 12 C 96 % 11.38 C
1485 14-06-2019 03:40:00 12 C 96 % 11.38 C
1486 14-06-2019 03:45:00 11.9 C 96 % 11.28 C
1487 14-06-2019 03:50:00 11.8 C 96 % 11.18 C
1488 14-06-2019 03:55:00 11.8 C 96 % 11.18 C
1489 14-06-2019 04:00:00 11.7 C 96 % 11.08 C
1490 14-06-2019 04:05:00 11.6 C 96 % 10.98 C
1491 14-06-2019 04:10:00 11.6 C 96 % 10.98 C
1492 14-06-2019 04:15:00 11.5 C 96 % 10.88 C
1493 14-06-2019 04:20:00 11.5 C 96 % 10.88 C
1494 14-06-2019 04:25:00 11.6 C 96 % 10.98 C
1495 14-06-2019 04:30:00 11.6 C 96 % 10.98 C
1496 14-06-2019 04:35:00 11.6 C 96 % 10.98 C
1497 14-06-2019 04:40:00 11.6 C 96 % 10.98 C
1498 14-06-2019 04:45:00 11.6 C 96 % 10.98 C
1499 14-06-2019 04:50:00 11.6 C 96 % 10.98 C
1500 14-06-2019 04:55:00 11.6 C 96 % 10.98 C
Sensor: Nr:Datum:Temp:Feuchte:Taupunkt:
Aussen-T/F 1501 14-06-2019 05:00:00 11.6 C 96 % 10.98 C
1502 14-06-2019 05:05:00 11.6 C 96 % 10.98 C
1503 14-06-2019 05:10:00 11.5 C 96 % 10.88 C
1504 14-06-2019 05:15:00 11.4 C 96 % 10.79 C
1505 14-06-2019 05:20:00 11.4 C 96 % 10.79 C
1506 14-06-2019 05:25:00 11.4 C 96 % 10.79 C
1507 14-06-2019 05:30:00 11.3 C 96 % 10.69 C
1508 14-06-2019 05:35:00 11.4 C 97 % 10.94 C
1509 14-06-2019 05:40:00 11.4 C 97 % 10.94 C
1510 14-06-2019 05:45:00 11.4 C 97 % 10.94 C
1511 14-06-2019 05:50:00 11.3 C 97 % 10.84 C
1512 14-06-2019 05:55:00 11.3 C 97 % 10.84 C
1513 14-06-2019 06:00:00 11.3 C 96 % 10.69 C
1514 14-06-2019 06:05:00 11.4 C 96 % 10.79 C
1515 14-06-2019 06:10:00 11.3 C 97 % 10.84 C
1516 14-06-2019 06:15:00 11.3 C 96 % 10.69 C
1517 14-06-2019 06:20:00 11.3 C 97 % 10.84 C
1518 14-06-2019 06:25:00 11.3 C 97 % 10.84 C
1519 14-06-2019 06:30:00 11.3 C 97 % 10.84 C
1520 14-06-2019 06:35:00 11.4 C 97 % 10.94 C
1521 14-06-2019 06:40:00 11.4 C 97 % 10.94 C
1522 14-06-2019 06:45:00 11.4 C 97 % 10.94 C
1523 14-06-2019 06:50:00 11.3 C 97 % 10.84 C
1524 14-06-2019 06:55:00 11.3 C 97 % 10.84 C
1525 14-06-2019 07:00:00 11.3 C 97 % 10.84 C
Sensor: Nr:Datum:Temp:Feuchte:Taupunkt:
Aussen-T/F 1526 14-06-2019 07:05:00 11.3 C 97 % 10.84 C
1527 14-06-2019 07:10:00 11.3 C 97 % 10.84 C
1528 14-06-2019 07:15:00 11.3 C 97 % 10.84 C
1529 14-06-2019 07:20:00 11.4 C 97 % 10.94 C
1530 14-06-2019 07:25:00 11.4 C 97 % 10.94 C
1531 14-06-2019 07:30:00 11.4 C 97 % 10.94 C
1532 14-06-2019 07:35:00 11.4 C 97 % 10.94 C
1533 14-06-2019 07:40:00 11.5 C 97 % 11.04 C
1534 14-06-2019 07:45:00 11.6 C 97 % 11.14 C
1535 14-06-2019 07:50:00 11.6 C 97 % 11.14 C
1536 14-06-2019 07:55:00 11.7 C 97 % 11.24 C
1537 14-06-2019 08:00:00 11.7 C 97 % 11.24 C
1538 14-06-2019 08:05:00 11.7 C 97 % 11.24 C
1539 14-06-2019 08:10:00 11.8 C 97 % 11.34 C
1540 14-06-2019 08:15:00 11.8 C 97 % 11.34 C
1541 14-06-2019 08:20:00 11.9 C 97 % 11.44 C
1542 14-06-2019 08:25:00 12 C 97 % 11.54 C
1543 14-06-2019 08:30:00 12.1 C 97 % 11.64 C
1544 14-06-2019 08:35:00 12.3 C 97 % 11.84 C
1545 14-06-2019 08:40:00 12.4 C 97 % 11.94 C
1546 14-06-2019 08:45:00 12.6 C 97 % 12.14 C
1547 14-06-2019 08:50:00 12.7 C 97 % 12.24 C
1548 14-06-2019 08:55:00 12.8 C 97 % 12.34 C
1549 14-06-2019 09:00:00 13.1 C 97 % 12.63 C
1550 14-06-2019 09:05:00 13.2 C 98 % 12.89 C
Sensor: Nr:Datum:Temp:Feuchte:Taupunkt:
Aussen-T/F 1551 14-06-2019 09:10:00 13.4 C 98 % 13.09 C
1552 14-06-2019 09:15:00 13.6 C 97 % 13.13 C
1553 14-06-2019 09:20:00 13.8 C 98 % 13.49 C
1554 14-06-2019 09:25:00 14.1 C 98 % 13.79 C
1555 14-06-2019 09:30:00 14.4 C 98 % 14.09 C
1556 14-06-2019 09:35:00 14.7 C 98 % 14.39 C
1557 14-06-2019 09:40:00 15 C 98 % 14.69 C
1558 14-06-2019 09:45:00 15.2 C 98 % 14.89 C
1559 14-06-2019 09:50:00 15.4 C 98 % 15.09 C
1560 14-06-2019 09:55:00 15.6 C 98 % 15.29 C
1561 14-06-2019 10:00:00 15.8 C 98 % 15.48 C
1562 14-06-2019 10:05:00 16.2 C 98 % 15.88 C
1563 14-06-2019 10:10:00 16.4 C 98 % 16.08 C
1564 14-06-2019 10:15:00 16.7 C 98 % 16.38 C
1565 14-06-2019 10:20:00 16.9 C 98 % 16.58 C
1566 14-06-2019 10:25:00 17.2 C 98 % 16.88 C
1567 14-06-2019 10:30:00 17.4 C 98 % 17.08 C
1568 14-06-2019 10:35:00 17.6 C 98 % 17.28 C
1569 14-06-2019 10:40:00 17.7 C 98 % 17.38 C
1570 14-06-2019 10:45:00 17.9 C 98 % 17.58 C
1571 14-06-2019 10:50:00 18 C 98 % 17.68 C
1572 14-06-2019 10:55:00 18.2 C 98 % 17.88 C
1573 14-06-2019 11:00:00 18.1 C 97 % 17.62 C
1574 14-06-2019 11:05:00 18.1 C 97 % 17.62 C
1575 14-06-2019 11:10:00 18.2 C 97 % 17.72 C
Sensor: Nr:Datum:Temp:Feuchte:Taupunkt:
Aussen-T/F 1576 14-06-2019 11:15:00 18.3 C 97 % 17.82 C
1577 14-06-2019 11:20:00 18.3 C 97 % 17.82 C
1578 14-06-2019 11:25:00 18.3 C 96 % 17.65 C
1579 14-06-2019 11:30:00 18.5 C 97 % 18.01 C
1580 14-06-2019 11:35:00 18.7 C 96 % 18.05 C
1581 14-06-2019 11:40:00 18.8 C 96 % 18.15 C
1582 14-06-2019 11:45:00 18.9 C 94 % 17.91 C
1583 14-06-2019 11:50:00 19.4 C 94 % 18.41 C
1584 14-06-2019 11:55:00 19.8 C 94 % 18.81 C
1585 14-06-2019 12:00:00 20 C 92 % 18.66 C
1586 14-06-2019 12:05:00 20.1 C 78 % 16.14 C
1587 14-06-2019 12:10:00 20.7 C 82 % 17.52 C
1588 14-06-2019 12:15:00 21.1 C 73 % 16.07 C
1589 14-06-2019 12:20:00 21.5 C 72 % 16.24 C
1590 14-06-2019 12:25:00 21.7 C 64 % 14.6 C
1591 14-06-2019 12:30:00 22.1 C 74 % 17.25 C
1592 14-06-2019 12:35:00 22.3 C 72 % 17.01 C
1593 14-06-2019 12:40:00 22.3 C 59 % 13.9 C
1594 14-06-2019 12:45:00 22.6 C 66 % 15.93 C
1595 14-06-2019 12:50:00 22.7 C 61 % 14.79 C
1596 14-06-2019 12:55:00 22.8 C 63 % 15.39 C
1597 14-06-2019 13:00:00 23.1 C 69 % 17.1 C
1598 14-06-2019 13:05:00 23.3 C 63 % 15.86 C
1599 14-06-2019 13:10:00 23.8 C 65 % 16.83 C
1600 14-06-2019 13:15:00 24 C 60 % 15.76 C
Sensor: Nr:Datum:Temp:Feuchte:Taupunkt:
Aussen-T/F 1601 14-06-2019 13:20:00 24.1 C 66 % 17.35 C
1602 14-06-2019 13:25:00 24.1 C 52 % 13.63 C
1603 14-06-2019 13:30:00 24.4 C 56 % 15.06 C
1604 14-06-2019 13:35:00 24.7 C 56 % 15.33 C
1605 14-06-2019 13:40:00 24.8 C 48 % 13.05 C
1606 14-06-2019 13:45:00 24.9 C 54 % 14.95 C
1607 14-06-2019 13:50:00 24.9 C 54 % 14.95 C
1608 14-06-2019 13:55:00 25.1 C 48 % 13.32 C
1609 14-06-2019 14:00:00 25.3 C 49 % 13.82 C
1610 14-06-2019 14:05:00 25.6 C 50 % 14.41 C
1611 14-06-2019 14:10:00 25.7 C 50 % 14.5 C
1612 14-06-2019 14:15:00 25.9 C 50 % 14.68 C
1613 14-06-2019 14:20:00 26.1 C 47 % 13.91 C
1614 14-06-2019 14:25:00 26.2 C 48 % 14.32 C
1615 14-06-2019 14:30:00 26.2 C 47 % 14 C
1616 14-06-2019 14:35:00 26.2 C 54 % 16.16 C
1617 14-06-2019 14:40:00 26.2 C 52 % 15.57 C
1618 14-06-2019 14:45:00 26.2 C 50 % 14.96 C
1619 14-06-2019 14:50:00 26.2 C 52 % 15.57 C
1620 14-06-2019 14:55:00 26.2 C 54 % 16.16 C
1621 14-06-2019 15:00:00 26.3 C 57 % 17.1 C
1622 14-06-2019 15:05:00 26.2 C 50 % 14.96 C
1623 14-06-2019 15:10:00 26.2 C 57 % 17.01 C
1624 14-06-2019 15:15:00 26.3 C 49 % 14.74 C
1625 14-06-2019 15:20:00 26.4 C 53 % 16.05 C
Sensor: Nr:Datum:Temp:Feuchte:Taupunkt:
Aussen-T/F 1626 14-06-2019 15:25:00 26.5 C 49 % 14.92 C
1627 14-06-2019 15:30:00 26.4 C 49 % 14.83 C
1628 14-06-2019 15:35:00 26.4 C 45 % 13.51 C
1629 14-06-2019 15:40:00 26.4 C 43 % 12.82 C
1630 14-06-2019 15:45:00 26.4 C 55 % 16.63 C
1631 14-06-2019 15:50:00 26.3 C 46 % 13.76 C
1632 14-06-2019 15:55:00 26.4 C 55 % 16.63 C
1633 14-06-2019 16:00:00 26.3 C 53 % 15.96 C
1634 14-06-2019 16:05:00 26.3 C 56 % 16.82 C
1635 14-06-2019 16:10:00 26.2 C 53 % 15.87 C
1636 14-06-2019 16:15:00 26.1 C 60 % 17.73 C
1637 14-06-2019 16:20:00 26.1 C 64 % 18.76 C
1638 14-06-2019 16:25:00 26 C 59 % 17.37 C
1639 14-06-2019 16:30:00 25.9 C 64 % 18.57 C
1640 14-06-2019 16:35:00 25.8 C 56 % 16.36 C
1641 14-06-2019 16:40:00 25.8 C 54 % 15.79 C
1642 14-06-2019 16:45:00 25.8 C 63 % 18.22 C
1643 14-06-2019 16:50:00 25.6 C 52 % 15.02 C
1644 14-06-2019 16:55:00 25.5 C 56 % 16.08 C
1645 14-06-2019 17:00:00 25.4 C 66 % 18.58 C
1646 14-06-2019 17:05:00 25.4 C 68 % 19.06 C
1647 14-06-2019 17:10:00 25.3 C 65 % 18.25 C
1648 14-06-2019 17:15:00 25.3 C 65 % 18.25 C
1649 14-06-2019 17:20:00 25.4 C 63 % 17.84 C
1650 14-06-2019 17:25:00 25.3 C 60 % 16.98 C
Sensor: Nr:Datum:Temp:Feuchte:Taupunkt:
Aussen-T/F 1651 14-06-2019 17:30:00 25.4 C 69 % 19.3 C
1652 14-06-2019 17:35:00 25.3 C 69 % 19.2 C
1653 14-06-2019 17:40:00 25.1 C 57 % 15.98 C
1654 14-06-2019 17:45:00 25.1 C 67 % 18.54 C
1655 14-06-2019 17:50:00 25 C 71 % 19.37 C
1656 14-06-2019 17:55:00 24.8 C 69 % 18.72 C
1657 14-06-2019 18:00:00 24.6 C 63 % 17.09 C
1658 14-06-2019 18:05:00 24.4 C 70 % 18.57 C
1659 14-06-2019 18:10:00 24.4 C 64 % 17.15 C
1660 14-06-2019 18:15:00 24.6 C 68 % 18.3 C
1661 14-06-2019 18:20:00 24.8 C 66 % 18.01 C
1662 14-06-2019 18:25:00 24.8 C 69 % 18.72 C
1663 14-06-2019 18:30:00 24.7 C 68 % 18.4 C
1664 14-06-2019 18:35:00 24.7 C 73 % 19.53 C
1665 14-06-2019 18:40:00 24.6 C 73 % 19.44 C
1666 14-06-2019 18:45:00 24.3 C 68 % 18.01 C
1667 14-06-2019 18:50:00 24.1 C 69 % 18.06 C
1668 14-06-2019 18:55:00 23.9 C 74 % 18.98 C
1669 14-06-2019 19:00:00 23.7 C 74 % 18.79 C
1670 14-06-2019 19:05:00 23.4 C 72 % 18.06 C
1671 14-06-2019 19:10:00 23.2 C 74 % 18.31 C
1672 14-06-2019 19:15:00 22.8 C 72 % 17.49 C
1673 14-06-2019 19:20:00 22.7 C 72 % 17.39 C
1674 14-06-2019 19:25:00 22.6 C 75 % 17.94 C
1675 14-06-2019 19:30:00 22.6 C 75 % 17.94 C
Sensor: Nr:Datum:Temp:Feuchte:Taupunkt:
Aussen-T/F 1676 14-06-2019 19:35:00 22.4 C 75 % 17.75 C
1677 14-06-2019 19:40:00 22.2 C 75 % 17.56 C
1678 14-06-2019 19:45:00 21.9 C 75 % 17.27 C
1679 14-06-2019 19:50:00 21.7 C 76 % 17.28 C
1680 14-06-2019 19:55:00 21.4 C 76 % 16.99 C
1681 14-06-2019 20:00:00 21.2 C 77 % 17.01 C
1682 14-06-2019 20:05:00 21 C 76 % 16.61 C
1683 14-06-2019 20:10:00 20.8 C 77 % 16.62 C
1684 14-06-2019 20:15:00 20.6 C 77 % 16.43 C
1685 14-06-2019 20:20:00 20.4 C 78 % 16.44 C
1686 14-06-2019 20:25:00 20.3 C 78 % 16.34 C
1687 14-06-2019 20:30:00 20.2 C 79 % 16.44 C
1688 14-06-2019 20:35:00 20.1 C 79 % 16.34 C
1689 14-06-2019 20:40:00 19.9 C 79 % 16.15 C
1690 14-06-2019 20:45:00 19.8 C 79 % 16.05 C
1691 14-06-2019 20:50:00 19.6 C 80 % 16.06 C
1692 14-06-2019 20:55:00 19.6 C 81 % 16.25 C
1693 14-06-2019 21:00:00 19.4 C 81 % 16.06 C
1694 14-06-2019 21:05:00 19.3 C 81 % 15.96 C
1695 14-06-2019 21:10:00 19.3 C 82 % 16.15 C
1696 14-06-2019 21:15:00 19.3 C 83 % 16.34 C
1697 14-06-2019 21:20:00 19.3 C 83 % 16.34 C
1698 14-06-2019 21:25:00 19.2 C 83 % 16.24 C
1699 14-06-2019 21:30:00 19.1 C 84 % 16.33 C
1700 14-06-2019 21:35:00 19 C 85 % 16.42 C
Sensor: Nr:Datum:Temp:Feuchte:Taupunkt:
Aussen-T/F 1701 14-06-2019 21:40:00 18.9 C 85 % 16.32 C
1702 14-06-2019 21:45:00 18.8 C 85 % 16.23 C
1703 14-06-2019 21:50:00 18.7 C 85 % 16.13 C
1704 14-06-2019 21:55:00 18.7 C 85 % 16.13 C
1705 14-06-2019 22:00:00 18.6 C 84 % 15.84 C
1706 14-06-2019 22:05:00 18.5 C 84 % 15.75 C
1707 14-06-2019 22:10:00 18.6 C 84 % 15.84 C
1708 14-06-2019 22:15:00 18.7 C 84 % 15.94 C
1709 14-06-2019 22:20:00 18.7 C 83 % 15.75 C
1710 14-06-2019 22:25:00 18.8 C 83 % 15.85 C
1711 14-06-2019 22:30:00 18.9 C 83 % 15.95 C
1712 14-06-2019 22:35:00 18.9 C 84 % 16.14 C
1713 14-06-2019 22:40:00 19 C 84 % 16.24 C
1714 14-06-2019 22:45:00 19 C 84 % 16.24 C
1715 14-06-2019 22:50:00 18.9 C 84 % 16.14 C
1716 14-06-2019 22:55:00 18.9 C 84 % 16.14 C
1717 14-06-2019 23:00:00 18.9 C 84 % 16.14 C
1718 14-06-2019 23:05:00 18.8 C 85 % 16.23 C
1719 14-06-2019 23:10:00 18.8 C 85 % 16.23 C
1720 14-06-2019 23:15:00 18.7 C 86 % 16.31 C
1721 14-06-2019 23:20:00 18.7 C 86 % 16.31 C
1722 14-06-2019 23:25:00 18.7 C 86 % 16.31 C
1723 14-06-2019 23:30:00 18.6 C 87 % 16.39 C
1724 14-06-2019 23:35:00 18.5 C 87 % 16.3 C
1725 14-06-2019 23:40:00 18.4 C 87 % 16.2 C
Sensor: Nr:Datum:Temp:Feuchte:Taupunkt:
Aussen-T/F 1726 14-06-2019 23:45:00 18.4 C 88 % 16.38 C
1727 14-06-2019 23:50:00 18.4 C 88 % 16.38 C
1728 14-06-2019 23:55:00 18.3 C 89 % 16.46 C
1729 15-06-2019 00:00:00 18.2 C 90 % 16.53 C
1730 15-06-2019 00:05:00 18.1 C 90 % 16.43 C
1731 15-06-2019 00:10:00 18 C 91 % 16.51 C
1732 15-06-2019 00:15:00 17.9 C 91 % 16.41 C
1733 15-06-2019 00:20:00 17.8 C 91 % 16.31 C
1734 15-06-2019 00:25:00 17.6 C 92 % 16.28 C
1735 15-06-2019 00:30:00 17.5 C 92 % 16.19 C
1736 15-06-2019 00:35:00 17.4 C 92 % 16.09 C
1737 15-06-2019 00:40:00 17.3 C 92 % 15.99 C
1738 15-06-2019 00:45:00 17.2 C 92 % 15.89 C
1739 15-06-2019 00:50:00 17.1 C 93 % 15.96 C
1740 15-06-2019 00:55:00 17 C 93 % 15.86 C
1741 15-06-2019 01:00:00 16.9 C 93 % 15.76 C
1742 15-06-2019 01:05:00 16.8 C 93 % 15.66 C
1743 15-06-2019 01:10:00 16.8 C 93 % 15.66 C
1744 15-06-2019 01:15:00 16.7 C 93 % 15.56 C
1745 15-06-2019 01:20:00 16.6 C 93 % 15.46 C
1746 15-06-2019 01:25:00 16.5 C 93 % 15.36 C
1747 15-06-2019 01:30:00 16.4 C 93 % 15.27 C
1748 15-06-2019 01:35:00 16.4 C 93 % 15.27 C
1749 15-06-2019 01:40:00 16.3 C 93 % 15.17 C
1750 15-06-2019 01:45:00 16.2 C 94 % 15.23 C
Sensor: Nr:Datum:Temp:Feuchte:Taupunkt:
Aussen-T/F 1751 15-06-2019 01:50:00 16.2 C 93 % 15.07 C
1752 15-06-2019 01:55:00 16.1 C 94 % 15.13 C
1753 15-06-2019 02:00:00 16 C 94 % 15.03 C
1754 15-06-2019 02:05:00 15.9 C 94 % 14.94 C
1755 15-06-2019 02:10:00 15.9 C 94 % 14.94 C
1756 15-06-2019 02:15:00 15.8 C 94 % 14.84 C
1757 15-06-2019 02:20:00 15.8 C 94 % 14.84 C
1758 15-06-2019 02:25:00 15.7 C 94 % 14.74 C
1759 15-06-2019 02:30:00 15.7 C 94 % 14.74 C
1760 15-06-2019 02:35:00 15.6 C 94 % 14.64 C
1761 15-06-2019 02:40:00 15.5 C 94 % 14.54 C
1762 15-06-2019 02:45:00 15.4 C 94 % 14.44 C
1763 15-06-2019 02:50:00 15.5 C 95 % 14.7 C
1764 15-06-2019 02:55:00 15.4 C 95 % 14.6 C
1765 15-06-2019 03:00:00 15.4 C 95 % 14.6 C
1766 15-06-2019 03:05:00 15.3 C 95 % 14.5 C
1767 15-06-2019 03:10:00 15.2 C 94 % 14.24 C
1768 15-06-2019 03:15:00 15.1 C 94 % 14.14 C
1769 15-06-2019 03:20:00 15.1 C 95 % 14.31 C
1770 15-06-2019 03:25:00 15.1 C 95 % 14.31 C
1771 15-06-2019 03:30:00 15 C 95 % 14.21 C
1772 15-06-2019 03:35:00 15.1 C 95 % 14.31 C
1773 15-06-2019 03:40:00 15.1 C 96 % 14.47 C
1774 15-06-2019 03:45:00 15.2 C 96 % 14.57 C
1775 15-06-2019 03:50:00 15.2 C 96 % 14.57 C
Sensor: Nr:Datum:Temp:Feuchte:Taupunkt:
Aussen-T/F 1776 15-06-2019 03:55:00 15.2 C 95 % 14.4 C
1777 15-06-2019 04:00:00 15.2 C 95 % 14.4 C
1778 15-06-2019 04:05:00 15.2 C 95 % 14.4 C
1779 15-06-2019 04:10:00 15.2 C 96 % 14.57 C
1780 15-06-2019 04:15:00 15.1 C 96 % 14.47 C
1781 15-06-2019 04:20:00 15.1 C 95 % 14.31 C
1782 15-06-2019 04:25:00 15 C 95 % 14.21 C
1783 15-06-2019 04:30:00 15.2 C 96 % 14.57 C
1784 15-06-2019 04:35:00 15.2 C 96 % 14.57 C
1785 15-06-2019 04:40:00 15.2 C 96 % 14.57 C
1786 15-06-2019 04:45:00 15.1 C 96 % 14.47 C
1787 15-06-2019 04:50:00 15.1 C 96 % 14.47 C
1788 15-06-2019 04:55:00 15.1 C 96 % 14.47 C
1789 15-06-2019 05:00:00 15.1 C 96 % 14.47 C
1790 15-06-2019 05:05:00 15 C 96 % 14.37 C
1791 15-06-2019 05:10:00 14.9 C 96 % 14.27 C
1792 15-06-2019 05:15:00 14.8 C 96 % 14.17 C
1793 15-06-2019 05:20:00 14.7 C 96 % 14.07 C
1794 15-06-2019 05:25:00 14.6 C 95 % 13.81 C
1795 15-06-2019 05:30:00 14.8 C 96 % 14.17 C
1796 15-06-2019 05:35:00 15.1 C 96 % 14.47 C
1797 15-06-2019 05:40:00 15.2 C 97 % 14.73 C
1798 15-06-2019 05:45:00 15.3 C 97 % 14.83 C
1799 15-06-2019 05:50:00 15.3 C 96 % 14.67 C
1800 15-06-2019 05:55:00 15.4 C 96 % 14.77 C
Sensor: Nr:Datum:Temp:Feuchte:Taupunkt:
Aussen-T/F 1801 15-06-2019 06:00:00 15.4 C 96 % 14.77 C
1802 15-06-2019 06:05:00 15.4 C 96 % 14.77 C
1803 15-06-2019 06:10:00 15.4 C 96 % 14.77 C
1804 15-06-2019 06:15:00 15.4 C 96 % 14.77 C
1805 15-06-2019 06:20:00 15.4 C 96 % 14.77 C
1806 15-06-2019 06:25:00 15.4 C 96 % 14.77 C
1807 15-06-2019 06:30:00 15.5 C 96 % 14.86 C
1808 15-06-2019 06:35:00 15.6 C 97 % 15.13 C
1809 15-06-2019 06:40:00 15.7 C 97 % 15.23 C
1810 15-06-2019 06:45:00 15.7 C 97 % 15.23 C
1811 15-06-2019 06:50:00 15.8 C 97 % 15.32 C
1812 15-06-2019 06:55:00 15.8 C 97 % 15.32 C
1813 15-06-2019 07:00:00 15.8 C 97 % 15.32 C
1814 15-06-2019 07:05:00 15.9 C 97 % 15.42 C
1815 15-06-2019 07:10:00 15.9 C 97 % 15.42 C
1816 15-06-2019 07:15:00 16 C 97 % 15.52 C
1817 15-06-2019 07:20:00 16 C 97 % 15.52 C
1818 15-06-2019 07:25:00 16.1 C 97 % 15.62 C
1819 15-06-2019 07:30:00 16.2 C 97 % 15.72 C
1820 15-06-2019 07:35:00 16.2 C 97 % 15.72 C
1821 15-06-2019 07:40:00 16.3 C 97 % 15.82 C
1822 15-06-2019 07:45:00 16.4 C 97 % 15.92 C
1823 15-06-2019 07:50:00 16.6 C 97 % 16.12 C
1824 15-06-2019 07:55:00 16.7 C 97 % 16.22 C
1825 15-06-2019 08:00:00 16.7 C 97 % 16.22 C
Sensor: Nr:Datum:Temp:Feuchte:Taupunkt:
Aussen-T/F 1826 15-06-2019 08:05:00 16.8 C 97 % 16.32 C
1827 15-06-2019 08:10:00 16.7 C 97 % 16.22 C
1828 15-06-2019 08:15:00 16.7 C 97 % 16.22 C
1829 15-06-2019 08:20:00 16.8 C 97 % 16.32 C
1830 15-06-2019 08:25:00 17 C 97 % 16.52 C
1831 15-06-2019 08:30:00 17.1 C 97 % 16.62 C
1832 15-06-2019 08:35:00 17.1 C 97 % 16.62 C
1833 15-06-2019 08:40:00 17 C 96 % 16.36 C
1834 15-06-2019 08:45:00 17 C 96 % 16.36 C
1835 15-06-2019 08:50:00 17.1 C 95 % 16.29 C
1836 15-06-2019 08:55:00 17.3 C 94 % 16.33 C
1837 15-06-2019 09:00:00 17.6 C 94 % 16.62 C
1838 15-06-2019 09:05:00 17.8 C 93 % 16.65 C
1839 15-06-2019 09:10:00 17.9 C 92 % 16.58 C
1840 15-06-2019 09:15:00 18.1 C 92 % 16.78 C
1841 15-06-2019 09:20:00 18.2 C 91 % 16.71 C
1842 15-06-2019 09:25:00 18.4 C 90 % 16.73 C
1843 15-06-2019 09:30:00 18.5 C 89 % 16.65 C
1844 15-06-2019 09:35:00 18.6 C 90 % 16.93 C
1845 15-06-2019 09:40:00 18.8 C 88 % 16.77 C
1846 15-06-2019 09:45:00 19.1 C 87 % 16.89 C
1847 15-06-2019 09:50:00 19.2 C 87 % 16.98 C
1848 15-06-2019 09:55:00 19.3 C 86 % 16.9 C
1849 15-06-2019 10:00:00 19.4 C 85 % 16.81 C
1850 15-06-2019 10:05:00 19.4 C 85 % 16.81 C
Sensor: Nr:Datum:Temp:Feuchte:Taupunkt:
Aussen-T/F 1851 15-06-2019 10:10:00 19.6 C 83 % 16.63 C
1852 15-06-2019 10:15:00 19.7 C 84 % 16.92 C
1853 15-06-2019 10:20:00 19.8 C 82 % 16.64 C
1854 15-06-2019 10:25:00 19.8 C 82 % 16.64 C
1855 15-06-2019 10:30:00 19.9 C 81 % 16.54 C
1856 15-06-2019 10:35:00 20.1 C 82 % 16.93 C
1857 15-06-2019 10:40:00 20.3 C 81 % 16.93 C
1858 15-06-2019 10:45:00 20.5 C 79 % 16.73 C
1859 15-06-2019 10:50:00 20.4 C 78 % 16.44 C
1860 15-06-2019 10:55:00 20.3 C 80 % 16.74 C
1861 15-06-2019 11:00:00 20.3 C 79 % 16.54 C
1862 15-06-2019 11:05:00 20.3 C 75 % 15.72 C
1863 15-06-2019 11:10:00 20.4 C 75 % 15.82 C
1864 15-06-2019 11:15:00 20.4 C 73 % 15.4 C
1865 15-06-2019 11:20:00 20.6 C 73 % 15.59 C
1866 15-06-2019 11:25:00 20.7 C 73 % 15.69 C
1867 15-06-2019 11:30:00 20.8 C 71 % 15.35 C
1868 15-06-2019 11:35:00 21 C 71 % 15.54 C
1869 15-06-2019 11:40:00 21.1 C 71 % 15.64 C
1870 15-06-2019 11:45:00 21.2 C 69 % 15.29 C
1871 15-06-2019 11:50:00 21.4 C 69 % 15.48 C
1872 15-06-2019 11:55:00 21.4 C 70 % 15.7 C
1873 15-06-2019 12:00:00 21.5 C 69 % 15.57 C
1874 15-06-2019 12:05:00 21.6 C 69 % 15.67 C
1875 15-06-2019 12:10:00 21.7 C 68 % 15.54 C
Sensor: Nr:Datum:Temp:Feuchte:Taupunkt:
Aussen-T/F 1876 15-06-2019 12:15:00 21.7 C 67 % 15.31 C
1877 15-06-2019 12:20:00 21.7 C 68 % 15.54 C
1878 15-06-2019 12:25:00 21.5 C 67 % 15.12 C
1879 15-06-2019 12:30:00 21.5 C 70 % 15.8 C
1880 15-06-2019 12:35:00 21.7 C 69 % 15.77 C
1881 15-06-2019 12:40:00 21.7 C 70 % 15.99 C
1882 15-06-2019 12:45:00 21.7 C 74 % 16.86 C
1883 15-06-2019 12:50:00 21.6 C 72 % 16.34 C
1884 15-06-2019 12:55:00 21.4 C 72 % 16.14 C
1885 15-06-2019 13:00:00 21.3 C 72 % 16.05 C
1886 15-06-2019 13:05:00 21 C 72 % 15.76 C
1887 15-06-2019 13:10:00 20.9 C 74 % 16.09 C
1888 15-06-2019 13:15:00 20.8 C 75 % 16.21 C
1889 15-06-2019 13:20:00 20.7 C 76 % 16.32 C
1890 15-06-2019 13:25:00 20.8 C 75 % 16.21 C
1891 15-06-2019 13:30:00 21.1 C 76 % 16.7 C
1892 15-06-2019 13:35:00 21.3 C 73 % 16.26 C
1893 15-06-2019 13:40:00 21.7 C 73 % 16.65 C
1894 15-06-2019 13:45:00 21.9 C 72 % 16.62 C
1895 15-06-2019 13:50:00 22 C 74 % 17.15 C
1896 15-06-2019 13:55:00 21.9 C 75 % 17.27 C
1897 15-06-2019 14:00:00 21.8 C 77 % 17.59 C
1898 15-06-2019 14:05:00 21.8 C 78 % 17.79 C
1899 15-06-2019 14:10:00 21.7 C 79 % 17.9 C
1900 15-06-2019 14:15:00 21.8 C 71 % 16.31 C
Sensor: Nr:Datum:Temp:Feuchte:Taupunkt:
Aussen-T/F 1901 15-06-2019 14:20:00 21.9 C 70 % 16.18 C
1902 15-06-2019 14:25:00 21.9 C 72 % 16.62 C
1903 15-06-2019 14:30:00 21.9 C 74 % 17.06 C
1904 15-06-2019 14:35:00 21.8 C 73 % 16.75 C
1905 15-06-2019 14:40:00 21.7 C 71 % 16.21 C
1906 15-06-2019 14:45:00 21.4 C 71 % 15.93 C
1907 15-06-2019 14:50:00 21.1 C 72 % 15.86 C
1908 15-06-2019 14:55:00 21.1 C 74 % 16.29 C
1909 15-06-2019 15:00:00 21.1 C 73 % 16.07 C
1910 15-06-2019 15:05:00 21.1 C 73 % 16.07 C
1911 15-06-2019 15:10:00 21.3 C 73 % 16.26 C
1912 15-06-2019 15:15:00 21.7 C 72 % 16.43 C
1913 15-06-2019 15:20:00 22.1 C 71 % 16.6 C
1914 15-06-2019 15:25:00 22.2 C 69 % 16.24 C
1915 15-06-2019 15:30:00 22.2 C 70 % 16.47 C
1916 15-06-2019 15:35:00 22.5 C 68 % 16.3 C
1917 15-06-2019 15:40:00 22.8 C 68 % 16.59 C
1918 15-06-2019 15:45:00 22.9 C 66 % 16.21 C
1919 15-06-2019 15:50:00 22.8 C 66 % 16.12 C
1920 15-06-2019 15:55:00 22.7 C 67 % 16.26 C
1921 15-06-2019 16:00:00 22.7 C 66 % 16.02 C
1922 15-06-2019 16:05:00 22.8 C 69 % 16.82 C
1923 15-06-2019 16:10:00 23.2 C 67 % 16.73 C
1924 15-06-2019 16:15:00 23.6 C 64 % 16.39 C
1925 15-06-2019 16:20:00 23.7 C 62 % 15.99 C
Sensor: Nr:Datum:Temp:Feuchte:Taupunkt:
Aussen-T/F 1926 15-06-2019 16:25:00 23.6 C 68 % 17.35 C
1927 15-06-2019 16:30:00 23.7 C 69 % 17.67 C
1928 15-06-2019 16:35:00 23.9 C 65 % 16.92 C
1929 15-06-2019 16:40:00 24.3 C 62 % 16.55 C
1930 15-06-2019 16:45:00 24.6 C 58 % 15.79 C
1931 15-06-2019 16:50:00 24.5 C 58 % 15.7 C
1932 15-06-2019 16:55:00 24.7 C 56 % 15.33 C
1933 15-06-2019 17:00:00 25 C 55 % 15.33 C
1934 15-06-2019 17:05:00 25.4 C 57 % 16.26 C
1935 15-06-2019 17:10:00 25.5 C 56 % 16.08 C
1936 15-06-2019 17:15:00 25.5 C 54 % 15.51 C
1937 15-06-2019 17:20:00 25.3 C 56 % 15.89 C
1938 15-06-2019 17:25:00 25.5 C 55 % 15.8 C
1939 15-06-2019 17:30:00 25.4 C 55 % 15.7 C
1940 15-06-2019 17:35:00 25.3 C 53 % 15.03 C
1941 15-06-2019 17:40:00 25.2 C 54 % 15.23 C
1942 15-06-2019 17:45:00 25.2 C 54 % 15.23 C
1943 15-06-2019 17:50:00 25.3 C 54 % 15.33 C
1944 15-06-2019 17:55:00 25.7 C 54 % 15.7 C
1945 15-06-2019 18:00:00 25.8 C 54 % 15.79 C
1946 15-06-2019 18:05:00 26 C 56 % 16.54 C
1947 15-06-2019 18:10:00 26.3 C 52 % 15.66 C
1948 15-06-2019 18:15:00 26.4 C 52 % 15.75 C
1949 15-06-2019 18:20:00 26.3 C 45 % 13.42 C
1950 15-06-2019 18:25:00 26.5 C 54 % 16.44 C
Sensor: Nr:Datum:Temp:Feuchte:Taupunkt:
Aussen-T/F 1951 15-06-2019 18:30:00 26.7 C 43 % 13.09 C
1952 15-06-2019 18:35:00 26.8 C 44 % 13.53 C
1953 15-06-2019 18:40:00 26.4 C 45 % 13.51 C
1954 15-06-2019 18:45:00 25.9 C 49 % 14.37 C
1955 15-06-2019 18:50:00 25.7 C 45 % 12.88 C
1956 15-06-2019 18:55:00 26.1 C 47 % 13.91 C
1957 15-06-2019 19:00:00 26.5 C 44 % 13.26 C
1958 15-06-2019 19:05:00 26.4 C 44 % 13.17 C
1959 15-06-2019 19:10:00 26.1 C 46 % 13.58 C
1960 15-06-2019 19:15:00 25.8 C 47 % 13.64 C
1961 15-06-2019 19:20:00 25.8 C 56 % 16.36 C
1962 15-06-2019 19:25:00 25.7 C 51 % 14.81 C
1963 15-06-2019 19:30:00 25.4 C 54 % 15.42 C
1964 15-06-2019 19:35:00 25.2 C 59 % 16.62 C
1965 15-06-2019 19:40:00 24.8 C 60 % 16.51 C
1966 15-06-2019 19:45:00 24.4 C 61 % 16.39 C
1967 15-06-2019 19:50:00 24.2 C 62 % 16.46 C
1968 15-06-2019 19:55:00 24 C 65 % 17.01 C
1969 15-06-2019 20:00:00 23.9 C 65 % 16.92 C
1970 15-06-2019 20:05:00 23.9 C 64 % 16.68 C
1971 15-06-2019 20:10:00 23.8 C 64 % 16.58 C
1972 15-06-2019 20:15:00 23.6 C 65 % 16.64 C
1973 15-06-2019 20:20:00 23.5 C 65 % 16.54 C
1974 15-06-2019 20:25:00 23.4 C 62 % 15.71 C
1975 15-06-2019 20:30:00 23.3 C 66 % 16.59 C
Sensor: Nr:Datum:Temp:Feuchte:Taupunkt:
Aussen-T/F 1976 15-06-2019 20:35:00 23.3 C 66 % 16.59 C
1977 15-06-2019 20:40:00 23.2 C 66 % 16.5 C
1978 15-06-2019 20:45:00 23.2 C 67 % 16.73 C
1979 15-06-2019 20:50:00 23.2 C 68 % 16.97 C
1980 15-06-2019 20:55:00 22.9 C 68 % 16.68 C
1981 15-06-2019 21:00:00 22.8 C 69 % 16.82 C
1982 15-06-2019 21:05:00 22.4 C 69 % 16.43 C
1983 15-06-2019 21:10:00 22.1 C 69 % 16.15 C
1984 15-06-2019 21:15:00 21.7 C 70 % 15.99 C
1985 15-06-2019 21:20:00 21.3 C 71 % 15.83 C
1986 15-06-2019 21:25:00 21.1 C 71 % 15.64 C
1987 15-06-2019 21:30:00 20.7 C 71 % 15.25 C
1988 15-06-2019 21:35:00 20.4 C 71 % 14.97 C
1989 15-06-2019 21:40:00 20.2 C 71 % 14.78 C
1990 15-06-2019 21:45:00 20.1 C 72 % 14.9 C
1991 15-06-2019 21:50:00 19.8 C 74 % 15.03 C
1992 15-06-2019 21:55:00 19.6 C 75 % 15.05 C
1993 15-06-2019 22:00:00 19.3 C 75 % 14.76 C
1994 15-06-2019 22:05:00 19.1 C 76 % 14.77 C
1995 15-06-2019 22:10:00 18.9 C 77 % 14.78 C
1996 15-06-2019 22:15:00 18.7 C 78 % 14.79 C
1997 15-06-2019 22:20:00 18.6 C 79 % 14.89 C
1998 15-06-2019 22:25:00 18.4 C 79 % 14.69 C
1999 15-06-2019 22:30:00 18.3 C 79 % 14.6 C
2000 15-06-2019 22:35:00 18.2 C 80 % 14.69 C
Sensor: Nr:Datum:Temp:Feuchte:Taupunkt:
Aussen-T/F 2001 15-06-2019 22:40:00 18.1 C 80 % 14.6 C
2002 15-06-2019 22:45:00 18.1 C 80 % 14.6 C
2003 15-06-2019 22:50:00 18.1 C 80 % 14.6 C
2004 15-06-2019 22:55:00 18 C 81 % 14.69 C
2005 15-06-2019 23:00:00 17.9 C 81 % 14.59 C
2006 15-06-2019 23:05:00 17.9 C 80 % 14.4 C
2007 15-06-2019 23:10:00 17.9 C 81 % 14.59 C
2008 15-06-2019 23:15:00 17.8 C 81 % 14.5 C
2009 15-06-2019 23:20:00 17.7 C 82 % 14.59 C
2010 15-06-2019 23:25:00 17.7 C 82 % 14.59 C
2011 15-06-2019 23:30:00 17.6 C 82 % 14.49 C
2012 15-06-2019 23:35:00 17.5 C 82 % 14.39 C
2013 15-06-2019 23:40:00 17.5 C 83 % 14.58 C
2014 15-06-2019 23:45:00 17.4 C 82 % 14.3 C
2015 15-06-2019 23:50:00 17.3 C 83 % 14.39 C
2016 15-06-2019 23:55:00 17.3 C 82 % 14.2 C
2017 16-06-2019 00:00:00 17.2 C 83 % 14.29 C
2018 16-06-2019 00:05:00 17.2 C 84 % 14.47 C
2019 16-06-2019 00:10:00 17.2 C 84 % 14.47 C
2020 16-06-2019 00:15:00 17.3 C 84 % 14.57 C
2021 16-06-2019 00:20:00 17.3 C 84 % 14.57 C
2022 16-06-2019 00:25:00 17.3 C 84 % 14.57 C
2023 16-06-2019 00:30:00 17.3 C 83 % 14.39 C
2024 16-06-2019 00:35:00 17.3 C 83 % 14.39 C
2025 16-06-2019 00:40:00 17.4 C 82 % 14.3 C
Sensor: Nr:Datum:Temp:Feuchte:Taupunkt:
Aussen-T/F 2026 16-06-2019 00:45:00 17.3 C 82 % 14.2 C
2027 16-06-2019 00:50:00 17.4 C 83 % 14.48 C
2028 16-06-2019 00:55:00 17.4 C 83 % 14.48 C
2029 16-06-2019 01:00:00 17.4 C 83 % 14.48 C
2030 16-06-2019 01:05:00 17.4 C 83 % 14.48 C
2031 16-06-2019 01:10:00 17.4 C 83 % 14.48 C
2032 16-06-2019 01:15:00 17.4 C 84 % 14.67 C
2033 16-06-2019 01:20:00 17.4 C 83 % 14.48 C
2034 16-06-2019 01:25:00 17.4 C 83 % 14.48 C
2035 16-06-2019 01:30:00 17.4 C 83 % 14.48 C
2036 16-06-2019 01:35:00 17.4 C 83 % 14.48 C
2037 16-06-2019 01:40:00 17.4 C 83 % 14.48 C
2038 16-06-2019 01:45:00 17.4 C 83 % 14.48 C
2039 16-06-2019 01:50:00 17.4 C 83 % 14.48 C
2040 16-06-2019 01:55:00 17.4 C 83 % 14.48 C
2041 16-06-2019 02:00:00 17.4 C 83 % 14.48 C
2042 16-06-2019 02:05:00 17.3 C 83 % 14.39 C
2043 16-06-2019 02:10:00 17.3 C 84 % 14.57 C
2044 16-06-2019 02:15:00 17.2 C 84 % 14.47 C
2045 16-06-2019 02:20:00 17.2 C 83 % 14.29 C
2046 16-06-2019 02:25:00 17.2 C 84 % 14.47 C
2047 16-06-2019 02:30:00 17.2 C 84 % 14.47 C
2048 16-06-2019 02:35:00 17.1 C 84 % 14.38 C
2049 16-06-2019 02:40:00 17.1 C 84 % 14.38 C
2050 16-06-2019 02:45:00 17.1 C 84 % 14.38 C
Sensor: Nr:Datum:Temp:Feuchte:Taupunkt:
Aussen-T/F 2051 16-06-2019 02:50:00 17.1 C 85 % 14.56 C
2052 16-06-2019 02:55:00 17.1 C 85 % 14.56 C
2053 16-06-2019 03:00:00 17 C 85 % 14.46 C
2054 16-06-2019 03:05:00 17 C 85 % 14.46 C
2055 16-06-2019 03:10:00 16.9 C 85 % 14.36 C
2056 16-06-2019 03:15:00 16.9 C 85 % 14.36 C
2057 16-06-2019 03:20:00 16.9 C 85 % 14.36 C
2058 16-06-2019 03:25:00 16.9 C 85 % 14.36 C
2059 16-06-2019 03:30:00 16.9 C 85 % 14.36 C
2060 16-06-2019 03:35:00 16.8 C 85 % 14.26 C
2061 16-06-2019 03:40:00 16.8 C 84 % 14.08 C
2062 16-06-2019 03:45:00 16.9 C 84 % 14.18 C
2063 16-06-2019 03:50:00 16.9 C 83 % 14 C
2064 16-06-2019 03:55:00 16.9 C 83 % 14 C
2065 16-06-2019 04:00:00 17.1 C 82 % 14 C
2066 16-06-2019 04:05:00 17.2 C 82 % 14.1 C
2067 16-06-2019 04:10:00 17.2 C 81 % 13.91 C
2068 16-06-2019 04:15:00 17.3 C 81 % 14.01 C
2069 16-06-2019 04:20:00 17.3 C 82 % 14.2 C
2070 16-06-2019 04:25:00 17.2 C 82 % 14.1 C
2071 16-06-2019 04:30:00 17.2 C 82 % 14.1 C
2072 16-06-2019 04:35:00 17.1 C 83 % 14.19 C
2073 16-06-2019 04:40:00 17 C 83 % 14.09 C
2074 16-06-2019 04:45:00 16.9 C 83 % 14 C
2075 16-06-2019 04:50:00 16.8 C 84 % 14.08 C
Sensor: Nr:Datum:Temp:Feuchte:Taupunkt:
Aussen-T/F 2076 16-06-2019 04:55:00 16.7 C 84 % 13.98 C
2077 16-06-2019 05:00:00 16.7 C 84 % 13.98 C
2078 16-06-2019 05:05:00 16.6 C 84 % 13.89 C
2079 16-06-2019 05:10:00 16.5 C 84 % 13.79 C
2080 16-06-2019 05:15:00 16.4 C 85 % 13.87 C
2081 16-06-2019 05:20:00 16.3 C 85 % 13.77 C
2082 16-06-2019 05:25:00 16.3 C 85 % 13.77 C
2083 16-06-2019 05:30:00 16.3 C 85 % 13.77 C
2084 16-06-2019 05:35:00 16.2 C 84 % 13.5 C
2085 16-06-2019 05:40:00 16.2 C 86 % 13.86 C
2086 16-06-2019 05:45:00 16.1 C 86 % 13.76 C
2087 16-06-2019 05:50:00 16.1 C 87 % 13.94 C
2088 16-06-2019 05:55:00 15.9 C 87 % 13.74 C
2089 16-06-2019 06:00:00 15.8 C 87 % 13.64 C
2090 16-06-2019 06:05:00 15.7 C 88 % 13.72 C
2091 16-06-2019 06:10:00 15.7 C 88 % 13.72 C
2092 16-06-2019 06:15:00 15.6 C 88 % 13.62 C
2093 16-06-2019 06:20:00 15.4 C 89 % 13.6 C
2094 16-06-2019 06:25:00 15.4 C 89 % 13.6 C
2095 16-06-2019 06:30:00 15.4 C 90 % 13.77 C
2096 16-06-2019 06:35:00 15.4 C 90 % 13.77 C
2097 16-06-2019 06:40:00 15.3 C 91 % 13.84 C
2098 16-06-2019 06:45:00 15.3 C 91 % 13.84 C
2099 16-06-2019 06:50:00 15.3 C 91 % 13.84 C
2100 16-06-2019 06:55:00 15.3 C 91 % 13.84 C
Sensor: Nr:Datum:Temp:Feuchte:Taupunkt:
Aussen-T/F 2101 16-06-2019 07:00:00 15.3 C 91 % 13.84 C
2102 16-06-2019 07:05:00 15.3 C 92 % 14.01 C
2103 16-06-2019 07:10:00 15.3 C 92 % 14.01 C
2104 16-06-2019 07:15:00 15.4 C 92 % 14.11 C
2105 16-06-2019 07:20:00 15.5 C 92 % 14.21 C
2106 16-06-2019 07:25:00 15.5 C 92 % 14.21 C
2107 16-06-2019 07:30:00 15.6 C 92 % 14.31 C
2108 16-06-2019 07:35:00 15.6 C 91 % 14.14 C
2109 16-06-2019 07:40:00 15.6 C 91 % 14.14 C
2110 16-06-2019 07:45:00 15.7 C 90 % 14.06 C
2111 16-06-2019 07:50:00 15.8 C 90 % 14.16 C
2112 16-06-2019 07:55:00 16 C 91 % 14.53 C
2113 16-06-2019 08:00:00 16.1 C 91 % 14.63 C
2114 16-06-2019 08:05:00 16.2 C 91 % 14.73 C
2115 16-06-2019 08:10:00 16.2 C 91 % 14.73 C
2116 16-06-2019 08:15:00 16.1 C 89 % 14.29 C
2117 16-06-2019 08:20:00 16.1 C 90 % 14.46 C
2118 16-06-2019 08:25:00 16.1 C 90 % 14.46 C
2119 16-06-2019 08:30:00 16.1 C 90 % 14.46 C
2120 16-06-2019 08:35:00 16.1 C 90 % 14.46 C
2121 16-06-2019 08:40:00 15.9 C 89 % 14.09 C
2122 16-06-2019 08:45:00 15.9 C 89 % 14.09 C
2123 16-06-2019 08:50:00 15.8 C 88 % 13.82 C
2124 16-06-2019 08:55:00 15.9 C 89 % 14.09 C
2125 16-06-2019 09:00:00 16.1 C 89 % 14.29 C
Sensor: Nr:Datum:Temp:Feuchte:Taupunkt:
Aussen-T/F 2126 16-06-2019 09:05:00 16.2 C 87 % 14.03 C
2127 16-06-2019 09:10:00 16.3 C 84 % 13.59 C
2128 16-06-2019 09:15:00 16.6 C 85 % 14.07 C
2129 16-06-2019 09:20:00 16.6 C 83 % 13.7 C
2130 16-06-2019 09:25:00 16.9 C 80 % 13.43 C
2131 16-06-2019 09:30:00 17.2 C 79 % 13.53 C
2132 16-06-2019 09:35:00 17.4 C 78 % 13.53 C
2133 16-06-2019 09:40:00 17.6 C 77 % 13.52 C
2134 16-06-2019 09:45:00 17.8 C 79 % 14.11 C
2135 16-06-2019 09:50:00 17.8 C 77 % 13.72 C
2136 16-06-2019 09:55:00 18 C 77 % 13.91 C
2137 16-06-2019 10:00:00 18.1 C 77 % 14.01 C
2138 16-06-2019 10:05:00 18.2 C 74 % 13.49 C
2139 16-06-2019 10:10:00 18.4 C 73 % 13.48 C
2140 16-06-2019 10:15:00 18.7 C 73 % 13.76 C
2141 16-06-2019 10:20:00 19.1 C 71 % 13.72 C
2142 16-06-2019 10:25:00 19.4 C 71 % 14.01 C
2143 16-06-2019 10:30:00 19.7 C 67 % 13.4 C
2144 16-06-2019 10:35:00 19.8 C 72 % 14.61 C
2145 16-06-2019 10:40:00 19.9 C 67 % 13.59 C
2146 16-06-2019 10:45:00 19.9 C 64 % 12.89 C
2147 16-06-2019 10:50:00 20.1 C 64 % 13.08 C
2148 16-06-2019 10:55:00 20.3 C 64 % 13.27 C
2149 16-06-2019 11:00:00 20.6 C 63 % 13.31 C
2150 16-06-2019 11:05:00 20.7 C 61 % 12.91 C
Sensor: Nr:Datum:Temp:Feuchte:Taupunkt:
Aussen-T/F 2151 16-06-2019 11:10:00 20.7 C 63 % 13.41 C
2152 16-06-2019 11:15:00 20.7 C 64 % 13.65 C
2153 16-06-2019 11:20:00 20.8 C 57 % 11.97 C
2154 16-06-2019 11:25:00 21.1 C 57 % 12.25 C
2155 16-06-2019 11:30:00 21.2 C 59 % 12.87 C
2156 16-06-2019 11:35:00 21.1 C 58 % 12.52 C
2157 16-06-2019 11:40:00 21 C 61 % 13.2 C
2158 16-06-2019 11:45:00 20.8 C 62 % 13.26 C
2159 16-06-2019 11:50:00 20.7 C 62 % 13.16 C
2160 16-06-2019 11:55:00 20.7 C 61 % 12.91 C
2161 16-06-2019 12:00:00 20.7 C 61 % 12.91 C
2162 16-06-2019 12:05:00 20.8 C 61 % 13.01 C
2163 16-06-2019 12:10:00 20.9 C 61 % 13.1 C
2164 16-06-2019 12:15:00 21.1 C 61 % 13.29 C
2165 16-06-2019 12:20:00 21.3 C 57 % 12.44 C
2166 16-06-2019 12:25:00 21.6 C 59 % 13.25 C
2167 16-06-2019 12:30:00 21.7 C 56 % 12.54 C
2168 16-06-2019 12:35:00 21.5 C 59 % 13.15 C
2169 16-06-2019 12:40:00 21.6 C 60 % 13.51 C
2170 16-06-2019 12:45:00 21.6 C 59 % 13.25 C
2171 16-06-2019 12:50:00 21.6 C 58 % 12.99 C
2172 16-06-2019 12:55:00 21.7 C 58 % 13.08 C
2173 16-06-2019 13:00:00 21.8 C 54 % 12.08 C
2174 16-06-2019 13:05:00 22.1 C 55 % 12.64 C
2175 16-06-2019 13:10:00 22.2 C 51 % 11.59 C
Sensor: Nr:Datum:Temp:Feuchte:Taupunkt:
Aussen-T/F 2176 16-06-2019 13:15:00 22.2 C 55 % 12.73 C
2177 16-06-2019 13:20:00 22.4 C 56 % 13.2 C
2178 16-06-2019 13:25:00 22.6 C 55 % 13.11 C
2179 16-06-2019 13:30:00 22.5 C 54 % 12.73 C
2180 16-06-2019 13:35:00 22.6 C 57 % 13.65 C
2181 16-06-2019 13:40:00 22.5 C 56 % 13.29 C
2182 16-06-2019 13:45:00 22.5 C 53 % 12.45 C
2183 16-06-2019 13:50:00 22.4 C 57 % 13.47 C
2184 16-06-2019 13:55:00 22.4 C 54 % 12.64 C
2185 16-06-2019 14:00:00 22.4 C 57 % 13.47 C
2186 16-06-2019 14:05:00 22.3 C 55 % 12.83 C
2187 16-06-2019 14:10:00 22.3 C 55 % 12.83 C
2188 16-06-2019 14:15:00 22.4 C 58 % 13.73 C
2189 16-06-2019 14:20:00 22.5 C 57 % 13.56 C
2190 16-06-2019 14:25:00 22.7 C 56 % 13.47 C
2191 16-06-2019 14:30:00 22.9 C 54 % 13.1 C
2192 16-06-2019 14:35:00 22.9 C 55 % 13.38 C
2193 16-06-2019 14:40:00 22.8 C 57 % 13.84 C
2194 16-06-2019 14:45:00 22.7 C 55 % 13.2 C
2195 16-06-2019 14:50:00 22.6 C 55 % 13.11 C
2196 16-06-2019 14:55:00 22.3 C 57 % 13.37 C
2197 16-06-2019 15:00:00 22.1 C 59 % 13.72 C
2198 16-06-2019 15:05:00 22 C 57 % 13.09 C
2199 16-06-2019 15:10:00 22.1 C 57 % 13.19 C
2200 16-06-2019 15:15:00 22.4 C 58 % 13.73 C
Sensor: Nr:Datum:Temp:Feuchte:Taupunkt:
Aussen-T/F 2201 16-06-2019 15:20:00 22.6 C 55 % 13.11 C
2202 16-06-2019 15:25:00 22.8 C 56 % 13.57 C
2203 16-06-2019 15:30:00 23.2 C 55 % 13.66 C
2204 16-06-2019 15:35:00 23.3 C 52 % 12.9 C
2205 16-06-2019 15:40:00 23.8 C 53 % 13.65 C
2206 16-06-2019 15:45:00 24.1 C 53 % 13.93 C
2207 16-06-2019 15:50:00 24.1 C 52 % 13.63 C
2208 16-06-2019 15:55:00 23.9 C 52 % 13.45 C
2209 16-06-2019 16:00:00 23.7 C 53 % 13.56 C
2210 16-06-2019 16:05:00 23.4 C 55 % 13.85 C
2211 16-06-2019 16:10:00 23.5 C 54 % 13.66 C
2212 16-06-2019 16:15:00 23.6 C 53 % 13.46 C
2213 16-06-2019 16:20:00 23.3 C 54 % 13.47 C
2214 16-06-2019 16:25:00 23.3 C 55 % 13.76 C
2215 16-06-2019 16:30:00 23.2 C 56 % 13.94 C
2216 16-06-2019 16:35:00 23.1 C 55 % 13.57 C
2217 16-06-2019 16:40:00 23 C 55 % 13.48 C
2218 16-06-2019 16:45:00 22.9 C 58 % 14.2 C
2219 16-06-2019 16:50:00 22.9 C 56 % 13.66 C
2220 16-06-2019 16:55:00 22.8 C 57 % 13.84 C
2221 16-06-2019 17:00:00 22.7 C 59 % 14.28 C
2222 16-06-2019 17:05:00 22.5 C 57 % 13.56 C
2223 16-06-2019 17:10:00 22.3 C 58 % 13.64 C
2224 16-06-2019 17:15:00 22.2 C 59 % 13.81 C
2225 16-06-2019 17:20:00 22.1 C 59 % 13.72 C
Sensor: Nr:Datum:Temp:Feuchte:Taupunkt:
Aussen-T/F 2226 16-06-2019 17:25:00 22.1 C 61 % 14.23 C
2227 16-06-2019 17:30:00 22.1 C 59 % 13.72 C
2228 16-06-2019 17:35:00 22.1 C 60 % 13.98 C
2229 16-06-2019 17:40:00 22.1 C 59 % 13.72 C
2230 16-06-2019 17:45:00 22.2 C 60 % 14.07 C
2231 16-06-2019 17:50:00 22.3 C 56 % 13.1 C
2232 16-06-2019 17:55:00 22.6 C 56 % 13.38 C
2233 16-06-2019 18:00:00 22.8 C 54 % 13.01 C
2234 16-06-2019 18:05:00 23 C 56 % 13.75 C
2235 16-06-2019 18:10:00 22.9 C 54 % 13.1 C
2236 16-06-2019 18:15:00 23.2 C 54 % 13.38 C
2237 16-06-2019 18:20:00 23.6 C 53 % 13.46 C
2238 16-06-2019 18:25:00 24.1 C 53 % 13.93 C
2239 16-06-2019 18:30:00 24.6 C 51 % 13.79 C
2240 16-06-2019 18:35:00 24.6 C 50 % 13.49 C
2241 16-06-2019 18:40:00 24.7 C 50 % 13.58 C
2242 16-06-2019 18:45:00 24.9 C 49 % 13.46 C
2243 16-06-2019 18:50:00 25 C 49 % 13.55 C
2244 16-06-2019 18:55:00 25.1 C 48 % 13.32 C
2245 16-06-2019 19:00:00 25.1 C 49 % 13.64 C
2246 16-06-2019 19:05:00 25.1 C 49 % 13.64 C
2247 16-06-2019 19:10:00 25.1 C 47 % 13 C
2248 16-06-2019 19:15:00 25.1 C 48 % 13.32 C
2249 16-06-2019 19:20:00 24.7 C 48 % 12.96 C
2250 16-06-2019 19:25:00 23.8 C 50 % 12.76 C
Sensor: Nr:Datum:Temp:Feuchte:Taupunkt:
Aussen-T/F 2251 16-06-2019 19:30:00 23.1 C 53 % 13 C
2252 16-06-2019 19:35:00 22.6 C 59 % 14.18 C
2253 16-06-2019 19:40:00 22.3 C 60 % 14.16 C
2254 16-06-2019 19:45:00 22.1 C 63 % 14.73 C
2255 16-06-2019 19:50:00 21.8 C 65 % 14.93 C
2256 16-06-2019 19:55:00 21.8 C 65 % 14.93 C
2257 16-06-2019 20:00:00 21.9 C 65 % 15.02 C
2258 16-06-2019 20:05:00 22 C 65 % 15.12 C
2259 16-06-2019 20:10:00 22.2 C 65 % 15.31 C
2260 16-06-2019 20:15:00 22.6 C 54 % 12.83 C
2261 16-06-2019 20:20:00 22.9 C 55 % 13.38 C
2262 16-06-2019 20:25:00 23.1 C 54 % 13.29 C
2263 16-06-2019 20:30:00 23.1 C 53 % 13 C
2264 16-06-2019 20:35:00 22.9 C 54 % 13.1 C
2265 16-06-2019 20:40:00 22.8 C 54 % 13.01 C
2266 16-06-2019 20:45:00 22.7 C 56 % 13.47 C
2267 16-06-2019 20:50:00 22.7 C 57 % 13.75 C
2268 16-06-2019 20:55:00 22.5 C 62 % 14.86 C
2269 16-06-2019 21:00:00 22.3 C 64 % 15.16 C
2270 16-06-2019 21:05:00 21.9 C 65 % 15.02 C
2271 16-06-2019 21:10:00 21.6 C 65 % 14.74 C
2272 16-06-2019 21:15:00 21.2 C 65 % 14.36 C
2273 16-06-2019 21:20:00 20.8 C 67 % 14.45 C
2274 16-06-2019 21:25:00 20.4 C 67 % 14.07 C
2275 16-06-2019 21:30:00 20 C 68 % 13.92 C
Sensor: Nr:Datum:Temp:Feuchte:Taupunkt:
Aussen-T/F 2276 16-06-2019 21:35:00 19.6 C 69 % 13.76 C
2277 16-06-2019 21:40:00 19.3 C 70 % 13.69 C
2278 16-06-2019 21:45:00 19.1 C 70 % 13.5 C
2279 16-06-2019 21:50:00 18.8 C 71 % 13.43 C
2280 16-06-2019 21:55:00 18.5 C 72 % 13.36 C
2281 16-06-2019 22:00:00 18.3 C 72 % 13.17 C
2282 16-06-2019 22:05:00 18.1 C 73 % 13.19 C
2283 16-06-2019 22:10:00 17.8 C 74 % 13.11 C
2284 16-06-2019 22:15:00 17.7 C 75 % 13.22 C
2285 16-06-2019 22:20:00 17.5 C 76 % 13.23 C
2286 16-06-2019 22:25:00 17.3 C 76 % 13.03 C
2287 16-06-2019 22:30:00 17.2 C 77 % 13.14 C
2288 16-06-2019 22:35:00 17 C 78 % 13.14 C
2289 16-06-2019 22:40:00 16.8 C 78 % 12.94 C
2290 16-06-2019 22:45:00 16.5 C 79 % 12.85 C
2291 16-06-2019 22:50:00 16.3 C 80 % 12.85 C
2292 16-06-2019 22:55:00 16.1 C 81 % 12.84 C
2293 16-06-2019 23:00:00 15.9 C 81 % 12.65 C
2294 16-06-2019 23:05:00 15.8 C 82 % 12.74 C
2295 16-06-2019 23:10:00 15.7 C 82 % 12.64 C
2296 16-06-2019 23:15:00 15.6 C 83 % 12.72 C
2297 16-06-2019 23:20:00 15.4 C 83 % 12.53 C
2298 16-06-2019 23:25:00 15.3 C 83 % 12.43 C
2299 16-06-2019 23:30:00 15.3 C 83 % 12.43 C
2300 16-06-2019 23:35:00 15.2 C 83 % 12.33 C
Sensor: Nr:Datum:Temp:Feuchte:Taupunkt:
Aussen-T/F 2301 16-06-2019 23:40:00 15.1 C 84 % 12.42 C
2302 16-06-2019 23:45:00 15 C 83 % 12.14 C
2303 16-06-2019 23:50:00 15 C 83 % 12.14 C
2304 16-06-2019 23:55:00 14.9 C 83 % 12.04 C
2305 17-06-2019 00:00:00 14.7 C 84 % 12.03 C
2306 17-06-2019 00:05:00 14.6 C 84 % 11.93 C
2307 17-06-2019 00:10:00 14.4 C 85 % 11.91 C
2308 17-06-2019 00:15:00 14.3 C 85 % 11.81 C
2309 17-06-2019 00:20:00 14.2 C 85 % 11.72 C
2310 17-06-2019 00:25:00 14.2 C 86 % 11.89 C
2311 17-06-2019 00:30:00 14.1 C 86 % 11.8 C
2312 17-06-2019 00:35:00 14 C 86 % 11.7 C
2313 17-06-2019 00:40:00 13.9 C 86 % 11.6 C
2314 17-06-2019 00:45:00 13.8 C 87 % 11.68 C
2315 17-06-2019 00:50:00 13.8 C 87 % 11.68 C
2316 17-06-2019 00:55:00 13.7 C 87 % 11.58 C
2317 17-06-2019 01:00:00 13.7 C 87 % 11.58 C
2318 17-06-2019 01:05:00 13.7 C 88 % 11.75 C
2319 17-06-2019 01:10:00 13.6 C 88 % 11.65 C
2320 17-06-2019 01:15:00 13.5 C 88 % 11.55 C
2321 17-06-2019 01:20:00 13.4 C 88 % 11.45 C
2322 17-06-2019 01:25:00 13.4 C 88 % 11.45 C
2323 17-06-2019 01:30:00 13.3 C 88 % 11.36 C
2324 17-06-2019 01:35:00 13.2 C 88 % 11.26 C
2325 17-06-2019 01:40:00 13.1 C 89 % 11.33 C
Sensor: Nr:Datum:Temp:Feuchte:Taupunkt:
Aussen-T/F 2326 17-06-2019 01:45:00 13.1 C 89 % 11.33 C
2327 17-06-2019 01:50:00 12.9 C 89 % 11.13 C
2328 17-06-2019 01:55:00 12.9 C 89 % 11.13 C
2329 17-06-2019 02:00:00 12.8 C 90 % 11.2 C
2330 17-06-2019 02:05:00 12.8 C 90 % 11.2 C
2331 17-06-2019 02:10:00 12.8 C 90 % 11.2 C
2332 17-06-2019 02:15:00 12.8 C 90 % 11.2 C
2333 17-06-2019 02:20:00 12.7 C 90 % 11.1 C
2334 17-06-2019 02:25:00 12.7 C 90 % 11.1 C
2335 17-06-2019 02:30:00 12.7 C 90 % 11.1 C
2336 17-06-2019 02:35:00 12.6 C 91 % 11.17 C
2337 17-06-2019 02:40:00 12.5 C 91 % 11.07 C
2338 17-06-2019 02:45:00 12.4 C 91 % 10.97 C
2339 17-06-2019 02:50:00 12.4 C 91 % 10.97 C
2340 17-06-2019 02:55:00 12.3 C 91 % 10.87 C
2341 17-06-2019 03:00:00 12.3 C 91 % 10.87 C
2342 17-06-2019 03:05:00 12.2 C 91 % 10.78 C
2343 17-06-2019 03:10:00 12.1 C 91 % 10.68 C
2344 17-06-2019 03:15:00 12.1 C 92 % 10.84 C
2345 17-06-2019 03:20:00 12.1 C 92 % 10.84 C
2346 17-06-2019 03:25:00 11.9 C 92 % 10.64 C
2347 17-06-2019 03:30:00 11.9 C 92 % 10.64 C
2348 17-06-2019 03:35:00 11.9 C 92 % 10.64 C
2349 17-06-2019 03:40:00 11.8 C 92 % 10.54 C
2350 17-06-2019 03:45:00 11.8 C 92 % 10.54 C
Sensor: Nr:Datum:Temp:Feuchte:Taupunkt:
Aussen-T/F 2351 17-06-2019 03:50:00 11.7 C 92 % 10.44 C
2352 17-06-2019 03:55:00 11.7 C 93 % 10.61 C
2353 17-06-2019 04:00:00 11.7 C 93 % 10.61 C
2354 17-06-2019 04:05:00 11.6 C 93 % 10.51 C
2355 17-06-2019 04:10:00 11.6 C 93 % 10.51 C
2356 17-06-2019 04:15:00 11.6 C 93 % 10.51 C
2357 17-06-2019 04:20:00 11.5 C 93 % 10.41 C
2358 17-06-2019 04:25:00 11.4 C 93 % 10.31 C
2359 17-06-2019 04:30:00 11.4 C 93 % 10.31 C
2360 17-06-2019 04:35:00 11.3 C 93 % 10.21 C
2361 17-06-2019 04:40:00 11.3 C 93 % 10.21 C
2362 17-06-2019 04:45:00 11.3 C 93 % 10.21 C
2363 17-06-2019 04:50:00 11.3 C 93 % 10.21 C
2364 17-06-2019 04:55:00 11.2 C 93 % 10.11 C
2365 17-06-2019 05:00:00 11.1 C 94 % 10.17 C
2366 17-06-2019 05:05:00 11.1 C 93 % 10.01 C
2367 17-06-2019 05:10:00 11.1 C 94 % 10.17 C
2368 17-06-2019 05:15:00 11.1 C 94 % 10.17 C
2369 17-06-2019 05:20:00 11.1 C 94 % 10.17 C
2370 17-06-2019 05:25:00 11.1 C 94 % 10.17 C
2371 17-06-2019 05:30:00 11.1 C 94 % 10.17 C
2372 17-06-2019 05:35:00 11.1 C 94 % 10.17 C
2373 17-06-2019 05:40:00 11.1 C 94 % 10.17 C
2374 17-06-2019 05:45:00 11.1 C 94 % 10.17 C
2375 17-06-2019 05:50:00 11 C 94 % 10.07 C
Sensor: Nr:Datum:Temp:Feuchte:Taupunkt:
Aussen-T/F 2376 17-06-2019 05:55:00 10.9 C 94 % 9.97 C
2377 17-06-2019 06:00:00 10.9 C 95 % 10.13 C
2378 17-06-2019 06:05:00 11 C 95 % 10.23 C
2379 17-06-2019 06:10:00 11.1 C 95 % 10.33 C
2380 17-06-2019 06:15:00 11.1 C 95 % 10.33 C
2381 17-06-2019 06:20:00 11 C 95 % 10.23 C
2382 17-06-2019 06:25:00 11.1 C 95 % 10.33 C
2383 17-06-2019 06:30:00 11.1 C 95 % 10.33 C
2384 17-06-2019 06:35:00 11.1 C 95 % 10.33 C
2385 17-06-2019 06:40:00 11.1 C 95 % 10.33 C
2386 17-06-2019 06:45:00 11.1 C 95 % 10.33 C
2387 17-06-2019 06:50:00 11.2 C 95 % 10.43 C
2388 17-06-2019 06:55:00 11.2 C 95 % 10.43 C
2389 17-06-2019 07:00:00 11.2 C 95 % 10.43 C
2390 17-06-2019 07:05:00 11.3 C 95 % 10.53 C
2391 17-06-2019 07:10:00 11.3 C 95 % 10.53 C
2392 17-06-2019 07:15:00 11.4 C 95 % 10.63 C
2393 17-06-2019 07:20:00 11.4 C 95 % 10.63 C
2394 17-06-2019 07:25:00 11.6 C 95 % 10.83 C
2395 17-06-2019 07:30:00 11.6 C 95 % 10.83 C
2396 17-06-2019 07:35:00 11.7 C 96 % 11.08 C
2397 17-06-2019 07:40:00 11.7 C 95 % 10.93 C
2398 17-06-2019 07:45:00 11.8 C 95 % 11.03 C
2399 17-06-2019 07:50:00 11.9 C 96 % 11.28 C
2400 17-06-2019 07:55:00 12 C 96 % 11.38 C
Sensor: Nr:Datum:Temp:Feuchte:Taupunkt:
Aussen-T/F 2401 17-06-2019 08:00:00 12.1 C 96 % 11.48 C
2402 17-06-2019 08:05:00 12.2 C 96 % 11.58 C
2403 17-06-2019 08:10:00 12.3 C 96 % 11.68 C
2404 17-06-2019 08:15:00 12.3 C 96 % 11.68 C
2405 17-06-2019 08:20:00 12.4 C 96 % 11.78 C
2406 17-06-2019 08:25:00 12.6 C 96 % 11.98 C
2407 17-06-2019 08:30:00 12.7 C 96 % 12.08 C
2408 17-06-2019 08:35:00 12.8 C 96 % 12.18 C
2409 17-06-2019 08:40:00 12.9 C 96 % 12.28 C
2410 17-06-2019 08:45:00 13.1 C 96 % 12.48 C
2411 17-06-2019 08:50:00 13.2 C 96 % 12.58 C
2412 17-06-2019 08:55:00 13.4 C 96 % 12.78 C
2413 17-06-2019 09:00:00 13.5 C 96 % 12.87 C
2414 17-06-2019 09:05:00 13.7 C 96 % 13.07 C
2415 17-06-2019 09:10:00 13.8 C 96 % 13.17 C
2416 17-06-2019 09:15:00 14 C 96 % 13.37 C
2417 17-06-2019 09:20:00 14.2 C 95 % 13.41 C
2418 17-06-2019 09:25:00 14.3 C 95 % 13.51 C
2419 17-06-2019 09:30:00 14.4 C 95 % 13.61 C
2420 17-06-2019 09:35:00 14.7 C 95 % 13.91 C
2421 17-06-2019 09:40:00 14.9 C 94 % 13.94 C
2422 17-06-2019 09:45:00 15.1 C 94 % 14.14 C
2423 17-06-2019 09:50:00 15.4 C 93 % 14.27 C
2424 17-06-2019 09:55:00 15.6 C 93 % 14.47 C
2425 17-06-2019 10:00:00 15.8 C 93 % 14.67 C
Sensor: Nr:Datum:Temp:Feuchte:Taupunkt:
Aussen-T/F 2426 17-06-2019 10:05:00 16.1 C 92 % 14.8 C
2427 17-06-2019 10:10:00 16.4 C 91 % 14.93 C
2428 17-06-2019 10:15:00 16.9 C 90 % 15.25 C
2429 17-06-2019 10:20:00 17.4 C 87 % 15.21 C
2430 17-06-2019 10:25:00 18.1 C 84 % 15.35 C
2431 17-06-2019 10:30:00 18.9 C 82 % 15.76 C
2432 17-06-2019 10:35:00 19.6 C 79 % 15.86 C
2433 17-06-2019 10:40:00 20.2 C 75 % 15.63 C
2434 17-06-2019 10:45:00 20.9 C 75 % 16.3 C
2435 17-06-2019 10:50:00 21.3 C 70 % 15.61 C
2436 17-06-2019 10:55:00 21.5 C 67 % 15.12 C
2437 17-06-2019 11:00:00 21.7 C 65 % 14.84 C
2438 17-06-2019 11:05:00 21.7 C 65 % 14.84 C
2439 17-06-2019 11:10:00 21.9 C 69 % 15.96 C
2440 17-06-2019 11:15:00 22.1 C 64 % 14.97 C
2441 17-06-2019 11:20:00 22.2 C 63 % 14.82 C
2442 17-06-2019 11:25:00 22.4 C 62 % 14.76 C
2443 17-06-2019 11:30:00 22.4 C 61 % 14.51 C
2444 17-06-2019 11:35:00 22.5 C 64 % 15.35 C
2445 17-06-2019 11:40:00 22.6 C 62 % 14.95 C
2446 17-06-2019 11:45:00 22.7 C 61 % 14.79 C
2447 17-06-2019 11:50:00 22.8 C 60 % 14.63 C
2448 17-06-2019 11:55:00 22.8 C 60 % 14.63 C
2449 17-06-2019 12:00:00 23 C 58 % 14.29 C
2450 17-06-2019 12:05:00 23.2 C 59 % 14.75 C
Sensor: Nr:Datum:Temp:Feuchte:Taupunkt:
Aussen-T/F 2451 17-06-2019 12:10:00 23.3 C 59 % 14.84 C
2452 17-06-2019 12:15:00 23.4 C 59 % 14.93 C
2453 17-06-2019 12:20:00 23.4 C 61 % 15.45 C
2454 17-06-2019 12:25:00 23.5 C 57 % 14.49 C
2455 17-06-2019 12:30:00 23.4 C 57 % 14.4 C
2456 17-06-2019 12:35:00 23.4 C 58 % 14.67 C
2457 17-06-2019 12:40:00 23.6 C 59 % 15.12 C
2458 17-06-2019 12:45:00 23.7 C 57 % 14.68 C
2459 17-06-2019 12:50:00 23.8 C 57 % 14.77 C
2460 17-06-2019 12:55:00 24 C 57 % 14.96 C
2461 17-06-2019 13:00:00 24 C 57 % 14.96 C
2462 17-06-2019 13:05:00 24.1 C 56 % 14.78 C
2463 17-06-2019 13:10:00 24.2 C 55 % 14.59 C
2464 17-06-2019 13:15:00 24.4 C 55 % 14.78 C
2465 17-06-2019 13:20:00 24.5 C 55 % 14.87 C
2466 17-06-2019 13:25:00 24.6 C 54 % 14.68 C
2467 17-06-2019 13:30:00 24.6 C 54 % 14.68 C
2468 17-06-2019 13:35:00 24.6 C 59 % 16.06 C
2469 17-06-2019 13:40:00 24.4 C 56 % 15.06 C
2470 17-06-2019 13:45:00 24.4 C 53 % 14.2 C
2471 17-06-2019 13:50:00 24.7 C 52 % 14.19 C
2472 17-06-2019 13:55:00 25 C 51 % 14.16 C
2473 17-06-2019 14:00:00 25.2 C 54 % 15.23 C
2474 17-06-2019 14:05:00 25.1 C 52 % 14.55 C
2475 17-06-2019 14:10:00 25 C 55 % 15.33 C
Sensor: Nr:Datum:Temp:Feuchte:Taupunkt:
Aussen-T/F 2476 17-06-2019 14:15:00 25.1 C 51 % 14.25 C
2477 17-06-2019 14:20:00 25.2 C 49 % 13.73 C
2478 17-06-2019 14:25:00 25.4 C 50 % 14.22 C
2479 17-06-2019 14:30:00 25.3 C 50 % 14.13 C
2480 17-06-2019 14:35:00 25.2 C 49 % 13.73 C
2481 17-06-2019 14:40:00 25.1 C 49 % 13.64 C
2482 17-06-2019 14:45:00 25 C 49 % 13.55 C
2483 17-06-2019 14:50:00 25.1 C 51 % 14.25 C
2484 17-06-2019 14:55:00 25.2 C 50 % 14.04 C
2485 17-06-2019 15:00:00 25.3 C 49 % 13.82 C
2486 17-06-2019 15:05:00 25.2 C 51 % 14.35 C
2487 17-06-2019 15:10:00 25.1 C 51 % 14.25 C
2488 17-06-2019 15:15:00 25.2 C 50 % 14.04 C
2489 17-06-2019 15:20:00 25.4 C 49 % 13.91 C
2490 17-06-2019 15:25:00 25.4 C 52 % 14.83 C
2491 17-06-2019 15:30:00 25.3 C 48 % 13.5 C
2492 17-06-2019 15:35:00 25.3 C 51 % 14.44 C
2493 17-06-2019 15:40:00 25.2 C 51 % 14.35 C
2494 17-06-2019 15:45:00 25.1 C 57 % 15.98 C
2495 17-06-2019 15:50:00 25.3 C 49 % 13.82 C
2496 17-06-2019 15:55:00 25.4 C 50 % 14.22 C
2497 17-06-2019 16:00:00 25.7 C 48 % 13.87 C
2498 17-06-2019 16:05:00 26.4 C 51 % 15.45 C
2499 17-06-2019 16:10:00 27.2 C 46 % 14.58 C
2500 17-06-2019 16:15:00 27.3 C 44 % 13.98 C
Sensor: Nr:Datum:Temp:Feuchte:Taupunkt:
Aussen-T/F 2501 17-06-2019 16:20:00 27.1 C 42 % 13.09 C
2502 17-06-2019 16:25:00 26.8 C 46 % 14.21 C
2503 17-06-2019 16:30:00 26.5 C 49 % 14.92 C
2504 17-06-2019 16:35:00 26.3 C 58 % 17.38 C
2505 17-06-2019 16:40:00 26.4 C 46 % 13.85 C
2506 17-06-2019 16:45:00 26.6 C 59 % 17.93 C
2507 17-06-2019 16:50:00 27 C 59 % 18.3 C
2508 17-06-2019 16:55:00 27.3 C 48 % 15.33 C
2509 17-06-2019 17:00:00 27.6 C 54 % 17.45 C
2510 17-06-2019 17:05:00 27.9 C 46 % 15.21 C
2511 17-06-2019 17:10:00 28.2 C 42 % 14.07 C
2512 17-06-2019 17:15:00 28.4 C 42 % 14.25 C
2513 17-06-2019 17:20:00 28.8 C 44 % 15.33 C
2514 17-06-2019 17:25:00 29.1 C 39 % 13.73 C
2515 17-06-2019 17:30:00 29.1 C 38 % 13.34 C
2516 17-06-2019 17:35:00 28.9 C 40 % 13.95 C
2517 17-06-2019 17:40:00 28.9 C 40 % 13.95 C
2518 17-06-2019 17:45:00 28.6 C 39 % 13.29 C
2519 17-06-2019 17:50:00 28.1 C 40 % 13.23 C
2520 17-06-2019 17:55:00 27.6 C 42 % 13.53 C
2521 17-06-2019 18:00:00 27.1 C 43 % 13.45 C
2522 17-06-2019 18:05:00 26.8 C 45 % 13.87 C
2523 17-06-2019 18:10:00 26.5 C 55 % 16.72 C
2524 17-06-2019 18:15:00 26.4 C 57 % 17.19 C
2525 17-06-2019 18:20:00 26.8 C 48 % 14.87 C
Sensor: Nr:Datum:Temp:Feuchte:Taupunkt:
Aussen-T/F 2526 17-06-2019 18:25:00 27.4 C 51 % 16.37 C
2527 17-06-2019 18:30:00 28 C 43 % 14.26 C
2528 17-06-2019 18:35:00 28.6 C 50 % 17.16 C
2529 17-06-2019 18:40:00 29.1 C 45 % 15.95 C
2530 17-06-2019 18:45:00 29.3 C 40 % 14.3 C
2531 17-06-2019 18:50:00 29.5 C 39 % 14.09 C
2532 17-06-2019 18:55:00 29.4 C 40 % 14.39 C
2533 17-06-2019 19:00:00 29.5 C 41 % 14.86 C
2534 17-06-2019 19:05:00 29.4 C 39 % 14 C
2535 17-06-2019 19:10:00 28.9 C 39 % 13.56 C
2536 17-06-2019 19:15:00 28.6 C 39 % 13.29 C
2537 17-06-2019 19:20:00 28.2 C 40 % 13.32 C
2538 17-06-2019 19:25:00 27.8 C 47 % 15.45 C
2539 17-06-2019 19:30:00 27.4 C 52 % 16.67 C
2540 17-06-2019 19:35:00 27.1 C 53 % 16.7 C
2541 17-06-2019 19:40:00 26.7 C 55 % 16.91 C
2542 17-06-2019 19:45:00 26.4 C 55 % 16.63 C
2543 17-06-2019 19:50:00 26.1 C 56 % 16.64 C
2544 17-06-2019 19:55:00 25.6 C 55 % 15.89 C
2545 17-06-2019 20:00:00 25.1 C 57 % 15.98 C
2546 17-06-2019 20:05:00 24.7 C 58 % 15.88 C
2547 17-06-2019 20:10:00 24.4 C 58 % 15.6 C
2548 17-06-2019 20:15:00 24.2 C 60 % 15.95 C
2549 17-06-2019 20:20:00 24.1 C 61 % 16.11 C
2550 17-06-2019 20:25:00 23.8 C 61 % 15.83 C
Sensor: Nr:Datum:Temp:Feuchte:Taupunkt:
Aussen-T/F 2551 17-06-2019 20:30:00 23.6 C 61 % 15.64 C
2552 17-06-2019 20:35:00 23.2 C 63 % 15.77 C
2553 17-06-2019 20:40:00 22.9 C 63 % 15.48 C
2554 17-06-2019 20:45:00 22.6 C 63 % 15.2 C
2555 17-06-2019 20:50:00 22.3 C 64 % 15.16 C
2556 17-06-2019 20:55:00 22.1 C 65 % 15.21 C
2557 17-06-2019 21:00:00 21.8 C 66 % 15.17 C
2558 17-06-2019 21:05:00 21.6 C 67 % 15.21 C
2559 17-06-2019 21:10:00 21.3 C 66 % 14.69 C
2560 17-06-2019 21:15:00 21.2 C 67 % 14.83 C
2561 17-06-2019 21:20:00 21 C 67 % 14.64 C
2562 17-06-2019 21:25:00 20.8 C 68 % 14.68 C
2563 17-06-2019 21:30:00 20.7 C 68 % 14.58 C
2564 17-06-2019 21:35:00 20.5 C 69 % 14.62 C
2565 17-06-2019 21:40:00 20.3 C 69 % 14.43 C
2566 17-06-2019 21:45:00 20.2 C 70 % 14.56 C
2567 17-06-2019 21:50:00 20.1 C 70 % 14.46 C
2568 17-06-2019 21:55:00 19.9 C 70 % 14.27 C
2569 17-06-2019 22:00:00 19.8 C 72 % 14.61 C
2570 17-06-2019 22:05:00 19.7 C 73 % 14.73 C
2571 17-06-2019 22:10:00 19.3 C 73 % 14.34 C
2572 17-06-2019 22:15:00 19.1 C 74 % 14.36 C
2573 17-06-2019 22:20:00 18.9 C 74 % 14.17 C
2574 17-06-2019 22:25:00 18.7 C 75 % 14.18 C
2575 17-06-2019 22:30:00 18.6 C 76 % 14.29 C
Sensor: Nr:Datum:Temp:Feuchte:Taupunkt:
Aussen-T/F 2576 17-06-2019 22:35:00 18.4 C 76 % 14.1 C
2577 17-06-2019 22:40:00 18.3 C 77 % 14.2 C
2578 17-06-2019 22:45:00 18.2 C 77 % 14.1 C
2579 17-06-2019 22:50:00 18 C 78 % 14.11 C
2580 17-06-2019 22:55:00 17.8 C 78 % 13.91 C
2581 17-06-2019 23:00:00 17.7 C 79 % 14.01 C
2582 17-06-2019 23:05:00 17.5 C 79 % 13.82 C
2583 17-06-2019 23:10:00 17.4 C 79 % 13.72 C
2584 17-06-2019 23:15:00 17.3 C 80 % 13.82 C
2585 17-06-2019 23:20:00 17.2 C 81 % 13.91 C
2586 17-06-2019 23:25:00 17.1 C 81 % 13.82 C
2587 17-06-2019 23:30:00 17 C 81 % 13.72 C
2588 17-06-2019 23:35:00 16.9 C 82 % 13.81 C
2589 17-06-2019 23:40:00 16.8 C 82 % 13.71 C
2590 17-06-2019 23:45:00 16.7 C 82 % 13.61 C
2591 17-06-2019 23:50:00 16.6 C 82 % 13.52 C
2592 17-06-2019 23:55:00 16.6 C 82 % 13.52 C
2593 18-06-2019 00:00:00 16.4 C 83 % 13.51 C
2594 18-06-2019 00:05:00 16.3 C 83 % 13.41 C
2595 18-06-2019 00:10:00 16.2 C 83 % 13.31 C
2596 18-06-2019 00:15:00 16.1 C 84 % 13.4 C
2597 18-06-2019 00:20:00 16 C 84 % 13.3 C
2598 18-06-2019 00:25:00 15.9 C 85 % 13.38 C
2599 18-06-2019 00:30:00 15.8 C 85 % 13.28 C
2600 18-06-2019 00:35:00 15.7 C 85 % 13.19 C
Sensor: Nr:Datum:Temp:Feuchte:Taupunkt:
Aussen-T/F 2601 18-06-2019 00:40:00 15.6 C 85 % 13.09 C
2602 18-06-2019 00:45:00 15.6 C 85 % 13.09 C
2603 18-06-2019 00:50:00 15.4 C 86 % 13.07 C
2604 18-06-2019 00:55:00 15.4 C 86 % 13.07 C
2605 18-06-2019 01:00:00 15.3 C 86 % 12.97 C
2606 18-06-2019 01:05:00 15.3 C 86 % 12.97 C
2607 18-06-2019 01:10:00 15.3 C 87 % 13.15 C
2608 18-06-2019 01:15:00 15.2 C 87 % 13.05 C
2609 18-06-2019 01:20:00 15.2 C 87 % 13.05 C
2610 18-06-2019 01:25:00 15.2 C 87 % 13.05 C
2611 18-06-2019 01:30:00 15.1 C 87 % 12.95 C
2612 18-06-2019 01:35:00 15.1 C 87 % 12.95 C
2613 18-06-2019 01:40:00 14.9 C 88 % 12.93 C
2614 18-06-2019 01:45:00 14.9 C 88 % 12.93 C
2615 18-06-2019 01:50:00 14.8 C 88 % 12.83 C
2616 18-06-2019 01:55:00 14.8 C 89 % 13.01 C
2617 18-06-2019 02:00:00 14.8 C 89 % 13.01 C
2618 18-06-2019 02:05:00 14.8 C 88 % 12.83 C
2619 18-06-2019 02:10:00 14.7 C 88 % 12.73 C
2620 18-06-2019 02:15:00 14.6 C 89 % 12.81 C
2621 18-06-2019 02:20:00 14.6 C 89 % 12.81 C
2622 18-06-2019 02:25:00 14.4 C 89 % 12.61 C
2623 18-06-2019 02:30:00 14.3 C 89 % 12.51 C
2624 18-06-2019 02:35:00 14.3 C 89 % 12.51 C
2625 18-06-2019 02:40:00 14.3 C 90 % 12.68 C
Sensor: Nr:Datum:Temp:Feuchte:Taupunkt:
Aussen-T/F 2626 18-06-2019 02:45:00 14.2 C 90 % 12.58 C
2627 18-06-2019 02:50:00 14.1 C 90 % 12.49 C
2628 18-06-2019 02:55:00 14.1 C 90 % 12.49 C
2629 18-06-2019 03:00:00 14 C 90 % 12.39 C
2630 18-06-2019 03:05:00 13.9 C 91 % 12.46 C
2631 18-06-2019 03:10:00 13.9 C 90 % 12.29 C
2632 18-06-2019 03:15:00 13.8 C 91 % 12.36 C
2633 18-06-2019 03:20:00 13.8 C 91 % 12.36 C
2634 18-06-2019 03:25:00 13.7 C 91 % 12.26 C
2635 18-06-2019 03:30:00 13.7 C 92 % 12.42 C
2636 18-06-2019 03:35:00 13.7 C 92 % 12.42 C
2637 18-06-2019 03:40:00 13.7 C 92 % 12.42 C
2638 18-06-2019 03:45:00 13.8 C 92 % 12.52 C
2639 18-06-2019 03:50:00 13.8 C 92 % 12.52 C
2640 18-06-2019 03:55:00 13.8 C 92 % 12.52 C
2641 18-06-2019 04:00:00 13.8 C 92 % 12.52 C
2642 18-06-2019 04:05:00 13.8 C 92 % 12.52 C
2643 18-06-2019 04:10:00 13.8 C 92 % 12.52 C
2644 18-06-2019 04:15:00 13.8 C 92 % 12.52 C
2645 18-06-2019 04:20:00 13.8 C 92 % 12.52 C
2646 18-06-2019 04:25:00 13.8 C 92 % 12.52 C
2647 18-06-2019 04:30:00 13.8 C 93 % 12.69 C
2648 18-06-2019 04:35:00 13.8 C 92 % 12.52 C
2649 18-06-2019 04:40:00 13.8 C 92 % 12.52 C
2650 18-06-2019 04:45:00 13.8 C 92 % 12.52 C
Sensor: Nr:Datum:Temp:Feuchte:Taupunkt:
Aussen-T/F 2651 18-06-2019 04:50:00 13.8 C 93 % 12.69 C
2652 18-06-2019 04:55:00 13.8 C 93 % 12.69 C
2653 18-06-2019 05:00:00 13.8 C 92 % 12.52 C
2654 18-06-2019 05:05:00 13.8 C 93 % 12.69 C
2655 18-06-2019 05:10:00 13.8 C 93 % 12.69 C
2656 18-06-2019 05:15:00 13.8 C 93 % 12.69 C
2657 18-06-2019 05:20:00 13.8 C 92 % 12.52 C
2658 18-06-2019 05:25:00 13.7 C 92 % 12.42 C
2659 18-06-2019 05:30:00 13.6 C 92 % 12.33 C
2660 18-06-2019 05:35:00 13.6 C 92 % 12.33 C
2661 18-06-2019 05:40:00 13.5 C 92 % 12.23 C
2662 18-06-2019 05:45:00 13.4 C 92 % 12.13 C
2663 18-06-2019 05:50:00 13.4 C 93 % 12.29 C
2664 18-06-2019 05:55:00 13.3 C 93 % 12.19 C
2665 18-06-2019 06:00:00 13.3 C 93 % 12.19 C
2666 18-06-2019 06:05:00 13.3 C 93 % 12.19 C
2667 18-06-2019 06:10:00 13.3 C 93 % 12.19 C
2668 18-06-2019 06:15:00 13.3 C 94 % 12.36 C
2669 18-06-2019 06:20:00 13.4 C 94 % 12.45 C
2670 18-06-2019 06:25:00 13.6 C 94 % 12.65 C
2671 18-06-2019 06:30:00 13.7 C 94 % 12.75 C
2672 18-06-2019 06:35:00 13.8 C 94 % 12.85 C
2673 18-06-2019 06:40:00 13.9 C 94 % 12.95 C
2674 18-06-2019 06:45:00 14 C 94 % 13.05 C
2675 18-06-2019 06:50:00 14.1 C 94 % 13.15 C
Sensor: Nr:Datum:Temp:Feuchte:Taupunkt:
Aussen-T/F 2676 18-06-2019 06:55:00 14.1 C 94 % 13.15 C
2677 18-06-2019 07:00:00 14.2 C 94 % 13.25 C
2678 18-06-2019 07:05:00 14.3 C 94 % 13.35 C
2679 18-06-2019 07:10:00 14.3 C 93 % 13.18 C
2680 18-06-2019 07:15:00 14.5 C 94 % 13.55 C
2681 18-06-2019 07:20:00 14.6 C 93 % 13.48 C
2682 18-06-2019 07:25:00 14.7 C 92 % 13.41 C
2683 18-06-2019 07:30:00 14.8 C 92 % 13.51 C
2684 18-06-2019 07:35:00 14.9 C 91 % 13.44 C
2685 18-06-2019 07:40:00 15 C 91 % 13.54 C
2686 18-06-2019 07:45:00 15.1 C 91 % 13.64 C
2687 18-06-2019 07:50:00 15.3 C 91 % 13.84 C
2688 18-06-2019 07:55:00 15.3 C 90 % 13.67 C
2689 18-06-2019 08:00:00 15.4 C 89 % 13.6 C
2690 18-06-2019 08:05:00 15.6 C 89 % 13.79 C
2691 18-06-2019 08:10:00 15.7 C 90 % 14.06 C
2692 18-06-2019 08:15:00 15.8 C 90 % 14.16 C
2693 18-06-2019 08:20:00 15.9 C 90 % 14.26 C
2694 18-06-2019 08:25:00 16.1 C 91 % 14.63 C
2695 18-06-2019 08:30:00 16.1 C 90 % 14.46 C
2696 18-06-2019 08:35:00 16.2 C 90 % 14.56 C
2697 18-06-2019 08:40:00 16.2 C 90 % 14.56 C
2698 18-06-2019 08:45:00 16.3 C 91 % 14.83 C
2699 18-06-2019 08:50:00 16.4 C 90 % 14.76 C
2700 18-06-2019 08:55:00 16.5 C 90 % 14.85 C
Sensor: Nr:Datum:Temp:Feuchte:Taupunkt:
Aussen-T/F 2701 18-06-2019 09:00:00 16.6 C 90 % 14.95 C
2702 18-06-2019 09:05:00 16.7 C 91 % 15.22 C
2703 18-06-2019 09:10:00 16.8 C 90 % 15.15 C
2704 18-06-2019 09:15:00 17 C 90 % 15.35 C
2705 18-06-2019 09:20:00 17.2 C 89 % 15.37 C
2706 18-06-2019 09:25:00 17.4 C 89 % 15.57 C
2707 18-06-2019 09:30:00 17.8 C 88 % 15.79 C
2708 18-06-2019 09:35:00 18.1 C 87 % 15.9 C
2709 18-06-2019 09:40:00 18.2 C 87 % 16 C
2710 18-06-2019 09:45:00 18.4 C 86 % 16.02 C
2711 18-06-2019 09:50:00 18.7 C 86 % 16.31 C
2712 18-06-2019 09:55:00 18.9 C 86 % 16.51 C
2713 18-06-2019 10:00:00 19.1 C 86 % 16.7 C
2714 18-06-2019 10:05:00 19.2 C 86 % 16.8 C
2715 18-06-2019 10:10:00 19.3 C 86 % 16.9 C
2716 18-06-2019 10:15:00 19.6 C 85 % 17.01 C
2717 18-06-2019 10:20:00 19.9 C 85 % 17.3 C
2718 18-06-2019 10:25:00 20.3 C 84 % 17.51 C
2719 18-06-2019 10:30:00 20.9 C 82 % 17.71 C
2720 18-06-2019 10:35:00 21.4 C 82 % 18.2 C
2721 18-06-2019 10:40:00 21.8 C 79 % 18 C
2722 18-06-2019 10:45:00 22.4 C 79 % 18.58 C
2723 18-06-2019 10:50:00 22.8 C 78 % 18.76 C
2724 18-06-2019 10:55:00 23 C 76 % 18.54 C
2725 18-06-2019 11:00:00 23.1 C 74 % 18.21 C
Sensor: Nr:Datum:Temp:Feuchte:Taupunkt:
Aussen-T/F 2726 18-06-2019 11:05:00 23.1 C 73 % 17.99 C
2727 18-06-2019 11:10:00 23.3 C 72 % 17.97 C
2728 18-06-2019 11:15:00 23.7 C 70 % 17.9 C
2729 18-06-2019 11:20:00 24.1 C 67 % 17.59 C
2730 18-06-2019 11:25:00 24.3 C 66 % 17.54 C
2731 18-06-2019 11:30:00 24.6 C 71 % 18.99 C
2732 18-06-2019 11:35:00 24.6 C 70 % 18.76 C
2733 18-06-2019 11:40:00 24.7 C 65 % 17.68 C
2734 18-06-2019 11:45:00 24.9 C 64 % 17.62 C
2735 18-06-2019 11:50:00 25.2 C 63 % 17.65 C
2736 18-06-2019 11:55:00 25.6 C 59 % 16.99 C
2737 18-06-2019 12:00:00 25.9 C 58 % 17 C
2738 18-06-2019 12:05:00 26.3 C 62 % 18.44 C
2739 18-06-2019 12:10:00 26.4 C 65 % 19.29 C
2740 18-06-2019 12:15:00 26.4 C 61 % 18.27 C
2741 18-06-2019 12:20:00 26.4 C 56 % 16.92 C
2742 18-06-2019 12:25:00 26.4 C 61 % 18.27 C
2743 18-06-2019 12:30:00 26.5 C 56 % 17.01 C
2744 18-06-2019 12:35:00 26.8 C 47 % 14.55 C
2745 18-06-2019 12:40:00 27.2 C 45 % 14.24 C
2746 18-06-2019 12:45:00 27.5 C 46 % 14.85 C
2747 18-06-2019 12:50:00 27.8 C 46 % 15.12 C
2748 18-06-2019 12:55:00 27.8 C 44 % 14.43 C
2749 18-06-2019 13:00:00 27.9 C 46 % 15.21 C
2750 18-06-2019 13:05:00 28 C 45 % 14.96 C
Sensor: Nr:Datum:Temp:Feuchte:Taupunkt:
Aussen-T/F 2751 18-06-2019 13:10:00 28.1 C 48 % 16.06 C
2752 18-06-2019 13:15:00 28.2 C 50 % 16.79 C
2753 18-06-2019 13:20:00 28.1 C 45 % 15.05 C
2754 18-06-2019 13:25:00 28.1 C 51 % 17.01 C
2755 18-06-2019 13:30:00 28.1 C 51 % 17.01 C
2756 18-06-2019 13:35:00 28 C 47 % 15.64 C
2757 18-06-2019 13:40:00 28 C 46 % 15.3 C
2758 18-06-2019 13:45:00 28.2 C 46 % 15.48 C
2759 18-06-2019 13:50:00 28.3 C 45 % 15.23 C
2760 18-06-2019 13:55:00 28.5 C 44 % 15.06 C
2761 18-06-2019 14:00:00 28.6 C 44 % 15.15 C
2762 18-06-2019 14:05:00 28.6 C 46 % 15.85 C
2763 18-06-2019 14:10:00 28.6 C 47 % 16.18 C
2764 18-06-2019 14:15:00 28.6 C 45 % 15.5 C
2765 18-06-2019 14:20:00 28.6 C 45 % 15.5 C
2766 18-06-2019 14:25:00 28.7 C 47 % 16.27 C
2767 18-06-2019 14:30:00 28.8 C 44 % 15.33 C
2768 18-06-2019 14:35:00 28.9 C 46 % 16.12 C
2769 18-06-2019 14:40:00 28.9 C 45 % 15.77 C
2770 18-06-2019 14:45:00 29.1 C 44 % 15.6 C
2771 18-06-2019 14:50:00 29.2 C 43 % 15.33 C
2772 18-06-2019 14:55:00 29.3 C 48 % 17.15 C
2773 18-06-2019 15:00:00 29.4 C 44 % 15.87 C
2774 18-06-2019 15:05:00 29.4 C 47 % 16.91 C
2775 18-06-2019 15:10:00 29.6 C 43 % 15.69 C
Sensor: Nr:Datum:Temp:Feuchte:Taupunkt:
Aussen-T/F 2776 18-06-2019 15:15:00 29.7 C 42 % 15.42 C
2777 18-06-2019 15:20:00 29.7 C 45 % 16.5 C
2778 18-06-2019 15:25:00 29.9 C 46 % 17.02 C
2779 18-06-2019 15:30:00 30.1 C 44 % 16.5 C
2780 18-06-2019 15:35:00 30.3 C 42 % 15.95 C
2781 18-06-2019 15:40:00 30.3 C 43 % 16.32 C
2782 18-06-2019 15:45:00 30.1 C 42 % 15.77 C
2783 18-06-2019 15:50:00 29.8 C 42 % 15.51 C
2784 18-06-2019 15:55:00 29.6 C 42 % 15.33 C
2785 18-06-2019 16:00:00 29.3 C 45 % 16.13 C
2786 18-06-2019 16:05:00 29.2 C 43 % 15.33 C
2787 18-06-2019 16:10:00 29.1 C 47 % 16.64 C
2788 18-06-2019 16:15:00 29.1 C 52 % 18.24 C
2789 18-06-2019 16:20:00 29.2 C 46 % 16.39 C
2790 18-06-2019 16:25:00 29.4 C 48 % 17.24 C
2791 18-06-2019 16:30:00 29.6 C 49 % 17.75 C
2792 18-06-2019 16:35:00 29.8 C 44 % 16.23 C
2793 18-06-2019 16:40:00 30.1 C 43 % 16.14 C
2794 18-06-2019 16:45:00 30.2 C 51 % 18.94 C
2795 18-06-2019 16:50:00 30.1 C 43 % 16.14 C
2796 18-06-2019 16:55:00 29.8 C 42 % 15.51 C
2797 18-06-2019 17:00:00 29.7 C 55 % 19.69 C
2798 18-06-2019 17:05:00 29.5 C 56 % 19.79 C
2799 18-06-2019 17:10:00 29.4 C 51 % 18.2 C
2800 18-06-2019 17:15:00 29.4 C 54 % 19.12 C
Sensor: Nr:Datum:Temp:Feuchte:Taupunkt:
Aussen-T/F 2801 18-06-2019 17:20:00 29.6 C 57 % 20.17 C
2802 18-06-2019 17:25:00 29.6 C 50 % 18.07 C
2803 18-06-2019 17:30:00 29.6 C 54 % 19.3 C
2804 18-06-2019 17:35:00 29.6 C 59 % 20.73 C
2805 18-06-2019 17:40:00 29.4 C 54 % 19.12 C
2806 18-06-2019 17:45:00 29.4 C 61 % 21.09 C
2807 18-06-2019 17:50:00 29.3 C 62 % 21.26 C
2808 18-06-2019 17:55:00 29.3 C 64 % 21.78 C
2809 18-06-2019 18:00:00 29.2 C 60 % 20.63 C
2810 18-06-2019 18:05:00 29.2 C 63 % 21.43 C
2811 18-06-2019 18:10:00 29.1 C 50 % 17.61 C
2812 18-06-2019 18:15:00 29.3 C 57 % 19.89 C
2813 18-06-2019 18:20:00 29.4 C 55 % 19.41 C
2814 18-06-2019 18:25:00 29.6 C 59 % 20.73 C
2815 18-06-2019 18:30:00 29.7 C 58 % 20.55 C
2816 18-06-2019 18:35:00 29.8 C 49 % 17.93 C
2817 18-06-2019 18:40:00 30.2 C 55 % 20.15 C
2818 18-06-2019 18:45:00 30.5 C 53 % 19.83 C
2819 18-06-2019 18:50:00 30.4 C 48 % 18.15 C
2820 18-06-2019 18:55:00 30.3 C 55 % 20.25 C
2821 18-06-2019 19:00:00 29.9 C 56 % 20.17 C
2822 18-06-2019 19:05:00 29.6 C 58 % 20.46 C
2823 18-06-2019 19:10:00 29.2 C 58 % 20.08 C
2824 18-06-2019 19:15:00 28.8 C 59 % 19.99 C
2825 18-06-2019 19:20:00 28.4 C 60 % 19.88 C
Sensor: Nr:Datum:Temp:Feuchte:Taupunkt:
Aussen-T/F 2826 18-06-2019 19:25:00 28 C 60 % 19.51 C
2827 18-06-2019 19:30:00 27.7 C 61 % 19.49 C
2828 18-06-2019 19:35:00 27.3 C 61 % 19.12 C
2829 18-06-2019 19:40:00 26.9 C 62 % 19 C
2830 18-06-2019 19:45:00 26.7 C 63 % 19.07 C
2831 18-06-2019 19:50:00 26.5 C 64 % 19.13 C
2832 18-06-2019 19:55:00 26.4 C 65 % 19.29 C
2833 18-06-2019 20:00:00 26.3 C 64 % 18.94 C
2834 18-06-2019 20:05:00 26.3 C 65 % 19.19 C
2835 18-06-2019 20:10:00 26.3 C 64 % 18.94 C
2836 18-06-2019 20:15:00 26.2 C 64 % 18.85 C
2837 18-06-2019 20:20:00 26.1 C 64 % 18.76 C
2838 18-06-2019 20:25:00 26.1 C 64 % 18.76 C
2839 18-06-2019 20:30:00 26.2 C 64 % 18.85 C
2840 18-06-2019 20:35:00 26.2 C 63 % 18.6 C
2841 18-06-2019 20:40:00 26.1 C 63 % 18.5 C
2842 18-06-2019 20:45:00 25.8 C 63 % 18.22 C
2843 18-06-2019 20:50:00 25.6 C 63 % 18.03 C
2844 18-06-2019 20:55:00 25.2 C 64 % 17.9 C
2845 18-06-2019 21:00:00 24.9 C 65 % 17.87 C
2846 18-06-2019 21:05:00 24.7 C 66 % 17.92 C
2847 18-06-2019 21:10:00 24.4 C 67 % 17.87 C
2848 18-06-2019 21:15:00 24.3 C 67 % 17.78 C
2849 18-06-2019 21:20:00 24.1 C 67 % 17.59 C
2850 18-06-2019 21:25:00 23.8 C 68 % 17.54 C
Sensor: Nr:Datum:Temp:Feuchte:Taupunkt:
Aussen-T/F 2851 18-06-2019 21:30:00 23.6 C 69 % 17.58 C
2852 18-06-2019 21:35:00 23.3 C 69 % 17.29 C
2853 18-06-2019 21:40:00 23.2 C 69 % 17.2 C
2854 18-06-2019 21:45:00 23 C 70 % 17.23 C
2855 18-06-2019 21:50:00 22.8 C 70 % 17.04 C
2856 18-06-2019 21:55:00 22.7 C 70 % 16.95 C
2857 18-06-2019 22:00:00 22.5 C 71 % 16.98 C
2858 18-06-2019 22:05:00 22.3 C 72 % 17.01 C
2859 18-06-2019 22:10:00 22.1 C 72 % 16.82 C
2860 18-06-2019 22:15:00 21.9 C 73 % 16.84 C
2861 18-06-2019 22:20:00 21.7 C 74 % 16.86 C
2862 18-06-2019 22:25:00 21.5 C 75 % 16.88 C
2863 18-06-2019 22:30:00 21.3 C 75 % 16.69 C
2864 18-06-2019 22:35:00 21.1 C 76 % 16.7 C
2865 18-06-2019 22:40:00 20.9 C 76 % 16.51 C
2866 18-06-2019 22:45:00 20.8 C 77 % 16.62 C
2867 18-06-2019 22:50:00 20.7 C 77 % 16.52 C
2868 18-06-2019 22:55:00 20.6 C 77 % 16.43 C
2869 18-06-2019 23:00:00 20.6 C 77 % 16.43 C
2870 18-06-2019 23:05:00 20.4 C 78 % 16.44 C
2871 18-06-2019 23:10:00 20.3 C 78 % 16.34 C
2872 18-06-2019 23:15:00 20.2 C 79 % 16.44 C
2873 18-06-2019 23:20:00 20 C 79 % 16.25 C
2874 18-06-2019 23:25:00 19.8 C 79 % 16.05 C
2875 18-06-2019 23:30:00 19.7 C 80 % 16.15 C
Sensor: Nr:Datum:Temp:Feuchte:Taupunkt:
Aussen-T/F 2876 18-06-2019 23:35:00 19.6 C 80 % 16.06 C
2877 18-06-2019 23:40:00 19.5 C 81 % 16.15 C
2878 18-06-2019 23:45:00 19.4 C 81 % 16.06 C
2879 18-06-2019 23:50:00 19.3 C 81 % 15.96 C
2880 18-06-2019 23:55:00 19.2 C 82 % 16.05 C
2881 19-06-2019 00:00:00 19.1 C 82 % 15.96 C
2882 19-06-2019 00:05:00 18.9 C 82 % 15.76 C
2883 19-06-2019 00:10:00 18.8 C 83 % 15.85 C
2884 19-06-2019 00:15:00 18.8 C 83 % 15.85 C
2885 19-06-2019 00:20:00 18.6 C 83 % 15.66 C
2886 19-06-2019 00:25:00 18.6 C 83 % 15.66 C
2887 19-06-2019 00:30:00 18.4 C 84 % 15.65 C
2888 19-06-2019 00:35:00 18.3 C 84 % 15.55 C
2889 19-06-2019 00:40:00 18.2 C 84 % 15.45 C
2890 19-06-2019 00:45:00 18.1 C 85 % 15.54 C
2891 19-06-2019 00:50:00 18.1 C 85 % 15.54 C
2892 19-06-2019 00:55:00 17.9 C 85 % 15.34 C
2893 19-06-2019 01:00:00 17.9 C 86 % 15.53 C
2894 19-06-2019 01:05:00 17.8 C 86 % 15.43 C
2895 19-06-2019 01:10:00 17.8 C 86 % 15.43 C
2896 19-06-2019 01:15:00 17.7 C 86 % 15.33 C
2897 19-06-2019 01:20:00 17.7 C 86 % 15.33 C
2898 19-06-2019 01:25:00 17.6 C 87 % 15.41 C
2899 19-06-2019 01:30:00 17.6 C 87 % 15.41 C
2900 19-06-2019 01:35:00 17.5 C 87 % 15.31 C
Sensor: Nr:Datum:Temp:Feuchte:Taupunkt:
Aussen-T/F 2901 19-06-2019 01:40:00 17.5 C 87 % 15.31 C
2902 19-06-2019 01:45:00 17.5 C 87 % 15.31 C
2903 19-06-2019 01:50:00 17.4 C 87 % 15.21 C
2904 19-06-2019 01:55:00 17.4 C 87 % 15.21 C
2905 19-06-2019 02:00:00 17.4 C 88 % 15.39 C
2906 19-06-2019 02:05:00 17.4 C 88 % 15.39 C
2907 19-06-2019 02:10:00 17.5 C 88 % 15.49 C
2908 19-06-2019 02:15:00 17.5 C 88 % 15.49 C
2909 19-06-2019 02:20:00 17.5 C 88 % 15.49 C
2910 19-06-2019 02:25:00 17.4 C 88 % 15.39 C
2911 19-06-2019 02:30:00 17.5 C 88 % 15.49 C
2912 19-06-2019 02:35:00 17.4 C 88 % 15.39 C
2913 19-06-2019 02:40:00 17.4 C 89 % 15.57 C
2914 19-06-2019 02:45:00 17.3 C 89 % 15.47 C
2915 19-06-2019 02:50:00 17.2 C 89 % 15.37 C
2916 19-06-2019 02:55:00 17.2 C 89 % 15.37 C
2917 19-06-2019 03:00:00 17.1 C 89 % 15.27 C
2918 19-06-2019 03:05:00 16.9 C 89 % 15.08 C
2919 19-06-2019 03:10:00 16.8 C 89 % 14.98 C
2920 19-06-2019 03:15:00 16.7 C 89 % 14.88 C
2921 19-06-2019 03:20:00 16.6 C 89 % 14.78 C
2922 19-06-2019 03:25:00 16.5 C 89 % 14.68 C
2923 19-06-2019 03:30:00 16.4 C 90 % 14.76 C
2924 19-06-2019 03:35:00 16.3 C 90 % 14.66 C
2925 19-06-2019 03:40:00 16.3 C 91 % 14.83 C
Sensor: Nr:Datum:Temp:Feuchte:Taupunkt:
Aussen-T/F 2926 19-06-2019 03:45:00 16.3 C 91 % 14.83 C
2927 19-06-2019 03:50:00 16.3 C 91 % 14.83 C
2928 19-06-2019 03:55:00 16.2 C 91 % 14.73 C
2929 19-06-2019 04:00:00 16.2 C 91 % 14.73 C
2930 19-06-2019 04:05:00 16.1 C 91 % 14.63 C
2931 19-06-2019 04:10:00 16.1 C 91 % 14.63 C
2932 19-06-2019 04:15:00 16 C 91 % 14.53 C
2933 19-06-2019 04:20:00 15.9 C 91 % 14.43 C
2934 19-06-2019 04:25:00 15.8 C 91 % 14.33 C
2935 19-06-2019 04:30:00 15.7 C 91 % 14.24 C
2936 19-06-2019 04:35:00 15.7 C 91 % 14.24 C
2937 19-06-2019 04:40:00 15.6 C 91 % 14.14 C
2938 19-06-2019 04:45:00 15.5 C 91 % 14.04 C
2939 19-06-2019 04:50:00 15.4 C 91 % 13.94 C
2940 19-06-2019 04:55:00 15.3 C 91 % 13.84 C
2941 19-06-2019 05:00:00 15.3 C 92 % 14.01 C
2942 19-06-2019 05:05:00 15.2 C 92 % 13.91 C
2943 19-06-2019 05:10:00 15.1 C 92 % 13.81 C
2944 19-06-2019 05:15:00 15.2 C 93 % 14.08 C
2945 19-06-2019 05:20:00 15.3 C 93 % 14.18 C
2946 19-06-2019 05:25:00 15.2 C 93 % 14.08 C
2947 19-06-2019 05:30:00 15.2 C 93 % 14.08 C
2948 19-06-2019 05:35:00 15.3 C 94 % 14.34 C
2949 19-06-2019 05:40:00 15.3 C 93 % 14.18 C
2950 19-06-2019 05:45:00 15.2 C 93 % 14.08 C
Sensor: Nr:Datum:Temp:Feuchte:Taupunkt:
Aussen-T/F 2951 19-06-2019 05:50:00 15 C 93 % 13.88 C
2952 19-06-2019 05:55:00 15 C 93 % 13.88 C
2953 19-06-2019 06:00:00 15 C 93 % 13.88 C
2954 19-06-2019 06:05:00 14.9 C 93 % 13.78 C
2955 19-06-2019 06:10:00 14.9 C 93 % 13.78 C
2956 19-06-2019 06:15:00 14.9 C 93 % 13.78 C
2957 19-06-2019 06:20:00 14.9 C 94 % 13.94 C
2958 19-06-2019 06:25:00 14.9 C 94 % 13.94 C
2959 19-06-2019 06:30:00 14.9 C 94 % 13.94 C
2960 19-06-2019 06:35:00 15 C 94 % 14.04 C
2961 19-06-2019 06:40:00 15 C 94 % 14.04 C
2962 19-06-2019 06:45:00 15.1 C 94 % 14.14 C
2963 19-06-2019 06:50:00 15.2 C 94 % 14.24 C
2964 19-06-2019 06:55:00 15.2 C 94 % 14.24 C
2965 19-06-2019 07:00:00 15.2 C 94 % 14.24 C
2966 19-06-2019 07:05:00 15.2 C 94 % 14.24 C
2967 19-06-2019 07:10:00 15.2 C 95 % 14.4 C
2968 19-06-2019 07:15:00 15.3 C 95 % 14.5 C
2969 19-06-2019 07:20:00 15.3 C 95 % 14.5 C
2970 19-06-2019 07:25:00 15.3 C 95 % 14.5 C
2971 19-06-2019 07:30:00 15.4 C 95 % 14.6 C
2972 19-06-2019 07:35:00 15.4 C 95 % 14.6 C
2973 19-06-2019 07:40:00 15.6 C 95 % 14.8 C
2974 19-06-2019 07:45:00 15.7 C 95 % 14.9 C
2975 19-06-2019 07:50:00 15.7 C 95 % 14.9 C
Sensor: Nr:Datum:Temp:Feuchte:Taupunkt:
Aussen-T/F 2976 19-06-2019 07:55:00 15.8 C 95 % 15 C
2977 19-06-2019 08:00:00 15.9 C 95 % 15.1 C
2978 19-06-2019 08:05:00 16 C 95 % 15.2 C
2979 19-06-2019 08:10:00 16.1 C 95 % 15.3 C
2980 19-06-2019 08:15:00 16.2 C 95 % 15.4 C
2981 19-06-2019 08:20:00 16.4 C 95 % 15.6 C
2982 19-06-2019 08:25:00 16.5 C 95 % 15.7 C
2983 19-06-2019 08:30:00 16.6 C 95 % 15.8 C
2984 19-06-2019 08:35:00 16.7 C 95 % 15.9 C
2985 19-06-2019 08:40:00 16.8 C 95 % 15.99 C
2986 19-06-2019 08:45:00 16.9 C 95 % 16.09 C
2987 19-06-2019 08:50:00 17.1 C 95 % 16.29 C
2988 19-06-2019 08:55:00 17.3 C 95 % 16.49 C
2989 19-06-2019 09:00:00 17.4 C 95 % 16.59 C
2990 19-06-2019 09:05:00 17.6 C 95 % 16.79 C
2991 19-06-2019 09:10:00 17.7 C 95 % 16.89 C
2992 19-06-2019 09:15:00 17.9 C 95 % 17.09 C
2993 19-06-2019 09:20:00 18.1 C 94 % 17.12 C
2994 19-06-2019 09:25:00 18.2 C 94 % 17.22 C
2995 19-06-2019 09:30:00 18.4 C 94 % 17.42 C
2996 19-06-2019 09:35:00 18.7 C 94 % 17.71 C
2997 19-06-2019 09:40:00 18.9 C 93 % 17.74 C
2998 19-06-2019 09:45:00 19.2 C 93 % 18.04 C
2999 19-06-2019 09:50:00 19.6 C 92 % 18.26 C
3000 19-06-2019 09:55:00 19.9 C 92 % 18.56 C
Sensor: Nr:Datum:Temp:Feuchte:Taupunkt:
Aussen-T/F 3001 19-06-2019 10:00:00 20.3 C 91 % 18.78 C
3002 19-06-2019 10:05:00 20.8 C 89 % 18.92 C
3003 19-06-2019 10:10:00 21.2 C 86 % 18.76 C
3004 19-06-2019 10:15:00 21.6 C 85 % 18.97 C
3005 19-06-2019 10:20:00 22.2 C 81 % 18.78 C
3006 19-06-2019 10:25:00 22.8 C 80 % 19.17 C
3007 19-06-2019 10:30:00 23.8 C 68 % 17.54 C
3008 19-06-2019 10:35:00 24.7 C 64 % 17.43 C
3009 19-06-2019 10:40:00 25.4 C 62 % 17.59 C
3010 19-06-2019 10:45:00 25.9 C 62 % 18.06 C
3011 19-06-2019 10:50:00 26.2 C 57 % 17.01 C
3012 19-06-2019 10:55:00 26.4 C 56 % 16.92 C
3013 19-06-2019 11:00:00 26.5 C 57 % 17.29 C
3014 19-06-2019 11:05:00 26.6 C 55 % 16.82 C
3015 19-06-2019 11:10:00 26.6 C 55 % 16.82 C
3016 19-06-2019 11:15:00 26.7 C 54 % 16.62 C
3017 19-06-2019 11:20:00 26.8 C 52 % 16.12 C
3018 19-06-2019 11:25:00 26.9 C 53 % 16.51 C
3019 19-06-2019 11:30:00 27 C 51 % 16 C
3020 19-06-2019 11:35:00 26.9 C 53 % 16.51 C
3021 19-06-2019 11:40:00 26.8 C 55 % 17 C
3022 19-06-2019 11:45:00 26.8 C 54 % 16.71 C
3023 19-06-2019 11:50:00 26.9 C 55 % 17.09 C
3024 19-06-2019 11:55:00 26.8 C 55 % 17 C
3025 19-06-2019 12:00:00 26.9 C 55 % 17.09 C
Sensor: Nr:Datum:Temp:Feuchte:Taupunkt:
Aussen-T/F 3026 19-06-2019 12:05:00 26.9 C 57 % 17.66 C
3027 19-06-2019 12:10:00 27 C 59 % 18.3 C
3028 19-06-2019 12:15:00 27 C 54 % 16.9 C
3029 19-06-2019 12:20:00 26.9 C 54 % 16.81 C
3030 19-06-2019 12:25:00 26.8 C 56 % 17.29 C
3031 19-06-2019 12:30:00 26.5 C 54 % 16.44 C
3032 19-06-2019 12:35:00 26.4 C 61 % 18.27 C
3033 19-06-2019 12:40:00 26.2 C 63 % 18.6 C
3034 19-06-2019 12:45:00 25.9 C 66 % 19.06 C
3035 19-06-2019 12:50:00 25.7 C 68 % 19.35 C
3036 19-06-2019 12:55:00 25.5 C 68 % 19.16 C
3037 19-06-2019 13:00:00 25.3 C 69 % 19.2 C
3038 19-06-2019 13:05:00 25.2 C 70 % 19.34 C
3039 19-06-2019 13:10:00 25.1 C 72 % 19.69 C
3040 19-06-2019 13:15:00 25.1 C 71 % 19.47 C
3041 19-06-2019 13:20:00 25.2 C 72 % 19.79 C
3042 19-06-2019 13:25:00 25.3 C 60 % 16.98 C
3043 19-06-2019 13:30:00 25.8 C 58 % 16.91 C
3044 19-06-2019 13:35:00 26.4 C 62 % 18.53 C
3045 19-06-2019 13:40:00 26.7 C 60 % 18.29 C
3046 19-06-2019 13:45:00 27 C 55 % 17.19 C
3047 19-06-2019 13:50:00 27.3 C 57 % 18.03 C
3048 19-06-2019 13:55:00 27.6 C 50 % 16.24 C
3049 19-06-2019 14:00:00 27.8 C 49 % 16.11 C
3050 19-06-2019 14:05:00 27.7 C 52 % 16.95 C
Sensor: Nr:Datum:Temp:Feuchte:Taupunkt:
Aussen-T/F 3051 19-06-2019 14:10:00 27.6 C 55 % 17.74 C
3052 19-06-2019 14:15:00 27.4 C 53 % 16.97 C
3053 19-06-2019 14:20:00 27.1 C 52 % 16.4 C
3054 19-06-2019 14:25:00 26.8 C 52 % 16.12 C
3055 19-06-2019 14:30:00 26.7 C 55 % 16.91 C
3056 19-06-2019 14:35:00 26.7 C 53 % 16.33 C
3057 19-06-2019 14:40:00 26.5 C 55 % 16.72 C
3058 19-06-2019 14:45:00 26.6 C 57 % 17.38 C
3059 19-06-2019 14:50:00 26.7 C 54 % 16.62 C
3060 19-06-2019 14:55:00 26.5 C 55 % 16.72 C
3061 19-06-2019 15:00:00 26.2 C 56 % 16.73 C
3062 19-06-2019 15:05:00 26.1 C 57 % 16.92 C
3063 19-06-2019 15:10:00 26.2 C 61 % 18.08 C
3064 19-06-2019 15:15:00 26.5 C 61 % 18.36 C
3065 19-06-2019 15:20:00 27.1 C 57 % 17.85 C
3066 19-06-2019 15:25:00 27.1 C 56 % 17.57 C
3067 19-06-2019 15:30:00 26.9 C 56 % 17.38 C
3068 19-06-2019 15:35:00 27 C 59 % 18.3 C
3069 19-06-2019 15:40:00 27.7 C 58 % 18.68 C
3070 19-06-2019 15:45:00 28.6 C 56 % 18.96 C
3071 19-06-2019 15:50:00 28.9 C 53 % 18.36 C
3072 19-06-2019 15:55:00 28.7 C 52 % 17.87 C
3073 19-06-2019 16:00:00 28.4 C 53 % 17.9 C
3074 19-06-2019 16:05:00 28.7 C 51 % 17.56 C
3075 19-06-2019 16:10:00 29.1 C 52 % 18.24 C
Sensor: Nr:Datum:Temp:Feuchte:Taupunkt:
Aussen-T/F 3076 19-06-2019 16:15:00 29.3 C 50 % 17.8 C
3077 19-06-2019 16:20:00 29.6 C 50 % 18.07 C
3078 19-06-2019 16:25:00 29.9 C 46 % 17.02 C
3079 19-06-2019 16:30:00 29.9 C 51 % 18.66 C
3080 19-06-2019 16:35:00 30.2 C 51 % 18.94 C
3081 19-06-2019 16:40:00 30.6 C 48 % 18.33 C
3082 19-06-2019 16:45:00 31.1 C 45 % 17.76 C
3083 19-06-2019 16:50:00 31.2 C 43 % 17.13 C
3084 19-06-2019 16:55:00 31.1 C 44 % 17.4 C
3085 19-06-2019 17:00:00 31.1 C 44 % 17.4 C
3086 19-06-2019 17:05:00 30.9 C 44 % 17.22 C
3087 19-06-2019 17:10:00 31 C 42 % 16.58 C
3088 19-06-2019 17:15:00 31.3 C 41 % 16.47 C
3089 19-06-2019 17:20:00 31.3 C 42 % 16.85 C
3090 19-06-2019 17:25:00 31.4 C 39 % 15.78 C
3091 19-06-2019 17:30:00 31.4 C 40 % 16.17 C
3092 19-06-2019 17:35:00 31.6 C 41 % 16.74 C
3093 19-06-2019 17:40:00 31.6 C 41 % 16.74 C
3094 19-06-2019 17:45:00 31.4 C 40 % 16.17 C
3095 19-06-2019 17:50:00 31.3 C 40 % 16.08 C
3096 19-06-2019 17:55:00 30.8 C 41 % 16.02 C
3097 19-06-2019 18:00:00 30.6 C 48 % 18.33 C
3098 19-06-2019 18:05:00 30.3 C 50 % 18.71 C
3099 19-06-2019 18:10:00 29.8 C 53 % 19.19 C
3100 19-06-2019 18:15:00 29.3 C 53 % 18.73 C
Sensor: Nr:Datum:Temp:Feuchte:Taupunkt:
Aussen-T/F 3101 19-06-2019 18:20:00 28.8 C 56 % 19.14 C
3102 19-06-2019 18:25:00 28.3 C 57 % 18.96 C
3103 19-06-2019 18:30:00 27.8 C 57 % 18.5 C
3104 19-06-2019 18:35:00 27.4 C 58 % 18.4 C
3105 19-06-2019 18:40:00 27.1 C 60 % 18.66 C
3106 19-06-2019 18:45:00 27 C 64 % 19.61 C
3107 19-06-2019 18:50:00 27.1 C 62 % 19.19 C
3108 19-06-2019 18:55:00 27.3 C 61 % 19.12 C
3109 19-06-2019 19:00:00 28.2 C 55 % 18.3 C
3110 19-06-2019 19:05:00 29.2 C 51 % 18.02 C
3111 19-06-2019 19:10:00 29.8 C 47 % 17.27 C
3112 19-06-2019 19:15:00 30 C 47 % 17.45 C
3113 19-06-2019 19:20:00 30.1 C 46 % 17.2 C
3114 19-06-2019 19:25:00 29.8 C 47 % 17.27 C
3115 19-06-2019 19:30:00 29.3 C 54 % 19.02 C
3116 19-06-2019 19:35:00 28.9 C 54 % 18.66 C
3117 19-06-2019 19:40:00 28.6 C 58 % 19.52 C
3118 19-06-2019 19:45:00 28.2 C 58 % 19.15 C
3119 19-06-2019 19:50:00 27.8 C 59 % 19.05 C
3120 19-06-2019 19:55:00 27.4 C 61 % 19.21 C
3121 19-06-2019 20:00:00 27 C 61 % 18.83 C
3122 19-06-2019 20:05:00 26.6 C 61 % 18.46 C
3123 19-06-2019 20:10:00 26.1 C 63 % 18.5 C
3124 19-06-2019 20:15:00 25.8 C 64 % 18.47 C
3125 19-06-2019 20:20:00 25.4 C 65 % 18.34 C
Sensor: Nr:Datum:Temp:Feuchte:Taupunkt:
Aussen-T/F 3126 19-06-2019 20:25:00 25.2 C 66 % 18.39 C
3127 19-06-2019 20:30:00 24.9 C 65 % 17.87 C
3128 19-06-2019 20:35:00 24.8 C 67 % 18.25 C
3129 19-06-2019 20:40:00 24.7 C 67 % 18.16 C
3130 19-06-2019 20:45:00 24.6 C 68 % 18.3 C
3131 19-06-2019 20:50:00 24.4 C 68 % 18.11 C
3132 19-06-2019 20:55:00 24.3 C 69 % 18.25 C
3133 19-06-2019 21:00:00 24.1 C 69 % 18.06 C
3134 19-06-2019 21:05:00 23.9 C 69 % 17.87 C
3135 19-06-2019 21:10:00 23.8 C 70 % 18 C
3136 19-06-2019 21:15:00 23.7 C 70 % 17.9 C
3137 19-06-2019 21:20:00 23.5 C 70 % 17.71 C
3138 19-06-2019 21:25:00 23.3 C 71 % 17.75 C
3139 19-06-2019 21:30:00 23.2 C 71 % 17.65 C
3140 19-06-2019 21:35:00 23.1 C 71 % 17.55 C
3141 19-06-2019 21:40:00 22.9 C 72 % 17.58 C
3142 19-06-2019 21:45:00 22.8 C 72 % 17.49 C
3143 19-06-2019 21:50:00 22.6 C 72 % 17.3 C
3144 19-06-2019 21:55:00 22.4 C 73 % 17.32 C
3145 19-06-2019 22:00:00 22.2 C 73 % 17.13 C
3146 19-06-2019 22:05:00 22.1 C 74 % 17.25 C
3147 19-06-2019 22:10:00 22.2 C 72 % 16.91 C
3148 19-06-2019 22:15:00 22.3 C 73 % 17.23 C
3149 19-06-2019 22:20:00 22.3 C 73 % 17.23 C
3150 19-06-2019 22:25:00 22.1 C 73 % 17.03 C
Sensor: Nr:Datum:Temp:Feuchte:Taupunkt:
Aussen-T/F 3151 19-06-2019 22:30:00 21.9 C 73 % 16.84 C
3152 19-06-2019 22:35:00 21.6 C 74 % 16.77 C
3153 19-06-2019 22:40:00 21.3 C 75 % 16.69 C
3154 19-06-2019 22:45:00 20.9 C 75 % 16.3 C
3155 19-06-2019 22:50:00 20.7 C 76 % 16.32 C
3156 19-06-2019 22:55:00 20.6 C 77 % 16.43 C
3157 19-06-2019 23:00:00 20.4 C 78 % 16.44 C
3158 19-06-2019 23:05:00 20.2 C 78 % 16.24 C
3159 19-06-2019 23:10:00 20.1 C 79 % 16.34 C
3160 19-06-2019 23:15:00 20.1 C 80 % 16.54 C
3161 19-06-2019 23:20:00 20 C 80 % 16.44 C
3162 19-06-2019 23:25:00 20 C 80 % 16.44 C
3163 19-06-2019 23:30:00 19.9 C 81 % 16.54 C
3164 19-06-2019 23:35:00 19.9 C 81 % 16.54 C
3165 19-06-2019 23:40:00 19.8 C 80 % 16.25 C
3166 19-06-2019 23:45:00 19.7 C 80 % 16.15 C
3167 19-06-2019 23:50:00 19.6 C 80 % 16.06 C
3168 19-06-2019 23:55:00 19.4 C 81 % 16.06 C
3169 20-06-2019 00:00:00 19.3 C 81 % 15.96 C
3170 20-06-2019 00:05:00 19.2 C 82 % 16.05 C
3171 20-06-2019 00:10:00 19.1 C 82 % 15.96 C
3172 20-06-2019 00:15:00 18.9 C 82 % 15.76 C
3173 20-06-2019 00:20:00 18.8 C 83 % 15.85 C
3174 20-06-2019 00:25:00 18.7 C 83 % 15.75 C
3175 20-06-2019 00:30:00 18.7 C 84 % 15.94 C
Sensor: Nr:Datum:Temp:Feuchte:Taupunkt:
Aussen-T/F 3176 20-06-2019 00:35:00 18.6 C 84 % 15.84 C
3177 20-06-2019 00:40:00 18.5 C 84 % 15.75 C
3178 20-06-2019 00:45:00 18.4 C 85 % 15.83 C
3179 20-06-2019 00:50:00 18.4 C 85 % 15.83 C
3180 20-06-2019 00:55:00 18.4 C 85 % 15.83 C
3181 20-06-2019 01:00:00 18.3 C 85 % 15.74 C
3182 20-06-2019 01:05:00 18.3 C 85 % 15.74 C
3183 20-06-2019 01:10:00 18.2 C 85 % 15.64 C
3184 20-06-2019 01:15:00 18.1 C 86 % 15.72 C
3185 20-06-2019 01:20:00 18.1 C 86 % 15.72 C
3186 20-06-2019 01:25:00 18 C 86 % 15.62 C
3187 20-06-2019 01:30:00 17.9 C 86 % 15.53 C
3188 20-06-2019 01:35:00 17.9 C 87 % 15.71 C
3189 20-06-2019 01:40:00 17.8 C 87 % 15.61 C
3190 20-06-2019 01:45:00 17.8 C 87 % 15.61 C
3191 20-06-2019 01:50:00 17.7 C 87 % 15.51 C
3192 20-06-2019 01:55:00 17.7 C 88 % 15.69 C
3193 20-06-2019 02:00:00 17.6 C 88 % 15.59 C
3194 20-06-2019 02:05:00 17.6 C 88 % 15.59 C
3195 20-06-2019 02:10:00 17.5 C 88 % 15.49 C
3196 20-06-2019 02:15:00 17.5 C 88 % 15.49 C
3197 20-06-2019 02:20:00 17.4 C 88 % 15.39 C
3198 20-06-2019 02:25:00 17.4 C 89 % 15.57 C
3199 20-06-2019 02:30:00 17.4 C 89 % 15.57 C
3200 20-06-2019 02:35:00 17.4 C 89 % 15.57 C
Sensor: Nr:Datum:Temp:Feuchte:Taupunkt:
Aussen-T/F 3201 20-06-2019 02:40:00 17.4 C 89 % 15.57 C
3202 20-06-2019 02:45:00 17.4 C 89 % 15.57 C
3203 20-06-2019 02:50:00 17.4 C 90 % 15.74 C
3204 20-06-2019 02:55:00 17.5 C 90 % 15.84 C
3205 20-06-2019 03:00:00 17.5 C 90 % 15.84 C
3206 20-06-2019 03:05:00 17.6 C 90 % 15.94 C
3207 20-06-2019 03:10:00 17.6 C 90 % 15.94 C
3208 20-06-2019 03:15:00 17.7 C 90 % 16.04 C
3209 20-06-2019 03:20:00 17.8 C 90 % 16.14 C
3210 20-06-2019 03:25:00 17.8 C 90 % 16.14 C
3211 20-06-2019 03:30:00 17.8 C 89 % 15.96 C
3212 20-06-2019 03:35:00 17.8 C 89 % 15.96 C
3213 20-06-2019 03:40:00 17.7 C 89 % 15.86 C
3214 20-06-2019 03:45:00 17.7 C 89 % 15.86 C
3215 20-06-2019 03:50:00 17.7 C 89 % 15.86 C
3216 20-06-2019 03:55:00 17.7 C 89 % 15.86 C
3217 20-06-2019 04:00:00 17.7 C 89 % 15.86 C
3218 20-06-2019 04:05:00 17.6 C 89 % 15.77 C
3219 20-06-2019 04:10:00 17.6 C 89 % 15.77 C
3220 20-06-2019 04:15:00 17.4 C 89 % 15.57 C
3221 20-06-2019 04:20:00 17.4 C 90 % 15.74 C
3222 20-06-2019 04:25:00 17.4 C 90 % 15.74 C
3223 20-06-2019 04:30:00 17.3 C 89 % 15.47 C
3224 20-06-2019 04:35:00 17.2 C 90 % 15.55 C
3225 20-06-2019 04:40:00 17.2 C 90 % 15.55 C
Sensor: Nr:Datum:Temp:Feuchte:Taupunkt:
Aussen-T/F 3226 20-06-2019 04:45:00 17.1 C 90 % 15.45 C
3227 20-06-2019 04:50:00 17 C 90 % 15.35 C
3228 20-06-2019 04:55:00 16.9 C 90 % 15.25 C
3229 20-06-2019 05:00:00 16.9 C 90 % 15.25 C
3230 20-06-2019 05:05:00 16.8 C 91 % 15.32 C
3231 20-06-2019 05:10:00 16.8 C 91 % 15.32 C
3232 20-06-2019 05:15:00 16.7 C 91 % 15.22 C
3233 20-06-2019 05:20:00 16.7 C 91 % 15.22 C
3234 20-06-2019 05:25:00 16.7 C 91 % 15.22 C
3235 20-06-2019 05:30:00 16.6 C 91 % 15.13 C
3236 20-06-2019 05:35:00 16.6 C 92 % 15.3 C
3237 20-06-2019 05:40:00 16.6 C 92 % 15.3 C
3238 20-06-2019 05:45:00 16.6 C 92 % 15.3 C
3239 20-06-2019 05:50:00 16.6 C 92 % 15.3 C
3240 20-06-2019 05:55:00 16.6 C 92 % 15.3 C
3241 20-06-2019 06:00:00 16.6 C 92 % 15.3 C
3242 20-06-2019 06:05:00 16.6 C 92 % 15.3 C
3243 20-06-2019 06:10:00 16.6 C 93 % 15.46 C
3244 20-06-2019 06:15:00 16.7 C 93 % 15.56 C
3245 20-06-2019 06:20:00 16.7 C 93 % 15.56 C
3246 20-06-2019 06:25:00 16.8 C 93 % 15.66 C
3247 20-06-2019 06:30:00 16.8 C 92 % 15.49 C
3248 20-06-2019 06:35:00 16.9 C 93 % 15.76 C
3249 20-06-2019 06:40:00 17 C 92 % 15.69 C
3250 20-06-2019 06:45:00 17.1 C 92 % 15.79 C
Sensor: Nr:Datum:Temp:Feuchte:Taupunkt:
Aussen-T/F 3251 20-06-2019 06:50:00 17.2 C 92 % 15.89 C
3252 20-06-2019 06:55:00 17.3 C 91 % 15.82 C
3253 20-06-2019 07:00:00 17.3 C 91 % 15.82 C
3254 20-06-2019 07:05:00 17.4 C 91 % 15.92 C
3255 20-06-2019 07:10:00 17.4 C 91 % 15.92 C
3256 20-06-2019 07:15:00 17.4 C 91 % 15.92 C
3257 20-06-2019 07:20:00 17.4 C 91 % 15.92 C
3258 20-06-2019 07:25:00 17.5 C 90 % 15.84 C
3259 20-06-2019 07:30:00 17.6 C 90 % 15.94 C
3260 20-06-2019 07:35:00 17.8 C 89 % 15.96 C
3261 20-06-2019 07:40:00 17.9 C 88 % 15.88 C
3262 20-06-2019 07:45:00 18.2 C 87 % 16 C
3263 20-06-2019 07:50:00 18.4 C 87 % 16.2 C
3264 20-06-2019 07:55:00 18.5 C 85 % 15.93 C
3265 20-06-2019 08:00:00 18.6 C 85 % 16.03 C
3266 20-06-2019 08:05:00 18.8 C 84 % 16.04 C
3267 20-06-2019 08:10:00 18.9 C 84 % 16.14 C
3268 20-06-2019 08:15:00 19.2 C 83 % 16.24 C
3269 20-06-2019 08:20:00 19.4 C 82 % 16.25 C
3270 20-06-2019 08:25:00 19.6 C 81 % 16.25 C
3271 20-06-2019 08:30:00 19.7 C 81 % 16.35 C
3272 20-06-2019 08:35:00 19.8 C 80 % 16.25 C
3273 20-06-2019 08:40:00 19.8 C 79 % 16.05 C
3274 20-06-2019 08:45:00 19.8 C 79 % 16.05 C
3275 20-06-2019 08:50:00 19.9 C 80 % 16.35 C
Sensor: Nr:Datum:Temp:Feuchte:Taupunkt:
Aussen-T/F 3276 20-06-2019 08:55:00 19.9 C 79 % 16.15 C
3277 20-06-2019 09:00:00 19.9 C 78 % 15.95 C
3278 20-06-2019 09:05:00 20 C 78 % 16.05 C
3279 20-06-2019 09:10:00 20.1 C 76 % 15.74 C
3280 20-06-2019 09:15:00 20.1 C 77 % 15.94 C
3281 20-06-2019 09:20:00 20.1 C 77 % 15.94 C
3282 20-06-2019 09:25:00 20.2 C 77 % 16.04 C
3283 20-06-2019 09:30:00 20.2 C 77 % 16.04 C
3284 20-06-2019 09:35:00 20.2 C 75 % 15.63 C
3285 20-06-2019 09:40:00 20.3 C 74 % 15.51 C
3286 20-06-2019 09:45:00 20.3 C 74 % 15.51 C
3287 20-06-2019 09:50:00 20.4 C 74 % 15.61 C
3288 20-06-2019 09:55:00 20.6 C 74 % 15.8 C
3289 20-06-2019 10:00:00 20.7 C 73 % 15.69 C
3290 20-06-2019 10:05:00 20.8 C 72 % 15.57 C
3291 20-06-2019 10:10:00 20.9 C 73 % 15.88 C
3292 20-06-2019 10:15:00 21.2 C 72 % 15.95 C
3293 20-06-2019 10:20:00 21.4 C 71 % 15.93 C
3294 20-06-2019 10:25:00 21.5 C 70 % 15.8 C
3295 20-06-2019 10:30:00 21.4 C 70 % 15.7 C
3296 20-06-2019 10:35:00 21.5 C 70 % 15.8 C
3297 20-06-2019 10:40:00 21.4 C 69 % 15.48 C
3298 20-06-2019 10:45:00 21.5 C 70 % 15.8 C
3299 20-06-2019 10:50:00 21.7 C 70 % 15.99 C
3300 20-06-2019 10:55:00 21.7 C 69 % 15.77 C
Sensor: Nr:Datum:Temp:Feuchte:Taupunkt:
Aussen-T/F 3301 20-06-2019 11:00:00 21.6 C 69 % 15.67 C
3302 20-06-2019 11:05:00 21.6 C 70 % 15.89 C
3303 20-06-2019 11:10:00 21.7 C 70 % 15.99 C
3304 20-06-2019 11:15:00 21.8 C 71 % 16.31 C
3305 20-06-2019 11:20:00 21.8 C 71 % 16.31 C
3306 20-06-2019 11:25:00 21.8 C 70 % 16.09 C
3307 20-06-2019 11:30:00 21.9 C 70 % 16.18 C
3308 20-06-2019 11:35:00 22.1 C 70 % 16.37 C
3309 20-06-2019 11:40:00 22.2 C 69 % 16.24 C
3310 20-06-2019 11:45:00 22.1 C 69 % 16.15 C
3311 20-06-2019 11:50:00 22 C 69 % 16.05 C
3312 20-06-2019 11:55:00 22.1 C 71 % 16.6 C
3313 20-06-2019 12:00:00 22.2 C 68 % 16.01 C
3314 20-06-2019 12:05:00 22.3 C 67 % 15.88 C
3315 20-06-2019 12:10:00 22.3 C 68 % 16.11 C
3316 20-06-2019 12:15:00 22.4 C 69 % 16.43 C
3317 20-06-2019 12:20:00 22.7 C 67 % 16.26 C
3318 20-06-2019 12:25:00 22.8 C 65 % 15.88 C
3319 20-06-2019 12:30:00 22.7 C 66 % 16.02 C
3320 20-06-2019 12:35:00 22.7 C 66 % 16.02 C
3321 20-06-2019 12:40:00 22.7 C 66 % 16.02 C
3322 20-06-2019 12:45:00 22.9 C 66 % 16.21 C
3323 20-06-2019 12:50:00 23 C 65 % 16.07 C
3324 20-06-2019 12:55:00 23.1 C 65 % 16.16 C
3325 20-06-2019 13:00:00 23 C 65 % 16.07 C
Sensor: Nr:Datum:Temp:Feuchte:Taupunkt:
Aussen-T/F 3326 20-06-2019 13:05:00 23.2 C 64 % 16.01 C
3327 20-06-2019 13:10:00 23.4 C 64 % 16.2 C
3328 20-06-2019 13:15:00 23.4 C 65 % 16.45 C
3329 20-06-2019 13:20:00 23.3 C 64 % 16.11 C
3330 20-06-2019 13:25:00 23.2 C 64 % 16.01 C
3331 20-06-2019 13:30:00 23.1 C 63 % 15.67 C
3332 20-06-2019 13:35:00 23.1 C 65 % 16.16 C
3333 20-06-2019 13:40:00 23.1 C 67 % 16.64 C
3334 20-06-2019 13:45:00 23.2 C 64 % 16.01 C
3335 20-06-2019 13:50:00 23.3 C 66 % 16.59 C
3336 20-06-2019 13:55:00 23.6 C 66 % 16.88 C
3337 20-06-2019 14:00:00 23.8 C 63 % 16.33 C
3338 20-06-2019 14:05:00 23.9 C 62 % 16.18 C
3339 20-06-2019 14:10:00 24.2 C 60 % 15.95 C
3340 20-06-2019 14:15:00 24.4 C 59 % 15.87 C
3341 20-06-2019 14:20:00 24.5 C 59 % 15.96 C
3342 20-06-2019 14:25:00 24.8 C 60 % 16.51 C
3343 20-06-2019 14:30:00 24.9 C 59 % 16.34 C
3344 20-06-2019 14:35:00 25.1 C 58 % 16.26 C
3345 20-06-2019 14:40:00 25.1 C 56 % 15.71 C
3346 20-06-2019 14:45:00 25.1 C 55 % 15.43 C
3347 20-06-2019 14:50:00 24.9 C 57 % 15.8 C
3348 20-06-2019 14:55:00 24.7 C 57 % 15.61 C
3349 20-06-2019 15:00:00 24.3 C 59 % 15.78 C
3350 20-06-2019 15:05:00 24.1 C 60 % 15.85 C
Sensor: Nr:Datum:Temp:Feuchte:Taupunkt:
Aussen-T/F 3351 20-06-2019 15:10:00 23.8 C 59 % 15.31 C
3352 20-06-2019 15:15:00 23.3 C 63 % 15.86 C
3353 20-06-2019 15:20:00 21.8 C 72 % 16.53 C
3354 20-06-2019 15:25:00 20.6 C 77 % 16.43 C
3355 20-06-2019 15:30:00 20.1 C 82 % 16.93 C
3356 20-06-2019 15:35:00 19.8 C 84 % 17.02 C
3357 20-06-2019 15:40:00 19.8 C 86 % 17.39 C
3358 20-06-2019 15:45:00 19.8 C 85 % 17.21 C
3359 20-06-2019 15:50:00 19.9 C 87 % 17.67 C
3360 20-06-2019 15:55:00 20.2 C 87 % 17.97 C
3361 20-06-2019 16:00:00 20.7 C 84 % 17.9 C
3362 20-06-2019 16:05:00 21.3 C 83 % 18.29 C
3363 20-06-2019 16:10:00 21.8 C 76 % 17.38 C
3364 20-06-2019 16:15:00 22.4 C 74 % 17.54 C
3365 20-06-2019 16:20:00 22.9 C 72 % 17.58 C
3366 20-06-2019 16:25:00 23.2 C 69 % 17.2 C
3367 20-06-2019 16:30:00 23.6 C 70 % 17.81 C
3368 20-06-2019 16:35:00 23.7 C 66 % 16.97 C
3369 20-06-2019 16:40:00 23.7 C 67 % 17.21 C
3370 20-06-2019 16:45:00 23.6 C 65 % 16.64 C
3371 20-06-2019 16:50:00 23.3 C 68 % 17.06 C
3372 20-06-2019 16:55:00 22.8 C 69 % 16.82 C
3373 20-06-2019 17:00:00 22.5 C 71 % 16.98 C
3374 20-06-2019 17:05:00 22.3 C 71 % 16.79 C
3375 20-06-2019 17:10:00 22.1 C 72 % 16.82 C
Sensor: Nr:Datum:Temp:Feuchte:Taupunkt:
Aussen-T/F 3376 20-06-2019 17:15:00 21.8 C 72 % 16.53 C
3377 20-06-2019 17:20:00 21.5 C 75 % 16.88 C
3378 20-06-2019 17:25:00 21.4 C 79 % 17.61 C
3379 20-06-2019 17:30:00 21.1 C 77 % 16.91 C
3380 20-06-2019 17:35:00 20.9 C 78 % 16.92 C
3381 20-06-2019 17:40:00 20.6 C 80 % 17.03 C
3382 20-06-2019 17:45:00 20.4 C 81 % 17.03 C
3383 20-06-2019 17:50:00 20.3 C 81 % 16.93 C
3384 20-06-2019 17:55:00 20.2 C 81 % 16.84 C
3385 20-06-2019 18:00:00 20.1 C 82 % 16.93 C
3386 20-06-2019 18:05:00 20.1 C 82 % 16.93 C
3387 20-06-2019 18:10:00 19.9 C 82 % 16.74 C
3388 20-06-2019 18:15:00 19.9 C 82 % 16.74 C
3389 20-06-2019 18:20:00 20.1 C 83 % 17.12 C
3390 20-06-2019 18:25:00 20.2 C 80 % 16.64 C
3391 20-06-2019 18:30:00 20.2 C 80 % 16.64 C
3392 20-06-2019 18:35:00 20.2 C 81 % 16.84 C
3393 20-06-2019 18:40:00 20.1 C 81 % 16.74 C
3394 20-06-2019 18:45:00 20 C 80 % 16.44 C
3395 20-06-2019 18:50:00 19.8 C 80 % 16.25 C
3396 20-06-2019 18:55:00 19.4 C 80 % 15.86 C
3397 20-06-2019 19:00:00 19.2 C 82 % 16.05 C
3398 20-06-2019 19:05:00 19.1 C 81 % 15.76 C
3399 20-06-2019 19:10:00 18.9 C 82 % 15.76 C
3400 20-06-2019 19:15:00 18.8 C 81 % 15.47 C
Sensor: Nr:Datum:Temp:Feuchte:Taupunkt:
Aussen-T/F 3401 20-06-2019 19:20:00 18.8 C 81 % 15.47 C
3402 20-06-2019 19:25:00 18.7 C 81 % 15.37 C
3403 20-06-2019 19:30:00 18.6 C 82 % 15.47 C
3404 20-06-2019 19:35:00 18.7 C 83 % 15.75 C
3405 20-06-2019 19:40:00 18.6 C 82 % 15.47 C
3406 20-06-2019 19:45:00 18.6 C 83 % 15.66 C
3407 20-06-2019 19:50:00 18.6 C 82 % 15.47 C
3408 20-06-2019 19:55:00 18.5 C 82 % 15.37 C
3409 20-06-2019 20:00:00 18.6 C 82 % 15.47 C
3410 20-06-2019 20:05:00 18.6 C 82 % 15.47 C
3411 20-06-2019 20:10:00 18.6 C 81 % 15.28 C
3412 20-06-2019 20:15:00 18.6 C 82 % 15.47 C
3413 20-06-2019 20:20:00 18.6 C 81 % 15.28 C
3414 20-06-2019 20:25:00 18.6 C 82 % 15.47 C
3415 20-06-2019 20:30:00 18.7 C 82 % 15.57 C
3416 20-06-2019 20:35:00 18.7 C 83 % 15.75 C
3417 20-06-2019 20:40:00 18.7 C 82 % 15.57 C
3418 20-06-2019 20:45:00 18.7 C 83 % 15.75 C
3419 20-06-2019 20:50:00 18.8 C 84 % 16.04 C
3420 20-06-2019 20:55:00 18.8 C 84 % 16.04 C
3421 20-06-2019 21:00:00 18.7 C 83 % 15.75 C
3422 20-06-2019 21:05:00 18.7 C 83 % 15.75 C
3423 20-06-2019 21:10:00 18.6 C 83 % 15.66 C
3424 20-06-2019 21:15:00 18.5 C 84 % 15.75 C
3425 20-06-2019 21:20:00 18.4 C 84 % 15.65 C
Sensor: Nr:Datum:Temp:Feuchte:Taupunkt:
Aussen-T/F 3426 20-06-2019 21:25:00 18.3 C 84 % 15.55 C
3427 20-06-2019 21:30:00 18.2 C 84 % 15.45 C
3428 20-06-2019 21:35:00 18.1 C 84 % 15.35 C
3429 20-06-2019 21:40:00 18 C 84 % 15.26 C
3430 20-06-2019 21:45:00 17.8 C 85 % 15.25 C
3431 20-06-2019 21:50:00 17.7 C 85 % 15.15 C
3432 20-06-2019 21:55:00 17.6 C 86 % 15.23 C
3433 20-06-2019 22:00:00 17.4 C 86 % 15.03 C
3434 20-06-2019 22:05:00 17.3 C 86 % 14.94 C
3435 20-06-2019 22:10:00 17.2 C 87 % 15.02 C
3436 20-06-2019 22:15:00 17.1 C 87 % 14.92 C
3437 20-06-2019 22:20:00 17.1 C 87 % 14.92 C
3438 20-06-2019 22:25:00 17 C 87 % 14.82 C
3439 20-06-2019 22:30:00 16.9 C 87 % 14.72 C
3440 20-06-2019 22:35:00 16.8 C 87 % 14.62 C
3441 20-06-2019 22:40:00 16.7 C 87 % 14.53 C
3442 20-06-2019 22:45:00 16.6 C 87 % 14.43 C
3443 20-06-2019 22:50:00 16.4 C 88 % 14.41 C
3444 20-06-2019 22:55:00 16.3 C 88 % 14.31 C
3445 20-06-2019 23:00:00 16.2 C 88 % 14.21 C
3446 20-06-2019 23:05:00 16.1 C 89 % 14.29 C
3447 20-06-2019 23:10:00 16 C 89 % 14.19 C
3448 20-06-2019 23:15:00 15.9 C 90 % 14.26 C
3449 20-06-2019 23:20:00 15.8 C 90 % 14.16 C
3450 20-06-2019 23:25:00 15.7 C 91 % 14.24 C
Sensor: Nr:Datum:Temp:Feuchte:Taupunkt:
Aussen-T/F 3451 20-06-2019 23:30:00 15.7 C 91 % 14.24 C
3452 20-06-2019 23:35:00 15.6 C 92 % 14.31 C
3453 20-06-2019 23:40:00 15.5 C 92 % 14.21 C
3454 20-06-2019 23:45:00 15.5 C 92 % 14.21 C
3455 20-06-2019 23:50:00 15.4 C 92 % 14.11 C
3456 20-06-2019 23:55:00 15.3 C 92 % 14.01 C
3457 21-06-2019 00:00:00 15.4 C 93 % 14.27 C
3458 21-06-2019 00:05:00 15.5 C 94 % 14.54 C
3459 21-06-2019 00:10:00 15.6 C 94 % 14.64 C
3460 21-06-2019 00:15:00 15.6 C 94 % 14.64 C
3461 21-06-2019 00:20:00 15.7 C 94 % 14.74 C
3462 21-06-2019 00:25:00 15.7 C 94 % 14.74 C
3463 21-06-2019 00:30:00 15.7 C 94 % 14.74 C
3464 21-06-2019 00:35:00 15.6 C 93 % 14.47 C
3465 21-06-2019 00:40:00 15.4 C 93 % 14.27 C
3466 21-06-2019 00:45:00 15.3 C 93 % 14.18 C
3467 21-06-2019 00:50:00 15.3 C 93 % 14.18 C
3468 21-06-2019 00:55:00 15.2 C 93 % 14.08 C
3469 21-06-2019 01:00:00 15.2 C 93 % 14.08 C
3470 21-06-2019 01:05:00 15.1 C 93 % 13.98 C
3471 21-06-2019 01:10:00 15.1 C 93 % 13.98 C
3472 21-06-2019 01:15:00 15.1 C 93 % 13.98 C
3473 21-06-2019 01:20:00 15 C 93 % 13.88 C
3474 21-06-2019 01:25:00 14.9 C 93 % 13.78 C
3475 21-06-2019 01:30:00 14.9 C 93 % 13.78 C
Sensor: Nr:Datum:Temp:Feuchte:Taupunkt:
Aussen-T/F 3476 21-06-2019 01:35:00 14.8 C 93 % 13.68 C
3477 21-06-2019 01:40:00 14.7 C 93 % 13.58 C
3478 21-06-2019 01:45:00 14.7 C 93 % 13.58 C
3479 21-06-2019 01:50:00 14.6 C 93 % 13.48 C
3480 21-06-2019 01:55:00 14.6 C 93 % 13.48 C
3481 21-06-2019 02:00:00 14.7 C 94 % 13.74 C
3482 21-06-2019 02:05:00 14.7 C 94 % 13.74 C
3483 21-06-2019 02:10:00 14.7 C 94 % 13.74 C
3484 21-06-2019 02:15:00 14.7 C 94 % 13.74 C
3485 21-06-2019 02:20:00 14.7 C 94 % 13.74 C
3486 21-06-2019 02:25:00 14.7 C 94 % 13.74 C
3487 21-06-2019 02:30:00 14.8 C 94 % 13.84 C
3488 21-06-2019 02:35:00 14.8 C 94 % 13.84 C
3489 21-06-2019 02:40:00 14.8 C 95 % 14.01 C
3490 21-06-2019 02:45:00 14.9 C 95 % 14.11 C
3491 21-06-2019 02:50:00 14.9 C 95 % 14.11 C
3492 21-06-2019 02:55:00 15 C 95 % 14.21 C
3493 21-06-2019 03:00:00 15 C 95 % 14.21 C
3494 21-06-2019 03:05:00 15 C 94 % 14.04 C
3495 21-06-2019 03:10:00 15 C 94 % 14.04 C
3496 21-06-2019 03:15:00 15 C 94 % 14.04 C
3497 21-06-2019 03:20:00 15.1 C 95 % 14.31 C
3498 21-06-2019 03:25:00 15.1 C 95 % 14.31 C
3499 21-06-2019 03:30:00 15.1 C 94 % 14.14 C
3500 21-06-2019 03:35:00 15.1 C 94 % 14.14 C
Sensor: Nr:Datum:Temp:Feuchte:Taupunkt:
Aussen-T/F 3501 21-06-2019 03:40:00 15.1 C 94 % 14.14 C
3502 21-06-2019 03:45:00 15.1 C 94 % 14.14 C
3503 21-06-2019 03:50:00 15.1 C 94 % 14.14 C
3504 21-06-2019 03:55:00 15.1 C 94 % 14.14 C
3505 21-06-2019 04:00:00 15 C 94 % 14.04 C
3506 21-06-2019 04:05:00 15 C 95 % 14.21 C
3507 21-06-2019 04:10:00 15.1 C 95 % 14.31 C
3508 21-06-2019 04:15:00 15.1 C 94 % 14.14 C
3509 21-06-2019 04:20:00 15.1 C 94 % 14.14 C
3510 21-06-2019 04:25:00 15 C 94 % 14.04 C
3511 21-06-2019 04:30:00 15 C 94 % 14.04 C
3512 21-06-2019 04:35:00 14.9 C 94 % 13.94 C
3513 21-06-2019 04:40:00 14.8 C 94 % 13.84 C
3514 21-06-2019 04:45:00 14.7 C 94 % 13.74 C
3515 21-06-2019 04:50:00 14.7 C 94 % 13.74 C
3516 21-06-2019 04:55:00 14.6 C 94 % 13.65 C
3517 21-06-2019 05:00:00 14.6 C 94 % 13.65 C
3518 21-06-2019 05:05:00 14.5 C 94 % 13.55 C
3519 21-06-2019 05:10:00 14.4 C 94 % 13.45 C
3520 21-06-2019 05:15:00 14.3 C 93 % 13.18 C
3521 21-06-2019 05:20:00 14.3 C 94 % 13.35 C
3522 21-06-2019 05:25:00 14.3 C 94 % 13.35 C
3523 21-06-2019 05:30:00 14.3 C 94 % 13.35 C
3524 21-06-2019 05:35:00 14.3 C 94 % 13.35 C
3525 21-06-2019 05:40:00 14.3 C 94 % 13.35 C
Sensor: Nr:Datum:Temp:Feuchte:Taupunkt:
Aussen-T/F 3526 21-06-2019 05:45:00 14.2 C 94 % 13.25 C
3527 21-06-2019 05:50:00 14.2 C 94 % 13.25 C
3528 21-06-2019 05:55:00 14.2 C 94 % 13.25 C
3529 21-06-2019 06:00:00 14.2 C 94 % 13.25 C
3530 21-06-2019 06:05:00 14.2 C 94 % 13.25 C
3531 21-06-2019 06:10:00 14.2 C 94 % 13.25 C
3532 21-06-2019 06:15:00 14.2 C 94 % 13.25 C
3533 21-06-2019 06:20:00 14.2 C 94 % 13.25 C
3534 21-06-2019 06:25:00 14.2 C 93 % 13.08 C
3535 21-06-2019 06:30:00 14.2 C 93 % 13.08 C
3536 21-06-2019 06:35:00 14.1 C 93 % 12.99 C
3537 21-06-2019 06:40:00 14.1 C 93 % 12.99 C
3538 21-06-2019 06:45:00 14.1 C 93 % 12.99 C
3539 21-06-2019 06:50:00 14.2 C 93 % 13.08 C
3540 21-06-2019 06:55:00 14.2 C 93 % 13.08 C
3541 21-06-2019 07:00:00 14.3 C 93 % 13.18 C
3542 21-06-2019 07:05:00 14.4 C 94 % 13.45 C
3543 21-06-2019 07:10:00 14.6 C 94 % 13.65 C
3544 21-06-2019 07:15:00 14.6 C 93 % 13.48 C
3545 21-06-2019 07:20:00 14.7 C 93 % 13.58 C
3546 21-06-2019 07:25:00 14.7 C 93 % 13.58 C
3547 21-06-2019 07:30:00 14.6 C 92 % 13.32 C
3548 21-06-2019 07:35:00 14.6 C 92 % 13.32 C
3549 21-06-2019 07:40:00 14.6 C 92 % 13.32 C
3550 21-06-2019 07:45:00 14.7 C 92 % 13.41 C
Sensor: Nr:Datum:Temp:Feuchte:Taupunkt:
Aussen-T/F 3551 21-06-2019 07:50:00 14.9 C 92 % 13.61 C
3552 21-06-2019 07:55:00 14.9 C 92 % 13.61 C
3553 21-06-2019 08:00:00 15.1 C 90 % 13.47 C
3554 21-06-2019 08:05:00 15.2 C 90 % 13.57 C
3555 21-06-2019 08:10:00 15.3 C 85 % 12.79 C
3556 21-06-2019 08:15:00 15.5 C 82 % 12.44 C
3557 21-06-2019 08:20:00 15.8 C 79 % 12.17 C
3558 21-06-2019 08:25:00 16 C 78 % 12.17 C
3559 21-06-2019 08:30:00 16.2 C 77 % 12.17 C
3560 21-06-2019 08:35:00 16.3 C 76 % 12.07 C
3561 21-06-2019 08:40:00 16.3 C 74 % 11.66 C
3562 21-06-2019 08:45:00 16.3 C 74 % 11.66 C
3563 21-06-2019 08:50:00 16.3 C 73 % 11.46 C
3564 21-06-2019 08:55:00 16.3 C 75 % 11.86 C
3565 21-06-2019 09:00:00 16.3 C 74 % 11.66 C
3566 21-06-2019 09:05:00 16.3 C 74 % 11.66 C
3567 21-06-2019 09:10:00 16.4 C 75 % 11.96 C
3568 21-06-2019 09:15:00 16.5 C 74 % 11.85 C
3569 21-06-2019 09:20:00 16.6 C 74 % 11.95 C
3570 21-06-2019 09:25:00 16.7 C 74 % 12.05 C
3571 21-06-2019 09:30:00 16.7 C 74 % 12.05 C
3572 21-06-2019 09:35:00 16.8 C 72 % 11.73 C
3573 21-06-2019 09:40:00 16.9 C 72 % 11.82 C
3574 21-06-2019 09:45:00 17 C 72 % 11.92 C
3575 21-06-2019 09:50:00 17.1 C 72 % 12.02 C
Sensor: Nr:Datum:Temp:Feuchte:Taupunkt:
Aussen-T/F 3576 21-06-2019 09:55:00 17.1 C 72 % 12.02 C
3577 21-06-2019 10:00:00 17.2 C 73 % 12.32 C
3578 21-06-2019 10:05:00 17.3 C 70 % 11.78 C
3579 21-06-2019 10:10:00 17.4 C 69 % 11.66 C
3580 21-06-2019 10:15:00 17.7 C 68 % 11.72 C
3581 21-06-2019 10:20:00 17.9 C 68 % 11.91 C
3582 21-06-2019 10:25:00 18.1 C 68 % 12.11 C
3583 21-06-2019 10:30:00 18.4 C 66 % 11.94 C
3584 21-06-2019 10:35:00 18.7 C 66 % 12.22 C
3585 21-06-2019 10:40:00 19 C 63 % 11.8 C
3586 21-06-2019 10:45:00 19.1 C 64 % 12.14 C
3587 21-06-2019 10:50:00 19.3 C 62 % 11.84 C
3588 21-06-2019 10:55:00 19.3 C 61 % 11.6 C
3589 21-06-2019 11:00:00 19.2 C 63 % 11.99 C
3590 21-06-2019 11:05:00 19.3 C 61 % 11.6 C
3591 21-06-2019 11:10:00 19.4 C 65 % 12.66 C
3592 21-06-2019 11:15:00 19.4 C 61 % 11.69 C
3593 21-06-2019 11:20:00 19.4 C 60 % 11.44 C
3594 21-06-2019 11:25:00 19.3 C 62 % 11.84 C
3595 21-06-2019 11:30:00 19.2 C 61 % 11.5 C
3596 21-06-2019 11:35:00 19.4 C 61 % 11.69 C
3597 21-06-2019 11:40:00 19.6 C 60 % 11.63 C
3598 21-06-2019 11:45:00 19.8 C 59 % 11.56 C
3599 21-06-2019 11:50:00 19.7 C 60 % 11.72 C
3600 21-06-2019 11:55:00 19.7 C 59 % 11.47 C
Sensor: Nr:Datum:Temp:Feuchte:Taupunkt:
Aussen-T/F 3601 21-06-2019 12:00:00 19.7 C 63 % 12.46 C
3602 21-06-2019 12:05:00 19.8 C 62 % 12.31 C
3603 21-06-2019 12:10:00 19.9 C 58 % 11.4 C
3604 21-06-2019 12:15:00 20.2 C 58 % 11.68 C
3605 21-06-2019 12:20:00 20.2 C 56 % 11.15 C
3606 21-06-2019 12:25:00 20.2 C 57 % 11.42 C
3607 21-06-2019 12:30:00 20 C 58 % 11.49 C
3608 21-06-2019 12:35:00 19.9 C 58 % 11.4 C
3609 21-06-2019 12:40:00 20.1 C 58 % 11.58 C
3610 21-06-2019 12:45:00 20.2 C 58 % 11.68 C
3611 21-06-2019 12:50:00 20.4 C 57 % 11.6 C
3612 21-06-2019 12:55:00 20.7 C 56 % 11.61 C
3613 21-06-2019 13:00:00 21.1 C 54 % 11.44 C
3614 21-06-2019 13:05:00 21.3 C 53 % 11.34 C
3615 21-06-2019 13:10:00 21.2 C 54 % 11.53 C
3616 21-06-2019 13:15:00 21 C 54 % 11.34 C
3617 21-06-2019 13:20:00 21 C 53 % 11.06 C
3618 21-06-2019 13:25:00 21.1 C 52 % 10.87 C
3619 21-06-2019 13:30:00 21.1 C 55 % 11.71 C
3620 21-06-2019 13:35:00 21.2 C 52 % 10.96 C
3621 21-06-2019 13:40:00 21.3 C 53 % 11.34 C
3622 21-06-2019 13:45:00 21.5 C 52 % 11.24 C
3623 21-06-2019 13:50:00 21.8 C 50 % 10.92 C
3624 21-06-2019 13:55:00 22 C 50 % 11.11 C
3625 21-06-2019 14:00:00 22.1 C 48 % 10.58 C
Sensor: Nr:Datum:Temp:Feuchte:Taupunkt:
Aussen-T/F 3626 21-06-2019 14:05:00 21.9 C 48 % 10.4 C
3627 21-06-2019 14:10:00 21.9 C 48 % 10.4 C
3628 21-06-2019 14:15:00 21.8 C 48 % 10.31 C
3629 21-06-2019 14:20:00 21.8 C 49 % 10.62 C
3630 21-06-2019 14:25:00 21.8 C 49 % 10.62 C
3631 21-06-2019 14:30:00 21.8 C 45 % 9.35 C
3632 21-06-2019 14:35:00 21.9 C 45 % 9.44 C
3633 21-06-2019 14:40:00 22.1 C 46 % 9.95 C
3634 21-06-2019 14:45:00 22.4 C 47 % 10.54 C
3635 21-06-2019 14:50:00 22.5 C 48 % 10.95 C
3636 21-06-2019 14:55:00 22.4 C 48 % 10.86 C
3637 21-06-2019 15:00:00 22.3 C 47 % 10.45 C
3638 21-06-2019 15:05:00 22.2 C 47 % 10.36 C
3639 21-06-2019 15:10:00 22.1 C 48 % 10.58 C
3640 21-06-2019 15:15:00 22.2 C 47 % 10.36 C
3641 21-06-2019 15:20:00 22.2 C 48 % 10.67 C
3642 21-06-2019 15:25:00 22.6 C 46 % 10.4 C
3643 21-06-2019 15:30:00 22.9 C 47 % 11 C
3644 21-06-2019 15:35:00 22.8 C 45 % 10.25 C
3645 21-06-2019 15:40:00 22.8 C 44 % 9.92 C
3646 21-06-2019 15:45:00 22.8 C 44 % 9.92 C
3647 21-06-2019 15:50:00 22.9 C 46 % 10.67 C
3648 21-06-2019 15:55:00 23.4 C 46 % 11.13 C
3649 21-06-2019 16:00:00 23.8 C 43 % 10.48 C
3650 21-06-2019 16:05:00 23.9 C 40 % 9.49 C
Sensor: Nr:Datum:Temp:Feuchte:Taupunkt:
Aussen-T/F 3651 21-06-2019 16:10:00 23.7 C 41 % 9.68 C
3652 21-06-2019 16:15:00 23.6 C 44 % 10.64 C
3653 21-06-2019 16:20:00 23.7 C 41 % 9.68 C
3654 21-06-2019 16:25:00 23.5 C 43 % 10.21 C
3655 21-06-2019 16:30:00 23.2 C 47 % 11.27 C
3656 21-06-2019 16:35:00 23.2 C 46 % 10.95 C
3657 21-06-2019 16:40:00 23.4 C 45 % 10.8 C
3658 21-06-2019 16:45:00 23.8 C 44 % 10.82 C
3659 21-06-2019 16:50:00 23.8 C 43 % 10.48 C
3660 21-06-2019 16:55:00 24.1 C 42 % 10.39 C
3661 21-06-2019 17:00:00 24.5 C 43 % 11.11 C
3662 21-06-2019 17:05:00 24.7 C 43 % 11.29 C
3663 21-06-2019 17:10:00 25.1 C 41 % 10.93 C
3664 21-06-2019 17:15:00 25.1 C 38 % 9.79 C
3665 21-06-2019 17:20:00 25.1 C 40 % 10.56 C
3666 21-06-2019 17:25:00 25 C 40 % 10.47 C
3667 21-06-2019 17:30:00 25.1 C 39 % 10.18 C
3668 21-06-2019 17:35:00 25 C 39 % 10.09 C
3669 21-06-2019 17:40:00 25.3 C 39 % 10.36 C
3670 21-06-2019 17:45:00 25.4 C 38 % 10.06 C
3671 21-06-2019 17:50:00 25.6 C 37 % 9.84 C
3672 21-06-2019 17:55:00 25.6 C 37 % 9.84 C
3673 21-06-2019 18:00:00 25.7 C 38 % 10.32 C
3674 21-06-2019 18:05:00 25.8 C 38 % 10.41 C
3675 21-06-2019 18:10:00 25.7 C 37 % 9.92 C
Sensor: Nr:Datum:Temp:Feuchte:Taupunkt:
Aussen-T/F 3676 21-06-2019 18:15:00 25.6 C 38 % 10.23 C
3677 21-06-2019 18:20:00 25.4 C 39 % 10.45 C
3678 21-06-2019 18:25:00 25.1 C 40 % 10.56 C
3679 21-06-2019 18:30:00 24.8 C 40 % 10.29 C
3680 21-06-2019 18:35:00 24.7 C 40 % 10.2 C
3681 21-06-2019 18:40:00 24.5 C 40 % 10.02 C
3682 21-06-2019 18:45:00 24.3 C 41 % 10.21 C
3683 21-06-2019 18:50:00 24.1 C 41 % 10.03 C
3684 21-06-2019 18:55:00 23.8 C 42 % 10.12 C
3685 21-06-2019 19:00:00 23.8 C 42 % 10.12 C
3686 21-06-2019 19:05:00 24.1 C 42 % 10.39 C
3687 21-06-2019 19:10:00 24.2 C 41 % 10.12 C
3688 21-06-2019 19:15:00 24.2 C 41 % 10.12 C
3689 21-06-2019 19:20:00 24 C 43 % 10.66 C
3690 21-06-2019 19:25:00 23.8 C 42 % 10.12 C
3691 21-06-2019 19:30:00 23.7 C 42 % 10.03 C
3692 21-06-2019 19:35:00 23.4 C 43 % 10.12 C
3693 21-06-2019 19:40:00 23.3 C 45 % 10.71 C
3694 21-06-2019 19:45:00 23.2 C 44 % 10.28 C
3695 21-06-2019 19:50:00 23.1 C 44 % 10.19 C
3696 21-06-2019 19:55:00 22.8 C 45 % 10.25 C
3697 21-06-2019 20:00:00 22.8 C 45 % 10.25 C
3698 21-06-2019 20:05:00 22.7 C 45 % 10.16 C
3699 21-06-2019 20:10:00 22.6 C 45 % 10.07 C
3700 21-06-2019 20:15:00 22.4 C 46 % 10.22 C
Sensor: Nr:Datum:Temp:Feuchte:Taupunkt:
Aussen-T/F 3701 21-06-2019 20:20:00 22.5 C 47 % 10.63 C
3702 21-06-2019 20:25:00 22.4 C 46 % 10.22 C
3703 21-06-2019 20:30:00 22.3 C 46 % 10.13 C
3704 21-06-2019 20:35:00 22.1 C 46 % 9.95 C
3705 21-06-2019 20:40:00 21.9 C 49 % 10.71 C
3706 21-06-2019 20:45:00 21.7 C 48 % 10.22 C
3707 21-06-2019 20:50:00 21.5 C 52 % 11.24 C
3708 21-06-2019 20:55:00 20.9 C 51 % 10.39 C
3709 21-06-2019 21:00:00 20.4 C 53 % 10.51 C
3710 21-06-2019 21:05:00 20.2 C 53 % 10.32 C
3711 21-06-2019 21:10:00 20.1 C 53 % 10.23 C
3712 21-06-2019 21:15:00 20 C 53 % 10.14 C
3713 21-06-2019 21:20:00 19.9 C 54 % 10.32 C
3714 21-06-2019 21:25:00 19.8 C 57 % 11.04 C
3715 21-06-2019 21:30:00 19.6 C 58 % 11.12 C
3716 21-06-2019 21:35:00 19.2 C 60 % 11.25 C
3717 21-06-2019 21:40:00 18.8 C 59 % 10.63 C
3718 21-06-2019 21:45:00 18.5 C 61 % 10.84 C
3719 21-06-2019 21:50:00 18.2 C 62 % 10.81 C
3720 21-06-2019 21:55:00 17.8 C 63 % 10.67 C
3721 21-06-2019 22:00:00 17.6 C 64 % 10.72 C
3722 21-06-2019 22:05:00 17.3 C 64 % 10.43 C
3723 21-06-2019 22:10:00 17.1 C 65 % 10.47 C
3724 21-06-2019 22:15:00 16.9 C 65 % 10.28 C
3725 21-06-2019 22:20:00 16.8 C 66 % 10.42 C
Sensor: Nr:Datum:Temp:Feuchte:Taupunkt:
Aussen-T/F 3726 21-06-2019 22:25:00 16.7 C 66 % 10.32 C
3727 21-06-2019 22:30:00 16.5 C 67 % 10.36 C
3728 21-06-2019 22:35:00 16.3 C 67 % 10.17 C
3729 21-06-2019 22:40:00 16.2 C 68 % 10.29 C
3730 21-06-2019 22:45:00 16.1 C 68 % 10.2 C
3731 21-06-2019 22:50:00 15.9 C 68 % 10.01 C
3732 21-06-2019 22:55:00 15.8 C 69 % 10.13 C
3733 21-06-2019 23:00:00 15.8 C 70 % 10.34 C
3734 21-06-2019 23:05:00 15.7 C 70 % 10.25 C
3735 21-06-2019 23:10:00 15.6 C 71 % 10.37 C
3736 21-06-2019 23:15:00 15.5 C 72 % 10.48 C
3737 21-06-2019 23:20:00 15.4 C 72 % 10.38 C
3738 21-06-2019 23:25:00 15.3 C 72 % 10.29 C
3739 21-06-2019 23:30:00 15.2 C 73 % 10.4 C
3740 21-06-2019 23:35:00 15.1 C 73 % 10.3 C
3741 21-06-2019 23:40:00 14.9 C 73 % 10.11 C
3742 21-06-2019 23:45:00 14.9 C 74 % 10.31 C
3743 21-06-2019 23:50:00 14.8 C 75 % 10.42 C
3744 21-06-2019 23:55:00 14.6 C 75 % 10.22 C
3745 22-06-2019 00:00:00 14.4 C 76 % 10.23 C
3746 22-06-2019 00:05:00 14.3 C 77 % 10.33 C
3747 22-06-2019 00:10:00 14.2 C 78 % 10.42 C
3748 22-06-2019 00:15:00 14 C 78 % 10.23 C
3749 22-06-2019 00:20:00 13.8 C 79 % 10.22 C
3750 22-06-2019 00:25:00 13.7 C 79 % 10.13 C
Sensor: Nr:Datum:Temp:Feuchte:Taupunkt:
Aussen-T/F 3751 22-06-2019 00:30:00 13.6 C 79 % 10.03 C
3752 22-06-2019 00:35:00 13.5 C 80 % 10.12 C
3753 22-06-2019 00:40:00 13.4 C 80 % 10.02 C
3754 22-06-2019 00:45:00 13.3 C 80 % 9.93 C
3755 22-06-2019 00:50:00 13.2 C 81 % 10.01 C
3756 22-06-2019 00:55:00 13.2 C 81 % 10.01 C
3757 22-06-2019 01:00:00 13.1 C 82 % 10.1 C
3758 22-06-2019 01:05:00 13.1 C 82 % 10.1 C
3759 22-06-2019 01:10:00 13.1 C 82 % 10.1 C
3760 22-06-2019 01:15:00 13.1 C 82 % 10.1 C
3761 22-06-2019 01:20:00 13.1 C 82 % 10.1 C
3762 22-06-2019 01:25:00 13.1 C 82 % 10.1 C
3763 22-06-2019 01:30:00 13.1 C 82 % 10.1 C
3764 22-06-2019 01:35:00 13.1 C 82 % 10.1 C
3765 22-06-2019 01:40:00 13 C 82 % 10 C
3766 22-06-2019 01:45:00 12.9 C 83 % 10.09 C
3767 22-06-2019 01:50:00 12.8 C 83 % 9.99 C
3768 22-06-2019 01:55:00 12.7 C 83 % 9.89 C
3769 22-06-2019 02:00:00 12.6 C 84 % 9.97 C
3770 22-06-2019 02:05:00 12.4 C 84 % 9.78 C
3771 22-06-2019 02:10:00 12.3 C 85 % 9.85 C
3772 22-06-2019 02:15:00 12.3 C 85 % 9.85 C
3773 22-06-2019 02:20:00 12.2 C 85 % 9.76 C
3774 22-06-2019 02:25:00 12.2 C 86 % 9.93 C
3775 22-06-2019 02:30:00 12.1 C 86 % 9.83 C
Sensor: Nr:Datum:Temp:Feuchte:Taupunkt:
Aussen-T/F 3776 22-06-2019 02:35:00 12 C 86 % 9.73 C
3777 22-06-2019 02:40:00 11.9 C 86 % 9.64 C
3778 22-06-2019 02:45:00 11.8 C 87 % 9.71 C
3779 22-06-2019 02:50:00 11.8 C 87 % 9.71 C
3780 22-06-2019 02:55:00 11.7 C 87 % 9.61 C
3781 22-06-2019 03:00:00 11.7 C 88 % 9.78 C
3782 22-06-2019 03:05:00 11.7 C 88 % 9.78 C
3783 22-06-2019 03:10:00 11.6 C 88 % 9.68 C
3784 22-06-2019 03:15:00 11.6 C 88 % 9.68 C
3785 22-06-2019 03:20:00 11.6 C 88 % 9.68 C
3786 22-06-2019 03:25:00 11.5 C 88 % 9.58 C
3787 22-06-2019 03:30:00 11.4 C 89 % 9.65 C
3788 22-06-2019 03:35:00 11.4 C 89 % 9.65 C
3789 22-06-2019 03:40:00 11.4 C 89 % 9.65 C
3790 22-06-2019 03:45:00 11.4 C 89 % 9.65 C
3791 22-06-2019 03:50:00 11.4 C 89 % 9.65 C
3792 22-06-2019 03:55:00 11.3 C 89 % 9.55 C
3793 22-06-2019 04:00:00 11.3 C 90 % 9.72 C
3794 22-06-2019 04:05:00 11.3 C 90 % 9.72 C
3795 22-06-2019 04:10:00 11.3 C 90 % 9.72 C
3796 22-06-2019 04:15:00 11.2 C 90 % 9.62 C
3797 22-06-2019 04:20:00 11.1 C 90 % 9.52 C
3798 22-06-2019 04:25:00 11.1 C 90 % 9.52 C
3799 22-06-2019 04:30:00 11 C 90 % 9.42 C
3800 22-06-2019 04:35:00 11 C 91 % 9.59 C
Sensor: Nr:Datum:Temp:Feuchte:Taupunkt:
Aussen-T/F 3801 22-06-2019 04:40:00 10.9 C 91 % 9.49 C
3802 22-06-2019 04:45:00 10.9 C 91 % 9.49 C
3803 22-06-2019 04:50:00 10.8 C 91 % 9.39 C
3804 22-06-2019 04:55:00 10.8 C 91 % 9.39 C
3805 22-06-2019 05:00:00 10.8 C 91 % 9.39 C
3806 22-06-2019 05:05:00 10.8 C 91 % 9.39 C
3807 22-06-2019 05:10:00 10.7 C 91 % 9.29 C
3808 22-06-2019 05:15:00 10.7 C 92 % 9.45 C
3809 22-06-2019 05:20:00 10.7 C 92 % 9.45 C
3810 22-06-2019 05:25:00 10.7 C 92 % 9.45 C
3811 22-06-2019 05:30:00 10.7 C 92 % 9.45 C
3812 22-06-2019 05:35:00 10.7 C 92 % 9.45 C
3813 22-06-2019 05:40:00 10.6 C 92 % 9.36 C
3814 22-06-2019 05:45:00 10.6 C 92 % 9.36 C
3815 22-06-2019 05:50:00 10.5 C 92 % 9.26 C
3816 22-06-2019 05:55:00 10.6 C 92 % 9.36 C
3817 22-06-2019 06:00:00 10.6 C 92 % 9.36 C
3818 22-06-2019 06:05:00 10.6 C 93 % 9.52 C
3819 22-06-2019 06:10:00 10.6 C 93 % 9.52 C
3820 22-06-2019 06:15:00 10.6 C 93 % 9.52 C
3821 22-06-2019 06:20:00 10.7 C 93 % 9.62 C
3822 22-06-2019 06:25:00 10.7 C 93 % 9.62 C
3823 22-06-2019 06:30:00 10.7 C 93 % 9.62 C
3824 22-06-2019 06:35:00 10.7 C 93 % 9.62 C
3825 22-06-2019 06:40:00 10.8 C 93 % 9.71 C
Sensor: Nr:Datum:Temp:Feuchte:Taupunkt:
Aussen-T/F 3826 22-06-2019 06:45:00 10.8 C 93 % 9.71 C
3827 22-06-2019 06:50:00 10.8 C 93 % 9.71 C
3828 22-06-2019 06:55:00 10.9 C 94 % 9.97 C
3829 22-06-2019 07:00:00 11 C 94 % 10.07 C
3830 22-06-2019 07:05:00 11.1 C 94 % 10.17 C
3831 22-06-2019 07:10:00 11.2 C 94 % 10.27 C
3832 22-06-2019 07:15:00 11.4 C 94 % 10.47 C
3833 22-06-2019 07:20:00 11.6 C 94 % 10.67 C
3834 22-06-2019 07:25:00 11.7 C 94 % 10.77 C
3835 22-06-2019 07:30:00 11.8 C 95 % 11.03 C
3836 22-06-2019 07:35:00 12 C 94 % 11.07 C
3837 22-06-2019 07:40:00 12.2 C 95 % 11.42 C
3838 22-06-2019 07:45:00 12.3 C 94 % 11.36 C
3839 22-06-2019 07:50:00 12.6 C 95 % 11.82 C
3840 22-06-2019 07:55:00 12.8 C 95 % 12.02 C
3841 22-06-2019 08:00:00 12.9 C 94 % 11.96 C
3842 22-06-2019 08:05:00 13 C 93 % 11.9 C
3843 22-06-2019 08:10:00 13.2 C 93 % 12.09 C
3844 22-06-2019 08:15:00 13.4 C 92 % 12.13 C
3845 22-06-2019 08:20:00 13.7 C 92 % 12.42 C
3846 22-06-2019 08:25:00 13.8 C 91 % 12.36 C
3847 22-06-2019 08:30:00 13.9 C 90 % 12.29 C
3848 22-06-2019 08:35:00 14.2 C 89 % 12.41 C
3849 22-06-2019 08:40:00 14.3 C 90 % 12.68 C
3850 22-06-2019 08:45:00 14.4 C 88 % 12.44 C
Sensor: Nr:Datum:Temp:Feuchte:Taupunkt:
Aussen-T/F 3851 22-06-2019 08:50:00 14.6 C 88 % 12.64 C
3852 22-06-2019 08:55:00 14.7 C 87 % 12.56 C
3853 22-06-2019 09:00:00 14.9 C 87 % 12.76 C
3854 22-06-2019 09:05:00 15.1 C 86 % 12.78 C
3855 22-06-2019 09:10:00 15.3 C 84 % 12.61 C
3856 22-06-2019 09:15:00 15.6 C 85 % 13.09 C
3857 22-06-2019 09:20:00 15.8 C 81 % 12.55 C
3858 22-06-2019 09:25:00 16.2 C 79 % 12.56 C
3859 22-06-2019 09:30:00 16.4 C 77 % 12.36 C
3860 22-06-2019 09:35:00 16.6 C 77 % 12.55 C
3861 22-06-2019 09:40:00 16.9 C 78 % 13.04 C
3862 22-06-2019 09:45:00 17.2 C 76 % 12.94 C
3863 22-06-2019 09:50:00 17.5 C 75 % 13.02 C
3864 22-06-2019 09:55:00 17.8 C 73 % 12.9 C
3865 22-06-2019 10:00:00 18.1 C 72 % 12.98 C
3866 22-06-2019 10:05:00 18.4 C 69 % 12.61 C
3867 22-06-2019 10:10:00 18.7 C 69 % 12.9 C
3868 22-06-2019 10:15:00 18.9 C 68 % 12.87 C
3869 22-06-2019 10:20:00 19.2 C 68 % 13.15 C
3870 22-06-2019 10:25:00 19.4 C 67 % 13.12 C
3871 22-06-2019 10:30:00 19.7 C 68 % 13.63 C
3872 22-06-2019 10:35:00 20 C 67 % 13.69 C
3873 22-06-2019 10:40:00 20.2 C 65 % 13.41 C
3874 22-06-2019 10:45:00 20.3 C 65 % 13.51 C
3875 22-06-2019 10:50:00 20.4 C 64 % 13.37 C
Sensor: Nr:Datum:Temp:Feuchte:Taupunkt:
Aussen-T/F 3876 22-06-2019 10:55:00 20.4 C 64 % 13.37 C
3877 22-06-2019 11:00:00 20.6 C 64 % 13.55 C